Darstellungsparameter: Aktuell verwendete Einstellungen:
Skalierung der Graphiken ... ?
xyx+y,   Skalierungsfaktor:      Skalierung: Modus: x, Faktor: 1
Darstellungszeitraum ... ?
Vom - - bis: - -   Zeitraum: 09.02.2010 - 08.08.2010
Min/Max/Avg-Anzeige ... ?
Zeige MMA aktuell
Zeige MMA Monat
Zeige MMA alles
Zeige --A aktuell
Zeige --A Monat
Zeige --A alles
Keine MMA-Anzeige
MMA:
Average (ber die Originaldaten)
MMA-Basis: 09.02.2010 - 08.08.2010
Quicknavigation für Darstellung... ?
Tage:      1T, 2T, 3T, 5T -1T -2T -3T -5T +1T +2T +3T +5T
Wochen: 1W, 2W, 3W -1W -2W -3W +1W +2W +3W
Monate: 1M, 3M, 6M -1M -3M -6M +1M +3M +6M
Jahre:    1J, 3J, 5J, 10J -1J -3J -5J -10J +1J +3J +5J +10J
Nutze für die Darstellung ... ?
Originaldaten oder Mittelwerte auf ...
Stundenbasis Tagesbasis Wochenbasis
Monatsbasis Jahresbasis      Datenbasis: Original-Daten
Darstellen als:
Statistik (Auto) Statistik J:M      Darstellung:
Zur Graphik,    zurück zur Übersicht aller Sensoren.
 
Tabellarische Datenbersicht: ?
 
Sensor: Nr:Datum:Temp:Abs-Feuchte:Windchill:Wind:
Aussen-T/F 1 09-02-2010 00:11:14 -3.3 C 2.31 g/m*3 -3.3 C 0 km/h
2 09-02-2010 00:36:14 -3.4 C 2.33 g/m*3 -3.4 C 0 km/h
3 09-02-2010 01:01:14 -3.3 C 2.38 g/m*3 -3.3 C 0 km/h
4 09-02-2010 01:26:14 -3.2 C 2.36 g/m*3 -3.2 C 0 km/h
5 09-02-2010 01:51:14 -3.3 C 2.35 g/m*3 -3.3 C 0 km/h
6 09-02-2010 02:16:14 -3.2 C 2.36 g/m*3 -3.2 C 0 km/h
7 09-02-2010 02:41:15 -3.2 C 2.32 g/m*3 -3.2 C 0 km/h
8 09-02-2010 03:06:15 -3.2 C 2.32 g/m*3 -3.2 C 0 km/h
9 09-02-2010 03:31:15 -3.4 C 2.29 g/m*3 -3.4 C 0 km/h
10 09-02-2010 03:56:15 -3.4 C 2.29 g/m*3 -3.4 C 0 km/h
11 09-02-2010 04:21:15 -3.4 C 2.29 g/m*3 -3.4 C 0 km/h
12 09-02-2010 04:46:15 -3.5 C 2.27 g/m*3 -3.5 C 0 km/h
13 09-02-2010 05:11:15 -3.5 C 2.27 g/m*3 -3.5 C 0 km/h
14 09-02-2010 05:36:15 -3.5 C 2.27 g/m*3 -3.5 C 0 km/h
15 09-02-2010 06:01:15 -3.7 C 2.28 g/m*3 -3.7 C 0 km/h
16 09-02-2010 06:26:15 -3.7 C 2.32 g/m*3 -3.7 C 0 km/h
17 09-02-2010 06:51:15 -3.7 C 2.32 g/m*3 -3.7 C 0 km/h
18 09-02-2010 07:16:15 -3.8 C 2.26 g/m*3 -3.8 C 0 km/h
19 09-02-2010 07:41:15 -3.8 C 2.3 g/m*3 -3.8 C 0 km/h
20 09-02-2010 08:06:15 -3.9 C 2.28 g/m*3 -3.9 C 0 km/h
21 09-02-2010 08:31:15 -3.9 C 2.28 g/m*3 -3.9 C 0 km/h
22 09-02-2010 08:56:15 -4.1 C 2.25 g/m*3 -4.1 C 0 km/h
23 09-02-2010 09:21:15 -4 C 2.27 g/m*3 -4 C 0 km/h
24 09-02-2010 09:46:15 -3.9 C 2.32 g/m*3 -3.9 C 0 km/h
25 09-02-2010 10:11:15 -4 C 2.38 g/m*3 -4 C 0 km/h
Sensor: Nr:Datum:Temp:Abs-Feuchte:Windchill:Wind:
Aussen-T/F 26 09-02-2010 10:36:15 -3.6 C 2.52 g/m*3 -3.6 C 0 km/h
27 09-02-2010 11:01:15 -3.2 C 2.56 g/m*3 -3.2 C 0 km/h
28 09-02-2010 11:26:15 -3.4 C 2.37 g/m*3 -3.4 C 0 km/h
29 09-02-2010 11:51:16 -3.5 C 2.35 g/m*3 -3.5 C 0 km/h
30 09-02-2010 12:16:16 -3.4 C 2.25 g/m*3 -3.4 C 0 km/h
31 09-02-2010 12:41:16 -3.1 C 2.18 g/m*3 -3.1 C 0 km/h
32 09-02-2010 13:06:16 -2.8 C 2.23 g/m*3 -2.8 C 0 km/h
33 09-02-2010 13:31:16 -2.8 C 2.11 g/m*3 -2.8 C 0 km/h
34 09-02-2010 13:56:16 -3 C 2.04 g/m*3 -3 C 0 km/h
35 09-02-2010 14:21:16 -3.4 C 2.02 g/m*3 -3.4 C 0 km/h
36 09-02-2010 14:46:16 -3.5 C 2.01 g/m*3 -3.5 C 0 km/h
37 09-02-2010 15:11:16 -3.5 C 1.97 g/m*3 -3.5 C 0 km/h
38 09-02-2010 15:36:16 -3.6 C 2 g/m*3 -3.6 C 0 km/h
39 09-02-2010 16:01:16 -3.8 C 1.97 g/m*3 -3.8 C 0 km/h
40 09-02-2010 16:26:16 -3.6 C 2 g/m*3 -3.6 C 0 km/h
41 09-02-2010 16:51:16 -3.5 C 1.97 g/m*3 -3.5 C 0 km/h
42 09-02-2010 17:16:16 -3.9 C 2.03 g/m*3 -3.9 C 0 km/h
43 09-02-2010 17:41:16 -4 C 2.09 g/m*3 -4 C 0 km/h
44 09-02-2010 18:06:16 -4.1 C 2.14 g/m*3 -4.1 C 0 km/h
45 09-02-2010 18:31:16 -4.1 C 2.14 g/m*3 -4.1 C 0 km/h
46 09-02-2010 18:56:16 -4.2 C 2.09 g/m*3 -4.2 C 0 km/h
47 09-02-2010 19:21:16 -4.1 C 2.18 g/m*3 -4.1 C 0 km/h
48 09-02-2010 19:46:16 -4.1 C 2.18 g/m*3 -4.1 C 0 km/h
49 09-02-2010 20:11:16 -4.5 C 2.08 g/m*3 -4.5 C 0 km/h
50 09-02-2010 20:36:16 -4.6 C 2.1 g/m*3 -4.6 C 0 km/h
Sensor: Nr:Datum:Temp:Abs-Feuchte:Windchill:Wind:
Aussen-T/F 51 09-02-2010 21:01:17 -4.6 C 1.93 g/m*3 -4.6 C 0 km/h
52 09-02-2010 21:26:17 -4.6 C 1.75 g/m*3 -4.6 C 0 km/h
53 09-02-2010 21:51:17 -4.7 C 1.77 g/m*3 -4.7 C 0 km/h
54 09-02-2010 22:16:17 -4.6 C 1.82 g/m*3 -4.6 C 0 km/h
55 09-02-2010 22:41:17 -4.5 C 1.87 g/m*3 -4.5 C 0 km/h
56 09-02-2010 23:06:17 -4.6 C 1.93 g/m*3 -4.6 C 0 km/h
57 09-02-2010 23:31:17 -4.5 C 1.94 g/m*3 -4.5 C 0 km/h
58 09-02-2010 23:56:17 -4.5 C 1.94 g/m*3 -4.5 C 0 km/h
59 10-02-2010 00:21:17 -4.6 C 2.07 g/m*3 -4.6 C 0 km/h
60 10-02-2010 00:46:17 -4.7 C 2.12 g/m*3 -4.7 C 0 km/h
61 10-02-2010 01:11:17 -4.7 C 2.12 g/m*3 -4.7 C 0 km/h
62 10-02-2010 01:36:17 -4.7 C 2.16 g/m*3 -4.7 C 0 km/h
63 10-02-2010 02:01:17 -4.7 C 2.23 g/m*3 -4.7 C 0 km/h
64 10-02-2010 02:26:17 -4.6 C 2.28 g/m*3 -4.6 C 0 km/h
65 10-02-2010 02:51:17 -4.7 C 2.3 g/m*3 -4.7 C 0 km/h
66 10-02-2010 03:16:17 -4.7 C 2.33 g/m*3 -4.7 C 0 km/h
67 10-02-2010 03:41:17 -4.9 C 2.33 g/m*3 -4.9 C 0 km/h
68 10-02-2010 04:06:17 -4.9 C 2.3 g/m*3 -4.9 C 0 km/h
69 10-02-2010 04:31:17 -5 C 2.32 g/m*3 -5 C 0 km/h
70 10-02-2010 04:56:17 -5 C 2.35 g/m*3 -5 C 0 km/h
71 10-02-2010 05:21:17 -5 C 2.38 g/m*3 -5 C 0 km/h
72 10-02-2010 05:46:17 -5 C 2.35 g/m*3 -5 C 0 km/h
73 10-02-2010 06:11:18 -5 C 2.35 g/m*3 -5 C 0 km/h
74 10-02-2010 06:36:18 -5.2 C 2.32 g/m*3 -5.2 C 0 km/h
75 10-02-2010 07:01:18 -5.4 C 2.28 g/m*3 -5.4 C 0 km/h
Sensor: Nr:Datum:Temp:Abs-Feuchte:Windchill:Wind:
Aussen-T/F 76 10-02-2010 07:26:18 -5.6 C 2.31 g/m*3 -5.6 C 0 km/h
77 10-02-2010 07:51:18 -5.4 C 2.38 g/m*3 -5.4 C 0 km/h
78 10-02-2010 08:16:18 -5.5 C 2.36 g/m*3 -5.5 C 0 km/h
79 10-02-2010 08:41:18 -5.3 C 2.33 g/m*3 -5.3 C 0 km/h
80 10-02-2010 09:06:18 -5 C 2.42 g/m*3 -5 C 0 km/h
81 10-02-2010 09:31:18 -4.7 C 2.4 g/m*3 -4.7 C 0 km/h
82 10-02-2010 09:56:18 -4.7 C 2.4 g/m*3 -4.7 C 0 km/h
83 10-02-2010 10:21:18 -4.4 C 2.45 g/m*3 -4.4 C 0 km/h
84 10-02-2010 10:46:18 -4.4 C 2.35 g/m*3 -4.4 C 0 km/h
85 10-02-2010 11:11:18 -4 C 2.41 g/m*3 -4 C 0 km/h
86 10-02-2010 11:36:18 -3.7 C 2.35 g/m*3 -3.7 C 0 km/h
87 10-02-2010 12:01:18 -3.7 C 2.39 g/m*3 -3.7 C 0 km/h
88 10-02-2010 12:26:18 -3.2 C 2.32 g/m*3 -3.2 C 0 km/h
89 10-02-2010 12:51:18 -3.4 C 2.37 g/m*3 -3.4 C 0 km/h
90 10-02-2010 13:16:18 -3.2 C 2.52 g/m*3 -3.2 C 0 km/h
91 10-02-2010 13:41:18 -2.6 C 2.26 g/m*3 -2.6 C 0 km/h
92 10-02-2010 14:06:18 -3.2 C 2.21 g/m*3 -3.2 C 0 km/h
93 10-02-2010 14:31:18 -3.3 C 2.27 g/m*3 -3.3 C 0 km/h
94 10-02-2010 14:56:18 -3.2 C 2.25 g/m*3 -3.2 C 0 km/h
95 10-02-2010 15:21:18 -3.3 C 2.42 g/m*3 -3.3 C 0 km/h
96 10-02-2010 15:46:19 -3 C 2.24 g/m*3 -3 C 0 km/h
97 10-02-2010 16:11:19 -3.4 C 2.29 g/m*3 -3.4 C 0 km/h
98 10-02-2010 16:36:19 -3.5 C 2.27 g/m*3 -3.5 C 0 km/h
99 10-02-2010 17:01:19 -3.4 C 2.29 g/m*3 -3.4 C 0 km/h
100 10-02-2010 17:26:19 -3.8 C 2.3 g/m*3 -3.8 C 0 km/h
Sensor: Nr:Datum:Temp:Abs-Feuchte:Windchill:Wind:
Aussen-T/F 101 10-02-2010 17:51:19 -4.4 C 2.42 g/m*3 -4.4 C 0 km/h
102 10-02-2010 18:16:19 -5.2 C 2.32 g/m*3 -5.2 C 0 km/h
103 10-02-2010 18:41:19 -5.2 C 2.45 g/m*3 -5.2 C 0 km/h
104 10-02-2010 19:06:19 -5.3 C 2.37 g/m*3 -5.3 C 0 km/h
105 10-02-2010 19:31:19 -6 C 2.28 g/m*3 -6 C 0 km/h
106 10-02-2010 19:56:19 -6.2 C 2.31 g/m*3 -6.2 C 0 km/h
107 10-02-2010 20:21:19 -6.5 C 2.29 g/m*3 -6.5 C 0 km/h
108 10-02-2010 20:46:19 -6.3 C 2.35 g/m*3 -6.3 C 0 km/h
109 10-02-2010 21:11:19 -6.1 C 2.39 g/m*3 -6.1 C 0 km/h
110 10-02-2010 21:36:19 -6.6 C 2.27 g/m*3 -6.6 C 0 km/h
111 10-02-2010 22:01:19 -6.3 C 2.35 g/m*3 -6.3 C 0 km/h
112 10-02-2010 22:26:19 -6.5 C 2.26 g/m*3 -6.5 C 0 km/h
113 10-02-2010 22:51:19 -6.9 C 2.16 g/m*3 -6.9 C 0 km/h
114 10-02-2010 23:16:19 -7.4 C 2.09 g/m*3 -7.4 C 0 km/h
115 10-02-2010 23:41:19 -7 C 2.18 g/m*3 -7 C 0 km/h
116 11-02-2010 00:06:20 -6.5 C 2.29 g/m*3 -6.5 C 0 km/h
117 11-02-2010 00:31:20 -6.5 C 2.17 g/m*3 -6.5 C 0 km/h
118 11-02-2010 00:56:20 -6.6 C 2.12 g/m*3 -6.6 C 0 km/h
119 11-02-2010 01:21:20 -7.5 C 1.96 g/m*3 -7.5 C 0 km/h
120 11-02-2010 01:46:20 -8.1 C 1.9 g/m*3 -8.1 C 0 km/h
121 11-02-2010 02:11:20 -7.7 C 2.04 g/m*3 -7.7 C 0 km/h
122 11-02-2010 02:36:20 -7.4 C 2.09 g/m*3 -7.4 C 0 km/h
123 11-02-2010 03:01:20 -7.2 C 2.12 g/m*3 -7.2 C 0 km/h
124 11-02-2010 03:26:20 -6.9 C 2.14 g/m*3 -6.9 C 0 km/h
125 11-02-2010 03:51:20 -6.8 C 2.12 g/m*3 -6.8 C 0 km/h
Sensor: Nr:Datum:Temp:Abs-Feuchte:Windchill:Wind:
Aussen-T/F 126 11-02-2010 04:16:20 -6.8 C 2.09 g/m*3 -6.8 C 0 km/h
127 11-02-2010 04:41:20 -6.4 C 2.18 g/m*3 -6.4 C 0 km/h
128 11-02-2010 05:06:20 -6.2 C 2.18 g/m*3 -6.2 C 0 km/h
129 11-02-2010 05:31:20 -6.1 C 2.23 g/m*3 -6.1 C 0 km/h
130 11-02-2010 05:56:20 -6 C 2.31 g/m*3 -6 C 0 km/h
131 11-02-2010 06:21:20 -5.9 C 2.36 g/m*3 -5.9 C 0 km/h
132 11-02-2010 06:46:20 -5.8 C 2.44 g/m*3 -5.8 C 0 km/h
133 11-02-2010 07:11:20 -5.7 C 2.46 g/m*3 -5.7 C 0 km/h
134 11-02-2010 07:36:20 -5.6 C 2.51 g/m*3 -5.6 C 0 km/h
135 11-02-2010 08:01:20 -5.5 C 2.56 g/m*3 -5.5 C 0 km/h
136 11-02-2010 08:26:20 -5.4 C 2.58 g/m*3 -5.4 C 0 km/h
137 11-02-2010 08:51:20 -5.2 C 2.62 g/m*3 -5.2 C 0 km/h
138 11-02-2010 09:16:20 -4.9 C 2.64 g/m*3 -4.9 C 0 km/h
139 11-02-2010 09:41:21 -4.5 C 2.68 g/m*3 -4.5 C 0 km/h
140 11-02-2010 10:06:21 -4 C 2.74 g/m*3 -4 C 0 km/h
141 11-02-2010 10:31:21 -3.7 C 2.77 g/m*3 -3.7 C 0 km/h
142 11-02-2010 10:56:21 -3.3 C 2.77 g/m*3 -3.3 C 0 km/h
143 11-02-2010 11:21:21 -2.9 C 2.77 g/m*3 -2.9 C 0 km/h
144 11-02-2010 11:46:21 -2.7 C 2.81 g/m*3 -2.7 C 0 km/h
145 11-02-2010 12:11:21 -2.5 C 2.89 g/m*3 -2.5 C 0 km/h
146 11-02-2010 12:36:21 -2 C 2.99 g/m*3 -2 C 0 km/h
147 11-02-2010 13:01:21 -1.5 C 3.1 g/m*3 -1.5 C 0 km/h
148 11-02-2010 13:26:21 -1.1 C 3.05 g/m*3 -1.1 C 0 km/h
149 11-02-2010 13:51:21 -1.3 C 2.92 g/m*3 -1.3 C 0 km/h
150 11-02-2010 14:16:21 -1.1 C 3.1 g/m*3 -1.1 C 0 km/h
Sensor: Nr:Datum:Temp:Abs-Feuchte:Windchill:Wind:
Aussen-T/F 151 11-02-2010 14:41:21 -1.2 C 2.94 g/m*3 -1.2 C 0 km/h
152 11-02-2010 15:06:21 -1.2 C 2.9 g/m*3 -1.2 C 0 km/h
153 11-02-2010 15:31:21 -1.6 C 2.86 g/m*3 -1.6 C 0 km/h
154 11-02-2010 15:56:21 -1.3 C 2.88 g/m*3 -1.3 C 0 km/h
155 11-02-2010 16:21:21 -1.4 C 2.9 g/m*3 -1.4 C 0 km/h
156 11-02-2010 16:46:21 -1.6 C 2.9 g/m*3 -1.6 C 0 km/h
157 11-02-2010 17:11:21 -1.7 C 2.84 g/m*3 -1.7 C 0 km/h
158 11-02-2010 17:36:21 -1.7 C 2.76 g/m*3 -1.7 C 0 km/h
159 11-02-2010 18:01:21 -1.8 C 2.74 g/m*3 -1.8 C 0 km/h
160 11-02-2010 18:26:21 -1.8 C 2.74 g/m*3 -1.8 C 0 km/h
161 11-02-2010 18:51:22 -1.8 C 2.69 g/m*3 -1.8 C 0 km/h
162 11-02-2010 19:16:22 -1.8 C 2.65 g/m*3 -1.8 C 0 km/h
163 11-02-2010 19:41:22 -1.8 C 2.65 g/m*3 -1.8 C 0 km/h
164 11-02-2010 20:06:22 -1.8 C 2.65 g/m*3 -1.8 C 0 km/h
165 11-02-2010 20:31:22 -1.8 C 2.69 g/m*3 -1.8 C 0 km/h
166 11-02-2010 20:56:22 -1.8 C 2.74 g/m*3 -1.8 C 0 km/h
167 11-02-2010 21:21:22 -2.1 C 2.85 g/m*3 -2.1 C 0 km/h
168 11-02-2010 21:46:22 -2.2 C 2.95 g/m*3 -2.2 C 0 km/h
169 11-02-2010 22:11:22 -2.5 C 3.05 g/m*3 -2.5 C 0 km/h
170 11-02-2010 22:36:22 -2.5 C 3.09 g/m*3 -2.5 C 0 km/h
171 11-02-2010 23:01:22 -2.5 C 3.13 g/m*3 -2.5 C 0 km/h
172 11-02-2010 23:26:22 -2.6 C 3.15 g/m*3 -2.6 C 0 km/h
173 11-02-2010 23:51:22 -2.5 C 3.17 g/m*3 -2.5 C 0 km/h
174 12-02-2010 00:16:22 -2.6 C 3.19 g/m*3 -2.6 C 0 km/h
175 12-02-2010 00:41:22 -2.7 C 3.21 g/m*3 -2.7 C 0 km/h
Sensor: Nr:Datum:Temp:Abs-Feuchte:Windchill:Wind:
Aussen-T/F 176 12-02-2010 01:06:22 -2.7 C 3.21 g/m*3 -2.7 C 0 km/h
177 12-02-2010 01:31:22 -2.7 C 3.21 g/m*3 -2.7 C 0 km/h
178 12-02-2010 01:56:22 -2.6 C 3.19 g/m*3 -2.6 C 0 km/h
179 12-02-2010 02:21:22 -2.6 C 3.19 g/m*3 -2.6 C 0 km/h
180 12-02-2010 02:46:22 -2.6 C 3.15 g/m*3 -2.6 C 0 km/h
181 12-02-2010 03:11:22 -2.6 C 3.19 g/m*3 -2.6 C 0 km/h
182 12-02-2010 03:36:22 -2.7 C 3.17 g/m*3 -2.7 C 0 km/h
183 12-02-2010 04:01:23 -2.6 C 3.23 g/m*3 -2.6 C 0 km/h
184 12-02-2010 04:26:23 -2.6 C 3.19 g/m*3 -2.6 C 0 km/h
185 12-02-2010 04:51:23 -2.6 C 3.19 g/m*3 -2.6 C 0 km/h
186 12-02-2010 05:16:23 -2.6 C 3.19 g/m*3 -2.6 C 0 km/h
187 12-02-2010 05:41:23 -2.5 C 3.21 g/m*3 -2.5 C 0 km/h
188 12-02-2010 06:06:23 -2.6 C 3.15 g/m*3 -2.6 C 0 km/h
189 12-02-2010 06:31:23 -2.5 C 3.17 g/m*3 -2.5 C 0 km/h
190 12-02-2010 06:56:23 -2.6 C 3.19 g/m*3 -2.6 C 0 km/h
191 12-02-2010 07:21:23 -2.7 C 3.17 g/m*3 -2.7 C 0 km/h
192 12-02-2010 07:46:23 -2.8 C 3.07 g/m*3 -2.8 C 0 km/h
193 12-02-2010 08:11:23 -2.7 C 3.01 g/m*3 -2.7 C 0 km/h
194 12-02-2010 08:36:23 -2.6 C 3.03 g/m*3 -2.6 C 0 km/h
195 12-02-2010 09:01:23 -2.6 C 3.03 g/m*3 -2.6 C 0 km/h
196 12-02-2010 09:26:23 -2.5 C 3.01 g/m*3 -2.5 C 0 km/h
197 12-02-2010 09:51:23 -2.3 C 2.97 g/m*3 -2.3 C 0 km/h
198 12-02-2010 10:16:23 -2.1 C 2.93 g/m*3 -2.1 C 0 km/h
199 12-02-2010 10:41:23 -1.9 C 2.84 g/m*3 -1.9 C 0 km/h
200 12-02-2010 11:06:23 -1.2 C 2.9 g/m*3 -1.2 C 0 km/h
Sensor: Nr:Datum:Temp:Abs-Feuchte:Windchill:Wind:
Aussen-T/F 201 12-02-2010 11:31:23 -1.3 C 2.74 g/m*3 -1.3 C 0 km/h
202 12-02-2010 11:56:23 -1 C 2.71 g/m*3 -1 C 0 km/h
203 12-02-2010 12:21:23 -1.1 C 2.69 g/m*3 -1.1 C 0 km/h
204 12-02-2010 12:46:23 -1.4 C 2.77 g/m*3 -1.4 C 0 km/h
205 12-02-2010 13:11:24 -1.2 C 2.85 g/m*3 -1.2 C 0 km/h
206 12-02-2010 13:36:24 -1.2 C 2.9 g/m*3 -1.2 C 0 km/h
207 12-02-2010 14:01:24 -1.1 C 2.92 g/m*3 -1.1 C 0 km/h
208 12-02-2010 14:26:24 -0.7 C 2.95 g/m*3 -0.7 C 0 km/h
209 12-02-2010 14:51:24 -0.5 C 2.95 g/m*3 -0.5 C 0 km/h
210 12-02-2010 15:16:24 -0.8 C 2.84 g/m*3 -0.8 C 0 km/h
211 12-02-2010 15:41:24 -0.8 C 2.89 g/m*3 -0.8 C 0 km/h
212 12-02-2010 16:06:24 -0.9 C 2.91 g/m*3 -0.9 C 0 km/h
213 12-02-2010 16:31:24 -1.2 C 2.85 g/m*3 -1.2 C 0 km/h
214 12-02-2010 16:56:24 -1.2 C 2.76 g/m*3 -1.2 C 0 km/h
215 12-02-2010 17:21:24 -1.4 C 2.73 g/m*3 -1.4 C 0 km/h
216 12-02-2010 17:46:24 -1.9 C 2.76 g/m*3 -1.9 C 0 km/h
217 12-02-2010 18:11:24 -2.1 C 2.72 g/m*3 -2.1 C 0 km/h
218 12-02-2010 18:36:24 -2.2 C 2.78 g/m*3 -2.2 C 0 km/h
219 12-02-2010 19:01:24 -2.4 C 2.66 g/m*3 -2.4 C 0 km/h
220 12-02-2010 19:26:24 -2.5 C 2.69 g/m*3 -2.5 C 0 km/h
221 12-02-2010 19:51:24 -2.5 C 2.73 g/m*3 -2.5 C 0 km/h
222 12-02-2010 20:16:24 -2.6 C 2.71 g/m*3 -2.6 C 0 km/h
223 12-02-2010 20:41:24 -2.6 C 2.75 g/m*3 -2.6 C 0 km/h
224 12-02-2010 21:06:24 -2.6 C 2.71 g/m*3 -2.6 C 0 km/h
225 12-02-2010 21:31:24 -2.7 C 2.73 g/m*3 -2.7 C 0 km/h
Sensor: Nr:Datum:Temp:Abs-Feuchte:Windchill:Wind:
Aussen-T/F 226 12-02-2010 21:56:25 -2.8 C 2.71 g/m*3 -2.8 C 0 km/h
227 12-02-2010 22:21:25 -2.8 C 2.75 g/m*3 -2.8 C 0 km/h
228 12-02-2010 22:46:25 -2.9 C 2.73 g/m*3 -2.9 C 0 km/h
229 12-02-2010 23:11:25 -3 C 2.71 g/m*3 -3 C 0 km/h
230 12-02-2010 23:36:25 -3.2 C 2.67 g/m*3 -3.2 C 0 km/h
231 13-02-2010 00:01:25 -3.2 C 2.71 g/m*3 -3.2 C 0 km/h
232 13-02-2010 00:26:25 -3.4 C 2.75 g/m*3 -3.4 C 0 km/h
233 13-02-2010 00:51:25 -3.7 C 2.73 g/m*3 -3.7 C 0 km/h
234 13-02-2010 01:16:25 -3.9 C 2.76 g/m*3 -3.9 C 0 km/h
235 13-02-2010 01:41:25 -4 C 2.78 g/m*3 -4 C 0 km/h
236 13-02-2010 02:06:25 -3.9 C 2.8 g/m*3 -3.9 C 0 km/h
237 13-02-2010 02:31:25 -4 C 2.74 g/m*3 -4 C 0 km/h
238 13-02-2010 02:56:25 -4.1 C 2.69 g/m*3 -4.1 C 0 km/h
239 13-02-2010 03:21:25 -4.2 C 2.7 g/m*3 -4.2 C 0 km/h
240 13-02-2010 03:46:25 -4.2 C 2.74 g/m*3 -4.2 C 0 km/h
241 13-02-2010 04:11:25 -4.2 C 2.74 g/m*3 -4.2 C 0 km/h
242 13-02-2010 04:36:25 -4.1 C 2.8 g/m*3 -4.1 C 0 km/h
243 13-02-2010 05:01:25 -4.1 C 2.8 g/m*3 -4.1 C 0 km/h
244 13-02-2010 05:26:25 -4 C 2.82 g/m*3 -4 C 0 km/h
245 13-02-2010 05:51:25 -3.8 C 2.86 g/m*3 -3.8 C 0 km/h
246 13-02-2010 06:16:26 -3.9 C 2.84 g/m*3 -3.9 C 0 km/h
247 13-02-2010 06:41:26 -3.8 C 2.86 g/m*3 -3.8 C 0 km/h
248 13-02-2010 07:06:26 -3.7 C 2.84 g/m*3 -3.7 C 0 km/h
249 13-02-2010 07:31:26 -3.8 C 2.78 g/m*3 -3.8 C 0 km/h
250 13-02-2010 07:56:26 -3.8 C 2.82 g/m*3 -3.8 C 0 km/h
Sensor: Nr:Datum:Temp:Abs-Feuchte:Windchill:Wind:
Aussen-T/F 251 13-02-2010 08:21:26 -3.6 C 2.86 g/m*3 -3.6 C 0 km/h
252 13-02-2010 08:46:26 -3.2 C 2.9 g/m*3 -3.2 C 0 km/h
253 13-02-2010 09:11:26 -2.9 C 2.89 g/m*3 -2.9 C 0 km/h
254 13-02-2010 09:36:26 -2.6 C 2.91 g/m*3 -2.6 C 0 km/h
255 13-02-2010 10:01:26 -2.7 C 2.73 g/m*3 -2.7 C 0 km/h
256 13-02-2010 10:26:26 -2.4 C 2.7 g/m*3 -2.4 C 0 km/h
257 13-02-2010 10:51:26 -2.3 C 2.64 g/m*3 -2.3 C 0 km/h
258 13-02-2010 11:16:26 -1.9 C 2.76 g/m*3 -1.9 C 0 km/h
259 13-02-2010 11:41:26 -1.5 C 2.66 g/m*3 -1.5 C 0 km/h
260 13-02-2010 12:06:26 -1.3 C 2.7 g/m*3 -1.3 C 0 km/h
261 13-02-2010 12:31:26 -0.5 C 2.86 g/m*3 -0.5 C 0 km/h
262 13-02-2010 12:56:26 -1.2 C 2.67 g/m*3 -1.2 C 0 km/h
263 13-02-2010 13:21:26 -1.4 C 2.73 g/m*3 -1.4 C 0 km/h
264 13-02-2010 13:46:26 -1 C 2.76 g/m*3 -1 C 0 km/h
265 13-02-2010 14:11:26 -1.1 C 2.51 g/m*3 -1.1 C 0 km/h
266 13-02-2010 14:36:26 0 C 2.76 g/m*3 0 C 0 km/h
267 13-02-2010 15:01:27 -0.3 C 2.56 g/m*3 -0.3 C 0 km/h
268 13-02-2010 15:26:27 -0.5 C 2.57 g/m*3 -0.5 C 0 km/h
269 13-02-2010 15:51:27 -0.7 C 2.54 g/m*3 -0.7 C 0 km/h
270 13-02-2010 16:16:27 -0.9 C 2.55 g/m*3 -0.9 C 0 km/h
271 13-02-2010 16:41:27 -1 C 2.58 g/m*3 -1 C 0 km/h
272 13-02-2010 17:06:27 -1.4 C 2.68 g/m*3 -1.4 C 0 km/h
273 13-02-2010 17:31:27 -1.9 C 2.8 g/m*3 -1.9 C 0 km/h
274 13-02-2010 17:56:27 -2 C 2.91 g/m*3 -2 C 0 km/h
275 13-02-2010 18:21:27 -2 C 2.95 g/m*3 -2 C 0 km/h
Sensor: Nr:Datum:Temp:Abs-Feuchte:Windchill:Wind:
Aussen-T/F 276 13-02-2010 18:46:27 -2.1 C 2.97 g/m*3 -2.1 C 0 km/h
277 13-02-2010 19:11:27 -2.2 C 2.99 g/m*3 -2.2 C 0 km/h
278 13-02-2010 19:36:27 -2.1 C 3.01 g/m*3 -2.1 C 0 km/h
279 13-02-2010 20:01:27 -2.2 C 2.99 g/m*3 -2.2 C 0 km/h
280 13-02-2010 20:26:27 -2.3 C 3.01 g/m*3 -2.3 C 0 km/h
281 13-02-2010 20:51:27 -2.4 C 2.99 g/m*3 -2.4 C 0 km/h
282 13-02-2010 21:16:27 -2.4 C 2.99 g/m*3 -2.4 C 0 km/h
283 13-02-2010 21:41:27 -2.4 C 2.99 g/m*3 -2.4 C 0 km/h
284 13-02-2010 22:06:27 -2.5 C 2.97 g/m*3 -2.5 C 0 km/h
285 13-02-2010 22:31:27 -2.6 C 2.99 g/m*3 -2.6 C 0 km/h
286 13-02-2010 22:56:27 -2.5 C 3.05 g/m*3 -2.5 C 0 km/h
287 13-02-2010 23:21:28 -2.7 C 3.05 g/m*3 -2.7 C 0 km/h
288 13-02-2010 23:46:28 -2.8 C 3.03 g/m*3 -2.8 C 0 km/h
289 14-02-2010 00:11:28 -2.9 C 3.01 g/m*3 -2.9 C 0 km/h
290 14-02-2010 00:36:28 -3.1 C 3 g/m*3 -3.1 C 0 km/h
291 14-02-2010 01:01:28 -3.2 C 2.98 g/m*3 -3.2 C 0 km/h
292 14-02-2010 01:26:28 -3.3 C 2.96 g/m*3 -3.3 C 0 km/h
293 14-02-2010 01:51:28 -3.4 C 2.94 g/m*3 -3.4 C 0 km/h
294 14-02-2010 02:16:28 -3.4 C 2.98 g/m*3 -3.4 C 0 km/h
295 14-02-2010 02:41:28 -3.4 C 2.98 g/m*3 -3.4 C 0 km/h
296 14-02-2010 03:06:28 -3.4 C 3.02 g/m*3 -3.4 C 0 km/h
297 14-02-2010 03:31:28 -3.4 C 3.02 g/m*3 -3.4 C 0 km/h
298 14-02-2010 03:56:28 -3.6 C 2.97 g/m*3 -3.6 C 0 km/h
299 14-02-2010 04:21:28 -3.5 C 2.99 g/m*3 -3.5 C 0 km/h
300 14-02-2010 04:46:28 -3.6 C 2.97 g/m*3 -3.6 C 0 km/h
Sensor: Nr:Datum:Temp:Abs-Feuchte:Windchill:Wind:
Aussen-T/F 301 14-02-2010 05:11:28 -3.7 C 2.95 g/m*3 -3.7 C 0 km/h
302 14-02-2010 05:36:28 -3.6 C 3.01 g/m*3 -3.6 C 0 km/h
303 14-02-2010 06:01:28 -3.7 C 2.99 g/m*3 -3.7 C 0 km/h
304 14-02-2010 06:26:28 -3.7 C 2.99 g/m*3 -3.7 C 0 km/h
305 14-02-2010 06:51:28 -3.7 C 2.99 g/m*3 -3.7 C 0 km/h
306 14-02-2010 07:16:28 -3.4 C 3.05 g/m*3 -3.4 C 0 km/h
307 14-02-2010 07:41:28 -3.6 C 3.01 g/m*3 -3.6 C 0 km/h
308 14-02-2010 08:06:29 -3.5 C 3.03 g/m*3 -3.5 C 0 km/h
309 14-02-2010 08:31:29 -3.5 C 3.03 g/m*3 -3.5 C 0 km/h
310 14-02-2010 08:56:29 -3.3 C 3.08 g/m*3 -3.3 C 0 km/h
311 14-02-2010 09:21:29 -3.2 C 3.1 g/m*3 -3.2 C 0 km/h
312 14-02-2010 09:46:29 -3.1 C 3.12 g/m*3 -3.1 C 0 km/h
313 14-02-2010 10:11:29 -2.8 C 3.19 g/m*3 -2.8 C 0 km/h
314 14-02-2010 10:36:29 -2.4 C 3.24 g/m*3 -2.4 C 0 km/h
315 14-02-2010 11:01:29 -2.1 C 3.22 g/m*3 -2.1 C 0 km/h
316 14-02-2010 11:26:29 -1.9 C 3.23 g/m*3 -1.9 C 0 km/h
317 14-02-2010 11:51:29 -1.5 C 3.23 g/m*3 -1.5 C 0 km/h
318 14-02-2010 12:16:29 -1.1 C 3.19 g/m*3 -1.1 C 0 km/h
319 14-02-2010 12:41:29 -0.6 C 3.07 g/m*3 -0.6 C 0 km/h
320 14-02-2010 13:06:29 0.2 C 3.14 g/m*3 0.2 C 0 km/h
321 14-02-2010 13:31:29 0.6 C 3.03 g/m*3 0.6 C 0 km/h
322 14-02-2010 13:56:29 1 C 3.01 g/m*3 1 C 0 km/h
323 14-02-2010 14:21:29 1.4 C 3.09 g/m*3 1.4 C 0 km/h
324 14-02-2010 14:46:29 1.4 C 3.04 g/m*3 1.4 C 0 km/h
325 14-02-2010 15:11:29 0.8 C 2.92 g/m*3 0.8 C 0 km/h
Sensor: Nr:Datum:Temp:Abs-Feuchte:Windchill:Wind:
Aussen-T/F 326 14-02-2010 15:36:29 0.7 C 3 g/m*3 0.7 C 0 km/h
327 14-02-2010 16:01:29 0.1 C 2.98 g/m*3 0.1 C 0 km/h
328 14-02-2010 16:26:30 -0.3 C 2.99 g/m*3 -0.3 C 0 km/h
329 14-02-2010 16:51:30 -0.5 C 3.09 g/m*3 -0.5 C 0 km/h
330 14-02-2010 17:16:30 -0.7 C 3.14 g/m*3 -0.7 C 0 km/h
331 14-02-2010 17:41:30 -0.9 C 3.19 g/m*3 -0.9 C 0 km/h
332 14-02-2010 18:06:30 -1.1 C 3.23 g/m*3 -1.1 C 0 km/h
333 14-02-2010 18:31:30 -1.3 C 3.23 g/m*3 -1.3 C 0 km/h
334 14-02-2010 18:56:30 -1.5 C 3.27 g/m*3 -1.5 C 0 km/h
335 14-02-2010 19:21:30 -1.7 C 3.27 g/m*3 -1.7 C 0 km/h
336 14-02-2010 19:46:30 -1.8 C 3.29 g/m*3 -1.8 C 0 km/h
337 14-02-2010 20:11:30 -1.7 C 3.36 g/m*3 -1.7 C 0 km/h
338 14-02-2010 20:36:30 -1.9 C 3.31 g/m*3 -1.9 C 0 km/h
339 14-02-2010 21:01:30 -2.2 C 3.24 g/m*3 -2.2 C 0 km/h
340 14-02-2010 21:26:30 -2.4 C 3.16 g/m*3 -2.4 C 0 km/h
341 14-02-2010 21:51:30 -2.6 C 3.11 g/m*3 -2.6 C 0 km/h
342 14-02-2010 22:16:30 -2.9 C 3.01 g/m*3 -2.9 C 0 km/h
343 14-02-2010 22:41:30 -3 C 3.02 g/m*3 -3 C 0 km/h
344 14-02-2010 23:06:30 -3 C 2.99 g/m*3 -3 C 0 km/h
345 14-02-2010 23:31:30 -3 C 2.99 g/m*3 -3 C 0 km/h
346 14-02-2010 23:56:30 -3 C 2.99 g/m*3 -3 C 0 km/h
347 15-02-2010 00:21:30 -3 C 2.99 g/m*3 -3 C 0 km/h
348 15-02-2010 00:46:30 -3 C 2.99 g/m*3 -3 C 0 km/h
349 15-02-2010 01:11:31 -3 C 2.99 g/m*3 -3 C 0 km/h
350 15-02-2010 01:36:31 -2.9 C 2.97 g/m*3 -2.9 C 0 km/h
Sensor: Nr:Datum:Temp:Abs-Feuchte:Windchill:Wind:
Aussen-T/F 351 15-02-2010 02:01:31 -2.8 C 2.99 g/m*3 -2.8 C 0 km/h
352 15-02-2010 02:26:31 -2.7 C 3.01 g/m*3 -2.7 C 0 km/h
353 15-02-2010 02:51:31 -2.6 C 3.03 g/m*3 -2.6 C 0 km/h
354 15-02-2010 03:16:31 -2.6 C 2.99 g/m*3 -2.6 C 0 km/h
355 15-02-2010 03:41:31 -2.6 C 2.99 g/m*3 -2.6 C 0 km/h
356 15-02-2010 04:06:31 -2.6 C 2.99 g/m*3 -2.6 C 0 km/h
357 15-02-2010 04:31:31 -2.6 C 3.03 g/m*3 -2.6 C 0 km/h
358 15-02-2010 04:56:31 -2.6 C 3.03 g/m*3 -2.6 C 0 km/h
359 15-02-2010 05:21:31 -2.6 C 3.07 g/m*3 -2.6 C 0 km/h
360 15-02-2010 05:46:31 -2.6 C 3.11 g/m*3 -2.6 C 0 km/h
361 15-02-2010 06:11:31 -2.7 C 3.05 g/m*3 -2.7 C 0 km/h
362 15-02-2010 06:36:31 -2.8 C 3.03 g/m*3 -2.8 C 0 km/h
363 15-02-2010 07:01:31 -2.9 C 3.01 g/m*3 -2.9 C 0 km/h
364 15-02-2010 07:26:31 -3.2 C 2.9 g/m*3 -3.2 C 0 km/h
365 15-02-2010 07:51:31 -3.1 C 2.96 g/m*3 -3.1 C 0 km/h
366 15-02-2010 08:16:31 -3.1 C 2.96 g/m*3 -3.1 C 0 km/h
367 15-02-2010 08:41:31 -3 C 2.91 g/m*3 -3 C 0 km/h
368 15-02-2010 09:06:31 -2.7 C 2.93 g/m*3 -2.7 C 0 km/h
369 15-02-2010 09:31:31 -2.3 C 2.97 g/m*3 -2.3 C 0 km/h
370 15-02-2010 09:56:32 -1.8 C 3.04 g/m*3 -1.8 C 0 km/h
371 15-02-2010 10:21:32 -1.4 C 3.03 g/m*3 -1.4 C 0 km/h
372 15-02-2010 10:46:32 -0.2 C 3.11 g/m*3 -0.2 C 0 km/h
373 15-02-2010 11:11:32 -0.3 C 3.04 g/m*3 -0.3 C 0 km/h
374 15-02-2010 11:36:32 -0.2 C 3.11 g/m*3 -0.2 C 0 km/h
375 15-02-2010 12:01:32 0.3 C 3.07 g/m*3 0.3 C 0 km/h
Sensor: Nr:Datum:Temp:Abs-Feuchte:Windchill:Wind:
Aussen-T/F 376 15-02-2010 12:26:32 0.9 C 3.2 g/m*3 0.9 C 0 km/h
377 15-02-2010 12:51:32 1.2 C 3.21 g/m*3 1.2 C 0 km/h
378 15-02-2010 13:16:32 1.6 C 3.24 g/m*3 1.6 C 0 km/h
379 15-02-2010 13:41:32 1.8 C 3.29 g/m*3 1.8 C 0 km/h
380 15-02-2010 14:06:32 2.2 C 3.21 g/m*3 2.2 C 0 km/h
381 15-02-2010 14:31:32 1.4 C 3.2 g/m*3 1.4 C 0 km/h
382 15-02-2010 14:56:32 1.6 C 3.41 g/m*3 1.6 C 0 km/h
383 15-02-2010 15:21:32 1.8 C 3.45 g/m*3 1.8 C 0 km/h
384 15-02-2010 15:46:32 1.8 C 3.4 g/m*3 1.8 C 0 km/h
385 15-02-2010 16:11:32 1.5 C 3.38 g/m*3 1.5 C 0 km/h
386 15-02-2010 16:36:32 1.3 C 3.44 g/m*3 1.3 C 0 km/h
387 15-02-2010 17:01:32 0.7 C 3.46 g/m*3 0.7 C 0 km/h
388 15-02-2010 17:26:32 0.3 C 3.46 g/m*3 0.3 C 0 km/h
389 15-02-2010 17:51:32 -0.2 C 3.39 g/m*3 -0.2 C 0 km/h
390 15-02-2010 18:16:33 -0.4 C 3.44 g/m*3 -0.4 C 0 km/h
391 15-02-2010 18:41:33 -0.6 C 3.44 g/m*3 -0.6 C 0 km/h
392 15-02-2010 19:06:33 -0.9 C 3.46 g/m*3 -0.9 C 0 km/h
393 15-02-2010 19:31:33 -1 C 3.44 g/m*3 -1 C 0 km/h
394 15-02-2010 19:56:33 -1 C 3.48 g/m*3 -1 C 0 km/h
395 15-02-2010 20:21:33 -1.2 C 3.43 g/m*3 -1.2 C 0 km/h
396 15-02-2010 20:46:33 -1.3 C 3.41 g/m*3 -1.3 C 0 km/h
397 15-02-2010 21:11:33 -1.2 C 3.43 g/m*3 -1.2 C 0 km/h
398 15-02-2010 21:36:33 -1.2 C 3.48 g/m*3 -1.2 C 0 km/h
399 15-02-2010 22:01:33 -1 C 3.57 g/m*3 -1 C 0 km/h
400 15-02-2010 22:26:33 -1 C 3.53 g/m*3 -1 C 0 km/h
Sensor: Nr:Datum:Temp:Abs-Feuchte:Windchill:Wind:
Aussen-T/F 401 15-02-2010 22:51:33 -1.2 C 3.48 g/m*3 -1.2 C 0 km/h
402 15-02-2010 23:16:33 -1.2 C 3.48 g/m*3 -1.2 C 0 km/h
403 15-02-2010 23:41:33 -1.3 C 3.45 g/m*3 -1.3 C 0 km/h
404 16-02-2010 00:06:33 -1.4 C 3.43 g/m*3 -1.4 C 0 km/h
405 16-02-2010 00:31:33 -2.1 C 3.22 g/m*3 -2.1 C 0 km/h
406 16-02-2010 00:56:33 -2.7 C 3.13 g/m*3 -2.7 C 0 km/h
407 16-02-2010 01:21:33 -2.9 C 3.13 g/m*3 -2.9 C 0 km/h
408 16-02-2010 01:46:33 -2.9 C 3.16 g/m*3 -2.9 C 0 km/h
409 16-02-2010 02:11:33 -2.9 C 3.16 g/m*3 -2.9 C 0 km/h
410 16-02-2010 02:36:33 -3.2 C 3.1 g/m*3 -3.2 C 0 km/h
411 16-02-2010 03:01:34 -3.3 C 3.08 g/m*3 -3.3 C 0 km/h
412 16-02-2010 03:26:34 -3.4 C 3.09 g/m*3 -3.4 C 0 km/h
413 16-02-2010 03:51:34 -3.1 C 3.16 g/m*3 -3.1 C 0 km/h
414 16-02-2010 04:16:34 -2.9 C 3.2 g/m*3 -2.9 C 0 km/h
415 16-02-2010 04:41:34 -2.7 C 3.29 g/m*3 -2.7 C 0 km/h
416 16-02-2010 05:06:34 -2.7 C 3.25 g/m*3 -2.7 C 0 km/h
417 16-02-2010 05:31:34 -2.7 C 3.25 g/m*3 -2.7 C 0 km/h
418 16-02-2010 05:56:34 -2.6 C 3.27 g/m*3 -2.6 C 0 km/h
419 16-02-2010 06:21:34 -2.3 C 3.34 g/m*3 -2.3 C 0 km/h
420 16-02-2010 06:46:34 -2.3 C 3.3 g/m*3 -2.3 C 0 km/h
421 16-02-2010 07:11:34 -2.5 C 3.26 g/m*3 -2.5 C 0 km/h
422 16-02-2010 07:36:34 -2.8 C 3.19 g/m*3 -2.8 C 0 km/h
423 16-02-2010 08:01:34 -2.8 C 3.19 g/m*3 -2.8 C 0 km/h
424 16-02-2010 08:26:34 -2.5 C 3.3 g/m*3 -2.5 C 0 km/h
425 16-02-2010 08:51:34 -1.9 C 3.4 g/m*3 -1.9 C 0 km/h
Sensor: Nr:Datum:Temp:Abs-Feuchte:Windchill:Wind:
Aussen-T/F 426 16-02-2010 09:16:34 -1.4 C 3.47 g/m*3 -1.4 C 0 km/h
427 16-02-2010 09:41:34 -0.7 C 3.51 g/m*3 -0.7 C 0 km/h
428 16-02-2010 10:06:34 -0.6 C 3.35 g/m*3 -0.6 C 0 km/h
429 16-02-2010 10:31:34 0.1 C 3.42 g/m*3 0.1 C 0 km/h
430 16-02-2010 10:56:34 -0.1 C 3.27 g/m*3 -0.1 C 0 km/h
431 16-02-2010 11:21:34 0.3 C 3.31 g/m*3 0.3 C 0 km/h
432 16-02-2010 11:46:35 0.4 C 3.19 g/m*3 0.4 C 0 km/h
433 16-02-2010 12:11:35 1.2 C 3.31 g/m*3 1.2 C 0 km/h
434 16-02-2010 12:36:35 2.4 C 2.91 g/m*3 2.4 C 0 km/h
435 16-02-2010 13:01:35 2.8 C 2.76 g/m*3 2.8 C 0 km/h
436 16-02-2010 13:26:35 2.9 C 2.6 g/m*3 2.9 C 0 km/h
437 16-02-2010 13:51:35 2.8 C 2.7 g/m*3 2.8 C 0 km/h
438 16-02-2010 14:16:35 3.5 C 2.64 g/m*3 3.5 C 0 km/h
439 16-02-2010 14:41:35 3.4 C 2.57 g/m*3 3.4 C 0 km/h
440 16-02-2010 15:06:35 3.2 C 2.53 g/m*3 3.2 C 0 km/h
441 16-02-2010 15:31:35 3.9 C 2.4 g/m*3 3.9 C 0 km/h
442 16-02-2010 15:56:35 4.5 C 2.43 g/m*3 4.5 C 0 km/h
443 16-02-2010 16:21:35 4.4 C 2.42 g/m*3 4.4 C 0 km/h
444 16-02-2010 16:46:35 4.1 C 2.43 g/m*3 4.1 C 0 km/h
445 16-02-2010 17:11:35 2.8 C 2.58 g/m*3 2.8 C 0 km/h
446 16-02-2010 17:36:35 1.1 C 2.61 g/m*3 1.1 C 0 km/h
447 16-02-2010 18:01:35 -0.2 C 2.63 g/m*3 -0.2 C 0 km/h
448 16-02-2010 18:26:35 -1.4 C 2.73 g/m*3 -1.4 C 0 km/h
449 16-02-2010 18:51:35 -2 C 2.74 g/m*3 -2 C 0 km/h
450 16-02-2010 19:16:35 -2.5 C 2.73 g/m*3 -2.5 C 0 km/h
Sensor: Nr:Datum:Temp:Abs-Feuchte:Windchill:Wind:
Aussen-T/F 451 16-02-2010 19:41:35 -2.7 C 2.77 g/m*3 -2.7 C 0 km/h
452 16-02-2010 20:06:36 -3 C 2.75 g/m*3 -3 C 0 km/h
453 16-02-2010 20:31:36 -3.2 C 2.75 g/m*3 -3.2 C 0 km/h
454 16-02-2010 20:56:36 -3.6 C 2.67 g/m*3 -3.6 C 0 km/h
455 16-02-2010 21:21:36 -3.8 C 2.67 g/m*3 -3.8 C 0 km/h
456 16-02-2010 21:46:36 -4.1 C 2.62 g/m*3 -4.1 C 0 km/h
457 16-02-2010 22:11:36 -4.2 C 2.63 g/m*3 -4.2 C 0 km/h
458 16-02-2010 22:36:36 -4.5 C 2.58 g/m*3 -4.5 C 0 km/h
459 16-02-2010 23:01:36 -4.7 C 2.54 g/m*3 -4.7 C 0 km/h
460 16-02-2010 23:26:36 -4.9 C 2.5 g/m*3 -4.9 C 0 km/h
461 16-02-2010 23:51:36 -5.1 C 2.47 g/m*3 -5.1 C 0 km/h
462 17-02-2010 00:16:36 -5.4 C 2.41 g/m*3 -5.4 C 0 km/h
463 17-02-2010 00:41:36 -5.7 C 2.36 g/m*3 -5.7 C 0 km/h
464 17-02-2010 01:06:36 -6 C 2.34 g/m*3 -6 C 0 km/h
465 17-02-2010 01:31:36 -6.2 C 2.31 g/m*3 -6.2 C 0 km/h
466 17-02-2010 01:56:36 -6.5 C 2.26 g/m*3 -6.5 C 0 km/h
467 17-02-2010 02:21:36 -6.6 C 2.27 g/m*3 -6.6 C 0 km/h
468 17-02-2010 02:46:36 -6.8 C 2.24 g/m*3 -6.8 C 0 km/h
469 17-02-2010 03:11:36 -6.9 C 2.22 g/m*3 -6.9 C 0 km/h
470 17-02-2010 03:36:36 -6.2 C 2.37 g/m*3 -6.2 C 0 km/h
471 17-02-2010 04:01:36 -5.8 C 2.44 g/m*3 -5.8 C 0 km/h
472 17-02-2010 04:26:36 -5.5 C 2.5 g/m*3 -5.5 C 0 km/h
473 17-02-2010 04:51:37 -5.3 C 2.5 g/m*3 -5.3 C 0 km/h
474 17-02-2010 05:16:37 -5.2 C 2.48 g/m*3 -5.2 C 0 km/h
475 17-02-2010 05:41:37 -4.9 C 2.54 g/m*3 -4.9 C 0 km/h
Sensor: Nr:Datum:Temp:Abs-Feuchte:Windchill:Wind:
Aussen-T/F 476 17-02-2010 06:06:37 -4.9 C 2.54 g/m*3 -4.9 C 0 km/h
477 17-02-2010 06:31:37 -4.7 C 2.57 g/m*3 -4.7 C 0 km/h
478 17-02-2010 06:56:37 -4.5 C 2.61 g/m*3 -4.5 C 0 km/h
479 17-02-2010 07:21:37 -4.4 C 2.6 g/m*3 -4.4 C 0 km/h
480 17-02-2010 07:46:37 -4.1 C 2.62 g/m*3 -4.1 C 0 km/h
481 17-02-2010 08:11:37 -3.8 C 2.67 g/m*3 -3.8 C 0 km/h
482 17-02-2010 08:36:37 -3.4 C 2.71 g/m*3 -3.4 C 0 km/h
483 17-02-2010 09:01:37 -3.1 C 2.65 g/m*3 -3.1 C 0 km/h
484 17-02-2010 09:26:37 -2.9 C 2.49 g/m*3 -2.9 C 0 km/h
485 17-02-2010 09:51:37 -2.7 C 2.53 g/m*3 -2.7 C 0 km/h
486 17-02-2010 10:16:37 -2.7 C 2.53 g/m*3 -2.7 C 0 km/h
487 17-02-2010 10:41:37 -2.2 C 2.54 g/m*3 -2.2 C 0 km/h
488 17-02-2010 11:06:37 -1.4 C 2.73 g/m*3 -1.4 C 0 km/h
489 17-02-2010 11:31:37 -0.6 C 2.79 g/m*3 -0.6 C 0 km/h
490 17-02-2010 11:56:37 1 C 2.91 g/m*3 1 C 0 km/h
491 17-02-2010 12:21:37 2.7 C 2.8 g/m*3 2.7 C 0 km/h
492 17-02-2010 12:46:37 3.5 C 2.71 g/m*3 3.5 C 0 km/h
493 17-02-2010 13:11:38 2.9 C 2.72 g/m*3 2.9 C 0 km/h
494 17-02-2010 13:36:38 2.8 C 2.7 g/m*3 2.8 C 0 km/h
495 17-02-2010 14:01:38 2.7 C 2.97 g/m*3 2.7 C 0 km/h
496 17-02-2010 14:26:38 2.1 C 3.3 g/m*3 2.1 C 0 km/h
497 17-02-2010 14:51:38 2.1 C 3.58 g/m*3 2.1 C 0 km/h
498 17-02-2010 15:16:38 1.3 C 3.81 g/m*3 1.3 C 0 km/h
499 17-02-2010 15:41:38 1.2 C 4 g/m*3 1.2 C 0 km/h
500 17-02-2010 16:06:38 1.3 C 4.13 g/m*3 1.3 C 0 km/h
Sensor: Nr:Datum:Temp:Abs-Feuchte:Windchill:Wind:
Aussen-T/F 501 17-02-2010 16:31:38 1 C 4.15 g/m*3 1 C 0 km/h
502 17-02-2010 16:56:38 0.9 C 4.23 g/m*3 0.9 C 0 km/h
503 17-02-2010 17:21:38 0.7 C 4.17 g/m*3 0.7 C 0 km/h
504 17-02-2010 17:46:38 0.6 C 4.19 g/m*3 0.6 C 0 km/h
505 17-02-2010 18:11:38 0.5 C 4.21 g/m*3 0.5 C 0 km/h
506 17-02-2010 18:36:38 0.5 C 4.31 g/m*3 0.5 C 0 km/h
507 17-02-2010 19:01:38 0.5 C 4.36 g/m*3 0.5 C 0 km/h
508 17-02-2010 19:26:38 0.5 C 4.36 g/m*3 0.5 C 0 km/h
509 17-02-2010 19:51:38 0.5 C 4.41 g/m*3 0.5 C 0 km/h
510 17-02-2010 20:16:38 0.7 C 4.53 g/m*3 0.7 C 0 km/h
511 17-02-2010 20:41:38 0.7 C 4.53 g/m*3 0.7 C 0 km/h
512 17-02-2010 21:06:38 0.7 C 4.53 g/m*3 0.7 C 0 km/h
513 17-02-2010 21:31:38 0.8 C 4.51 g/m*3 0.8 C 0 km/h
514 17-02-2010 21:56:39 0.8 C 4.56 g/m*3 0.8 C 0 km/h
515 17-02-2010 22:21:39 0.8 C 4.51 g/m*3 0.8 C 0 km/h
516 17-02-2010 22:46:39 0.8 C 4.51 g/m*3 0.8 C 0 km/h
517 17-02-2010 23:11:39 0.8 C 4.51 g/m*3 0.8 C 0 km/h
518 17-02-2010 23:36:39 0.8 C 4.51 g/m*3 0.8 C 0 km/h
519 18-02-2010 00:01:39 0.8 C 4.51 g/m*3 0.8 C 0 km/h
520 18-02-2010 00:26:39 0.9 C 4.54 g/m*3 0.9 C 0 km/h
521 18-02-2010 00:51:39 0.9 C 4.54 g/m*3 0.9 C 0 km/h
522 18-02-2010 01:16:39 1 C 4.57 g/m*3 1 C 0 km/h
523 18-02-2010 01:41:39 1 C 4.57 g/m*3 1 C 0 km/h
524 18-02-2010 02:06:39 1 C 4.57 g/m*3 1 C 0 km/h
525 18-02-2010 02:31:39 1.2 C 4.63 g/m*3 1.2 C 0 km/h
Sensor: Nr:Datum:Temp:Abs-Feuchte:Windchill:Wind:
Aussen-T/F 526 18-02-2010 02:56:39 1 C 4.57 g/m*3 1 C 0 km/h
527 18-02-2010 03:21:39 1.2 C 4.63 g/m*3 1.2 C 0 km/h
528 18-02-2010 03:46:39 1 C 4.57 g/m*3 1 C 0 km/h
529 18-02-2010 04:11:39 1 C 4.62 g/m*3 1 C 0 km/h
530 18-02-2010 04:36:39 1 C 4.62 g/m*3 1 C 0 km/h
531 18-02-2010 05:01:39 1.2 C 4.68 g/m*3 1.2 C 0 km/h
532 18-02-2010 05:26:39 1 C 4.62 g/m*3 1 C 0 km/h
533 18-02-2010 05:51:39 1.1 C 4.65 g/m*3 1.1 C 0 km/h
534 18-02-2010 06:16:40 1.1 C 4.65 g/m*3 1.1 C 0 km/h
535 18-02-2010 06:41:40 1.2 C 4.74 g/m*3 1.2 C 0 km/h
536 18-02-2010 07:06:40 1.1 C 4.7 g/m*3 1.1 C 0 km/h
537 18-02-2010 07:31:40 1.1 C 4.7 g/m*3 1.1 C 0 km/h
538 18-02-2010 07:56:40 1.1 C 4.7 g/m*3 1.1 C 0 km/h
539 18-02-2010 08:21:40 1.1 C 4.76 g/m*3 1.1 C 0 km/h
540 18-02-2010 08:46:40 1.4 C 4.85 g/m*3 1.4 C 0 km/h
541 18-02-2010 09:11:40 1.7 C 5.01 g/m*3 1.7 C 0 km/h
542 18-02-2010 09:36:40 2 C 5.06 g/m*3 2 C 0 km/h
543 18-02-2010 10:01:40 2.6 C 5.32 g/m*3 2.6 C 0 km/h
544 18-02-2010 10:26:40 3.6 C 5.63 g/m*3 3.6 C 0 km/h
545 18-02-2010 10:51:40 3.8 C 5.58 g/m*3 3.8 C 0 km/h
546 18-02-2010 11:16:40 4.1 C 5.25 g/m*3 4.1 C 0 km/h
547 18-02-2010 11:41:40 4.4 C 5.03 g/m*3 4.4 C 0 km/h
548 18-02-2010 12:06:40 4.7 C 4.86 g/m*3 4.7 C 0 km/h
549 18-02-2010 12:31:40 5.1 C 4.65 g/m*3 5.1 C 0 km/h
550 18-02-2010 12:56:40 5.8 C 4.58 g/m*3 5.8 C 0 km/h
Sensor: Nr:Datum:Temp:Abs-Feuchte:Windchill:Wind:
Aussen-T/F 551 18-02-2010 13:21:40 6.8 C 4.36 g/m*3 6.8 C 0 km/h
552 18-02-2010 13:46:40 7.4 C 4.14 g/m*3 7.4 C 0 km/h
553 18-02-2010 14:11:40 8 C 4.13 g/m*3 8 C 0 km/h
554 18-02-2010 14:36:41 8.5 C 4.1 g/m*3 8.5 C 0 km/h
555 18-02-2010 15:01:41 9.1 C 3.73 g/m*3 9.1 C 0 km/h
556 18-02-2010 15:26:41 9.5 C 3.64 g/m*3 9.5 C 0 km/h
557 18-02-2010 15:51:41 10.1 C 3.59 g/m*3 10.1 C 0 km/h
558 18-02-2010 16:16:41 9.6 C 3.57 g/m*3 9.6 C 0 km/h
559 18-02-2010 16:41:41 9.3 C 3.59 g/m*3 9.3 C 0 km/h
560 18-02-2010 17:06:41 7.5 C 3.36 g/m*3 7.5 C 0 km/h
561 18-02-2010 17:31:41 6.3 C 3.55 g/m*3 6.3 C 0 km/h
562 18-02-2010 17:56:41 5.6 C 3.68 g/m*3 5.6 C 0 km/h
563 18-02-2010 18:21:41 4 C 3.88 g/m*3 4 C 0 km/h
564 18-02-2010 18:46:41 3.2 C 3.98 g/m*3 3.2 C 0 km/h
565 18-02-2010 19:11:41 2.6 C 4.11 g/m*3 2.6 C 0 km/h
566 18-02-2010 19:36:41 2.5 C 4.2 g/m*3 2.5 C 0 km/h
567 18-02-2010 20:01:41 2.1 C 4.08 g/m*3 2.1 C 0 km/h
568 18-02-2010 20:26:41 2 C 4.17 g/m*3 2 C 0 km/h
569 18-02-2010 20:51:41 1.6 C 4.16 g/m*3 1.6 C 0 km/h
570 18-02-2010 21:16:41 1.4 C 4.21 g/m*3 1.4 C 0 km/h
571 18-02-2010 21:41:41 1.4 C 4.21 g/m*3 1.4 C 0 km/h
572 18-02-2010 22:06:41 1.7 C 4.3 g/m*3 1.7 C 0 km/h
573 18-02-2010 22:31:41 2 C 4.33 g/m*3 2 C 0 km/h
574 18-02-2010 22:56:42 1.9 C 4.36 g/m*3 1.9 C 0 km/h
575 18-02-2010 23:21:42 1.7 C 4.3 g/m*3 1.7 C 0 km/h
Sensor: Nr:Datum:Temp:Abs-Feuchte:Windchill:Wind:
Aussen-T/F 576 18-02-2010 23:46:42 1.9 C 4.53 g/m*3 1.9 C 0 km/h
577 19-02-2010 00:11:42 2.1 C 4.59 g/m*3 2.1 C 0 km/h
578 19-02-2010 00:36:42 1.8 C 4.55 g/m*3 1.8 C 0 km/h
579 19-02-2010 01:01:42 2 C 4.67 g/m*3 2 C 0 km/h
580 19-02-2010 01:26:42 2 C 4.67 g/m*3 2 C 0 km/h
581 19-02-2010 01:51:42 2.1 C 4.76 g/m*3 2.1 C 0 km/h
582 19-02-2010 02:16:42 2.1 C 4.7 g/m*3 2.1 C 0 km/h
583 19-02-2010 02:41:42 2 C 4.67 g/m*3 2 C 0 km/h
584 19-02-2010 03:06:42 1.8 C 4.66 g/m*3 1.8 C 0 km/h
585 19-02-2010 03:31:42 1.8 C 4.71 g/m*3 1.8 C 0 km/h
586 19-02-2010 03:56:42 1.6 C 4.7 g/m*3 1.6 C 0 km/h
587 19-02-2010 04:21:42 1.6 C 4.7 g/m*3 1.6 C 0 km/h
588 19-02-2010 04:46:42 1.6 C 4.7 g/m*3 1.6 C 0 km/h
589 19-02-2010 05:11:42 1.7 C 4.79 g/m*3 1.7 C 0 km/h
590 19-02-2010 05:36:42 1.8 C 4.77 g/m*3 1.8 C 0 km/h
591 19-02-2010 06:01:42 1.9 C 4.8 g/m*3 1.9 C 0 km/h
592 19-02-2010 06:26:42 2.1 C 4.76 g/m*3 2.1 C 0 km/h
593 19-02-2010 06:51:42 2 C 4.67 g/m*3 2 C 0 km/h
594 19-02-2010 07:16:42 1.7 C 4.63 g/m*3 1.7 C 0 km/h
595 19-02-2010 07:41:43 1.5 C 4.57 g/m*3 1.5 C 0 km/h
596 19-02-2010 08:06:43 1.5 C 4.62 g/m*3 1.5 C 0 km/h
597 19-02-2010 08:31:43 1.6 C 4.65 g/m*3 1.6 C 0 km/h
598 19-02-2010 08:56:43 2.1 C 4.81 g/m*3 2.1 C 0 km/h
599 19-02-2010 09:21:43 2.5 C 4.83 g/m*3 2.5 C 0 km/h
600 19-02-2010 09:46:43 3.1 C 4.91 g/m*3 3.1 C 0 km/h
Sensor: Nr:Datum:Temp:Abs-Feuchte:Windchill:Wind:
Aussen-T/F 601 19-02-2010 10:11:43 3.7 C 5.05 g/m*3 3.7 C 0 km/h
602 19-02-2010 10:36:02 4.6 C 5.1 g/m*3 4.6 C 0 km/h
603 19-02-2010 11:01:02 5.3 C 5.06 g/m*3 5.3 C 0 km/h
604 19-02-2010 11:26:01 6 C 4.79 g/m*3 6 C 0 km/h
605 19-02-2010 11:51:02 6.5 C 4.72 g/m*3 6.5 C 0 km/h
606 19-02-2010 12:16:02 7 C 4.49 g/m*3 7 C 0 km/h
607 19-02-2010 12:41:02 7.6 C 4.27 g/m*3 7.6 C 0 km/h
608 19-02-2010 13:06:02 7.6 C 4.11 g/m*3 7.6 C 0 km/h
609 19-02-2010 13:31:02 7.7 C 4.05 g/m*3 7.7 C 0 km/h
610 19-02-2010 13:56:02 7.6 C 3.95 g/m*3 7.6 C 0 km/h
611 19-02-2010 14:21:01 7.5 C 4 g/m*3 7.5 C 0 km/h
612 19-02-2010 14:46:02 7.5 C 3.92 g/m*3 7.5 C 0 km/h
613 19-02-2010 15:11:03 7.8 C 3.67 g/m*3 7.8 C 0 km/h
614 19-02-2010 15:36:02 7.2 C 3.53 g/m*3 7.2 C 0 km/h
615 19-02-2010 16:01:02 6.3 C 3.33 g/m*3 6.3 C 0 km/h
616 19-02-2010 16:26:01 6.1 C 3.29 g/m*3 6.1 C 0 km/h
617 19-02-2010 16:51:01 5.5 C 3.23 g/m*3 5.5 C 0 km/h
618 19-02-2010 17:16:02 5 C 3.06 g/m*3 5 C 0 km/h
619 19-02-2010 17:41:02 5.1 C 3.01 g/m*3 5.1 C 0 km/h
620 19-02-2010 18:06:02 4.5 C 3.02 g/m*3 4.5 C 0 km/h
621 19-02-2010 18:31:02 4.1 C 3.07 g/m*3 4.1 C 0 km/h
622 19-02-2010 18:56:01 3.7 C 3.18 g/m*3 3.7 C 0 km/h
623 19-02-2010 19:21:01 3.6 C 3.22 g/m*3 3.6 C 0 km/h
624 19-02-2010 19:46:02 3.6 C 3.28 g/m*3 3.6 C 0 km/h
625 19-02-2010 20:11:02 3.3 C 3.34 g/m*3 3.3 C 0 km/h
Sensor: Nr:Datum:Temp:Abs-Feuchte:Windchill:Wind:
Aussen-T/F 626 19-02-2010 20:36:02 3.3 C 3.46 g/m*3 3.3 C 0 km/h
627 19-02-2010 21:14:02 3.3 C 3.52 g/m*3 3.3 C 0 km/h
628 19-02-2010 21:26:02 3.2 C 3.56 g/m*3 3.2 C 0 km/h
629 19-02-2010 21:38:01 3.2 C 3.5 g/m*3 3.2 C 0 km/h
630 19-02-2010 21:50:01 3.1 C 3.53 g/m*3 3.1 C 0 km/h
631 19-02-2010 22:02:02 2.8 C 3.52 g/m*3 2.8 C 0 km/h
632 19-02-2010 22:14:02 2.6 C 3.53 g/m*3 2.6 C 0 km/h
633 19-02-2010 22:26:01 2.6 C 3.47 g/m*3 2.6 C 0 km/h
634 19-02-2010 22:38:02 2.4 C 3.43 g/m*3 2.4 C 0 km/h
635 19-02-2010 22:50:01 2.2 C 3.38 g/m*3 2.2 C 0 km/h
636 19-02-2010 23:02:02 2.1 C 3.36 g/m*3 2.1 C 0 km/h
637 19-02-2010 23:14:02 2.5 C 3.22 g/m*3 2.5 C 0 km/h
638 19-02-2010 23:26:01 2.5 C 3.16 g/m*3 2.5 C 0 km/h
639 19-02-2010 23:38:02 2.2 C 3.21 g/m*3 2.2 C 0 km/h
640 19-02-2010 23:50:01 1.6 C 3.24 g/m*3 1.6 C 0 km/h
641 20-02-2010 00:02:02 1.5 C 3.33 g/m*3 1.5 C 0 km/h
642 20-02-2010 00:14:02 1.4 C 3.31 g/m*3 1.4 C 0 km/h
643 20-02-2010 00:26:02 1.2 C 3.37 g/m*3 1.2 C 0 km/h
644 20-02-2010 00:38:01 1.1 C 3.4 g/m*3 1.1 C 0 km/h
645 20-02-2010 00:50:02 0.7 C 3.41 g/m*3 0.7 C 0 km/h
646 20-02-2010 01:02:01 0.4 C 3.39 g/m*3 0.4 C 0 km/h
647 20-02-2010 01:14:01 0.1 C 3.42 g/m*3 0.1 C 0 km/h
648 20-02-2010 01:26:01 -0.1 C 3.46 g/m*3 -0.1 C 0 km/h
649 20-02-2010 01:38:02 -0.1 C 3.51 g/m*3 -0.1 C 0 km/h
650 20-02-2010 01:50:02 -0.1 C 3.56 g/m*3 -0.1 C 0 km/h
Sensor: Nr:Datum:Temp:Abs-Feuchte:Windchill:Wind:
Aussen-T/F 651 20-02-2010 02:02:02 -0.2 C 3.58 g/m*3 -0.2 C 0 km/h
652 20-02-2010 02:14:02 -0.3 C 3.56 g/m*3 -0.3 C 0 km/h
653 20-02-2010 02:26:02 -0.3 C 3.61 g/m*3 -0.3 C 0 km/h
654 20-02-2010 02:38:02 -0.4 C 3.58 g/m*3 -0.4 C 0 km/h
655 20-02-2010 02:50:01 -0.4 C 3.58 g/m*3 -0.4 C 0 km/h
656 20-02-2010 03:02:01 -0.4 C 3.58 g/m*3 -0.4 C 0 km/h
657 20-02-2010 03:14:01 -0.7 C 3.46 g/m*3 -0.7 C 0 km/h
658 20-02-2010 03:26:01 -0.7 C 3.51 g/m*3 -0.7 C 0 km/h
659 20-02-2010 03:38:02 -0.8 C 3.48 g/m*3 -0.8 C 0 km/h
660 20-02-2010 03:50:02 -1 C 3.44 g/m*3 -1 C 0 km/h
661 20-02-2010 04:02:01 -0.9 C 3.51 g/m*3 -0.9 C 0 km/h
662 20-02-2010 04:14:01 -0.7 C 3.55 g/m*3 -0.7 C 0 km/h
663 20-02-2010 04:26:01 -0.7 C 3.51 g/m*3 -0.7 C 0 km/h
664 20-02-2010 04:38:02 -0.4 C 3.58 g/m*3 -0.4 C 0 km/h
665 20-02-2010 04:50:01 -0.2 C 3.58 g/m*3 -0.2 C 0 km/h
666 20-02-2010 05:02:01 -0.1 C 3.61 g/m*3 -0.1 C 0 km/h
667 20-02-2010 05:14:01 -0.2 C 3.54 g/m*3 -0.2 C 0 km/h
668 20-02-2010 05:26:01 -0.2 C 3.58 g/m*3 -0.2 C 0 km/h
669 20-02-2010 05:38:02 -0.2 C 3.58 g/m*3 -0.2 C 0 km/h
670 20-02-2010 05:50:01 0 C 3.63 g/m*3 0 C 0 km/h
671 20-02-2010 06:02:02 -0.2 C 3.58 g/m*3 -0.2 C 0 km/h
672 20-02-2010 06:14:02 0.1 C 3.71 g/m*3 0.1 C 0 km/h
673 20-02-2010 06:26:01 0.4 C 3.79 g/m*3 0.4 C 0 km/h
674 20-02-2010 06:38:01 0.3 C 3.76 g/m*3 0.3 C 0 km/h
675 20-02-2010 06:50:01 0 C 3.68 g/m*3 0 C 0 km/h
Sensor: Nr:Datum:Temp:Abs-Feuchte:Windchill:Wind:
Aussen-T/F 676 20-02-2010 07:02:01 -0.2 C 3.68 g/m*3 -0.2 C 0 km/h
677 20-02-2010 07:14:02 -0.5 C 3.65 g/m*3 -0.5 C 0 km/h
678 20-02-2010 07:26:01 -0.6 C 3.67 g/m*3 -0.6 C 0 km/h
679 20-02-2010 07:38:01 -0.6 C 3.72 g/m*3 -0.6 C 0 km/h
680 20-02-2010 07:50:01 -0.6 C 3.76 g/m*3 -0.6 C 0 km/h
681 20-02-2010 08:02:02 -0.2 C 3.92 g/m*3 -0.2 C 0 km/h
682 20-02-2010 08:14:02 0.1 C 3.95 g/m*3 0.1 C 0 km/h
683 20-02-2010 08:26:01 0.4 C 3.98 g/m*3 0.4 C 0 km/h
684 20-02-2010 08:38:01 0.7 C 3.97 g/m*3 0.7 C 0 km/h
685 20-02-2010 08:50:01 1 C 3.94 g/m*3 1 C 0 km/h
686 20-02-2010 09:02:02 1.2 C 3.95 g/m*3 1.2 C 0 km/h
687 20-02-2010 09:14:02 1.4 C 3.89 g/m*3 1.4 C 0 km/h
688 20-02-2010 09:26:01 1.5 C 3.87 g/m*3 1.5 C 0 km/h
689 20-02-2010 09:38:01 1.2 C 3.79 g/m*3 1.2 C 0 km/h
690 20-02-2010 09:50:01 1.2 C 3.74 g/m*3 1.2 C 0 km/h
691 20-02-2010 10:02:01 1.3 C 3.76 g/m*3 1.3 C 0 km/h
692 20-02-2010 10:14:01 1.4 C 3.73 g/m*3 1.4 C 0 km/h
693 20-02-2010 10:26:01 1.5 C 3.71 g/m*3 1.5 C 0 km/h
694 20-02-2010 10:38:01 1.7 C 3.76 g/m*3 1.7 C 0 km/h
695 20-02-2010 10:50:01 1.8 C 3.73 g/m*3 1.8 C 0 km/h
696 20-02-2010 11:02:01 2.1 C 3.75 g/m*3 2.1 C 0 km/h
697 20-02-2010 11:14:01 3 C 3.63 g/m*3 3 C 0 km/h
698 20-02-2010 11:26:01 3.3 C 3.58 g/m*3 3.3 C 0 km/h
699 20-02-2010 11:38:01 3.7 C 3.61 g/m*3 3.7 C 0 km/h
700 20-02-2010 11:50:01 4.1 C 3.46 g/m*3 4.1 C 0 km/h
Sensor: Nr:Datum:Temp:Abs-Feuchte:Windchill:Wind:
Aussen-T/F 701 20-02-2010 12:02:01 4.1 C 3.33 g/m*3 4.1 C 0 km/h
702 20-02-2010 12:14:01 3.9 C 3.47 g/m*3 3.9 C 0 km/h
703 20-02-2010 12:26:02 4.1 C 3.39 g/m*3 4.1 C 0 km/h
704 20-02-2010 12:38:01 3.8 C 3.45 g/m*3 3.8 C 0 km/h
705 20-02-2010 12:50:01 4.2 C 3.41 g/m*3 4.2 C 0 km/h
706 20-02-2010 13:02:01 4.2 C 3.22 g/m*3 4.2 C 0 km/h
707 20-02-2010 13:14:01 4.3 C 3.18 g/m*3 4.3 C 0 km/h
708 20-02-2010 13:26:02 4.5 C 3.22 g/m*3 4.5 C 0 km/h
709 20-02-2010 13:38:01 4.5 C 3.16 g/m*3 4.5 C 0 km/h
710 20-02-2010 13:50:02 4.3 C 3.11 g/m*3 4.3 C 0 km/h
711 20-02-2010 14:02:01 4.2 C 3.22 g/m*3 4.2 C 0 km/h
712 20-02-2010 14:14:01 4.5 C 3.22 g/m*3 4.5 C 0 km/h
713 20-02-2010 14:26:02 4.9 C 3.24 g/m*3 4.9 C 0 km/h
714 20-02-2010 14:38:01 4.7 C 3.2 g/m*3 4.7 C 0 km/h
715 20-02-2010 14:50:01 4.5 C 3.22 g/m*3 4.5 C 0 km/h
716 20-02-2010 15:02:01 4.4 C 3.2 g/m*3 4.4 C 0 km/h
717 20-02-2010 15:14:01 4.8 C 3.22 g/m*3 4.8 C 0 km/h
718 20-02-2010 15:26:02 4.9 C 3.17 g/m*3 4.9 C 0 km/h
719 20-02-2010 15:38:01 5.1 C 3.15 g/m*3 5.1 C 0 km/h
720 20-02-2010 15:50:02 5.1 C 3.08 g/m*3 5.1 C 0 km/h
721 20-02-2010 16:02:01 5 C 3.06 g/m*3 5 C 0 km/h
722 20-02-2010 16:14:01 4.9 C 3.11 g/m*3 4.9 C 0 km/h
723 20-02-2010 16:26:02 5 C 3.06 g/m*3 5 C 0 km/h
724 20-02-2010 16:38:01 5.2 C 3.1 g/m*3 5.2 C 0 km/h
725 20-02-2010 16:50:02 4.9 C 3.04 g/m*3 4.9 C 0 km/h
Sensor: Nr:Datum:Temp:Abs-Feuchte:Windchill:Wind:
Aussen-T/F 726 20-02-2010 17:02:01 4.5 C 3.09 g/m*3 4.5 C 0 km/h
727 20-02-2010 17:14:01 4.9 C 3.11 g/m*3 4.9 C 0 km/h
728 20-02-2010 17:26:01 4.8 C 3.08 g/m*3 4.8 C 0 km/h
729 20-02-2010 17:38:01 4.2 C 3.16 g/m*3 4.2 C 0 km/h
730 20-02-2010 17:50:02 3.6 C 3.47 g/m*3 3.6 C 0 km/h
731 20-02-2010 18:02:01 2.9 C 3.54 g/m*3 2.9 C 0 km/h
732 20-02-2010 18:14:01 2.5 C 3.56 g/m*3 2.5 C 0 km/h
733 20-02-2010 18:26:02 2.5 C 3.56 g/m*3 2.5 C 0 km/h
734 20-02-2010 18:38:01 2.7 C 3.55 g/m*3 2.7 C 0 km/h
735 20-02-2010 18:50:02 2.6 C 3.47 g/m*3 2.6 C 0 km/h
736 20-02-2010 19:02:01 2.2 C 3.44 g/m*3 2.2 C 0 km/h
737 20-02-2010 19:14:01 2 C 3.45 g/m*3 2 C 0 km/h
738 20-02-2010 19:26:01 1.8 C 3.45 g/m*3 1.8 C 0 km/h
739 20-02-2010 19:38:02 2 C 3.45 g/m*3 2 C 0 km/h
740 20-02-2010 19:50:01 1.5 C 3.44 g/m*3 1.5 C 0 km/h
741 20-02-2010 20:02:01 1.3 C 3.44 g/m*3 1.3 C 0 km/h
742 20-02-2010 20:14:01 0.9 C 3.45 g/m*3 0.9 C 0 km/h
743 20-02-2010 20:26:01 0.8 C 3.48 g/m*3 0.8 C 0 km/h
744 20-02-2010 20:38:02 0.6 C 3.43 g/m*3 0.6 C 0 km/h
745 20-02-2010 20:50:01 0.7 C 3.41 g/m*3 0.7 C 0 km/h
746 20-02-2010 21:02:02 0.7 C 3.41 g/m*3 0.7 C 0 km/h
747 20-02-2010 21:14:02 0.8 C 3.33 g/m*3 0.8 C 0 km/h
748 20-02-2010 21:26:01 0.8 C 3.28 g/m*3 0.8 C 0 km/h
749 20-02-2010 21:38:02 0.7 C 3.3 g/m*3 0.7 C 0 km/h
750 20-02-2010 21:50:01 1 C 3.32 g/m*3 1 C 0 km/h
Sensor: Nr:Datum:Temp:Abs-Feuchte:Windchill:Wind:
Aussen-T/F 751 20-02-2010 22:02:02 1.1 C 3.34 g/m*3 1.1 C 0 km/h
752 20-02-2010 22:14:02 0.9 C 3.35 g/m*3 0.9 C 0 km/h
753 20-02-2010 22:26:01 0.7 C 3.36 g/m*3 0.7 C 0 km/h
754 20-02-2010 22:38:02 0.4 C 3.34 g/m*3 0.4 C 0 km/h
755 20-02-2010 22:50:01 0.4 C 3.39 g/m*3 0.4 C 0 km/h
756 20-02-2010 23:02:02 0.5 C 3.41 g/m*3 0.5 C 0 km/h
757 20-02-2010 23:14:02 0.6 C 3.48 g/m*3 0.6 C 0 km/h
758 20-02-2010 23:26:01 0.9 C 3.56 g/m*3 0.9 C 0 km/h
759 20-02-2010 23:38:01 1.4 C 3.63 g/m*3 1.4 C 0 km/h
760 20-02-2010 23:50:01 1.5 C 3.6 g/m*3 1.5 C 0 km/h
761 21-02-2010 00:02:01 1.6 C 3.62 g/m*3 1.6 C 0 km/h
762 21-02-2010 00:14:01 1.8 C 3.67 g/m*3 1.8 C 0 km/h
763 21-02-2010 00:26:01 2.1 C 3.64 g/m*3 2.1 C 0 km/h
764 21-02-2010 00:38:02 2.2 C 3.66 g/m*3 2.2 C 0 km/h
765 21-02-2010 00:50:01 2.1 C 3.64 g/m*3 2.1 C 0 km/h
766 21-02-2010 01:02:02 2.1 C 3.64 g/m*3 2.1 C 0 km/h
767 21-02-2010 01:14:02 2 C 3.61 g/m*3 2 C 0 km/h
768 21-02-2010 01:26:01 1.7 C 3.59 g/m*3 1.7 C 0 km/h
769 21-02-2010 01:38:02 1.7 C 3.59 g/m*3 1.7 C 0 km/h
770 21-02-2010 01:50:01 1.7 C 3.54 g/m*3 1.7 C 0 km/h
771 21-02-2010 02:02:02 1.6 C 3.57 g/m*3 1.6 C 0 km/h
772 21-02-2010 02:14:02 1.6 C 3.57 g/m*3 1.6 C 0 km/h
773 21-02-2010 02:26:01 1.7 C 3.59 g/m*3 1.7 C 0 km/h
774 21-02-2010 02:38:01 1.8 C 3.62 g/m*3 1.8 C 0 km/h
775 21-02-2010 02:50:01 1.7 C 3.7 g/m*3 1.7 C 0 km/h
Sensor: Nr:Datum:Temp:Abs-Feuchte:Windchill:Wind:
Aussen-T/F 776 21-02-2010 03:02:01 1.5 C 3.81 g/m*3 1.5 C 0 km/h
777 21-02-2010 03:14:02 1.3 C 3.87 g/m*3 1.3 C 0 km/h
778 21-02-2010 03:26:02 1 C 3.89 g/m*3 1 C 0 km/h
779 21-02-2010 03:38:01 0.6 C 3.89 g/m*3 0.6 C 0 km/h
780 21-02-2010 03:50:01 0.4 C 3.93 g/m*3 0.4 C 0 km/h
781 21-02-2010 04:02:02 0.4 C 3.98 g/m*3 0.4 C 0 km/h
782 21-02-2010 04:14:02 0.4 C 4.08 g/m*3 0.4 C 0 km/h
783 21-02-2010 04:26:01 0.3 C 4.11 g/m*3 0.3 C 0 km/h
784 21-02-2010 04:38:01 0.4 C 4.18 g/m*3 0.4 C 0 km/h
785 21-02-2010 04:50:01 0.4 C 4.23 g/m*3 0.4 C 0 km/h
786 21-02-2010 05:02:01 0.5 C 4.31 g/m*3 0.5 C 0 km/h
787 21-02-2010 05:14:01 0.4 C 4.33 g/m*3 0.4 C 0 km/h
788 21-02-2010 05:26:01 0.5 C 4.36 g/m*3 0.5 C 0 km/h
789 21-02-2010 05:38:01 0.5 C 4.41 g/m*3 0.5 C 0 km/h
790 21-02-2010 05:50:01 0.6 C 4.44 g/m*3 0.6 C 0 km/h
791 21-02-2010 06:02:01 0.6 C 4.49 g/m*3 0.6 C 0 km/h
792 21-02-2010 06:14:01 0.7 C 4.53 g/m*3 0.7 C 0 km/h
793 21-02-2010 06:26:02 0.7 C 4.53 g/m*3 0.7 C 0 km/h
794 21-02-2010 06:38:01 0.8 C 4.56 g/m*3 0.8 C 0 km/h
795 21-02-2010 06:50:02 0.8 C 4.56 g/m*3 0.8 C 0 km/h
796 21-02-2010 07:02:01 0.9 C 4.54 g/m*3 0.9 C 0 km/h
797 21-02-2010 07:14:01 0.9 C 4.48 g/m*3 0.9 C 0 km/h
798 21-02-2010 07:26:02 0.8 C 4.45 g/m*3 0.8 C 0 km/h
799 21-02-2010 07:38:01 0.8 C 4.4 g/m*3 0.8 C 0 km/h
800 21-02-2010 07:50:01 0.8 C 4.35 g/m*3 0.8 C 0 km/h
Sensor: Nr:Datum:Temp:Abs-Feuchte:Windchill:Wind:
Aussen-T/F 801 21-02-2010 08:02:02 1.3 C 4.45 g/m*3 1.3 C 0 km/h
802 21-02-2010 08:14:02 1.2 C 4.42 g/m*3 1.2 C 0 km/h
803 21-02-2010 08:26:01 1.4 C 4.37 g/m*3 1.4 C 0 km/h
804 21-02-2010 08:38:01 1.6 C 4.38 g/m*3 1.6 C 0 km/h
805 21-02-2010 08:50:01 1.5 C 4.4 g/m*3 1.5 C 0 km/h
806 21-02-2010 09:02:01 1.6 C 4.43 g/m*3 1.6 C 0 km/h
807 21-02-2010 09:14:02 1.7 C 4.46 g/m*3 1.7 C 0 km/h
808 21-02-2010 09:26:01 2 C 4.5 g/m*3 2 C 0 km/h
809 21-02-2010 09:38:01 2.1 C 4.48 g/m*3 2.1 C 0 km/h
810 21-02-2010 09:50:01 2.3 C 4.48 g/m*3 2.3 C 0 km/h
811 21-02-2010 10:02:02 2.5 C 4.48 g/m*3 2.5 C 0 km/h
812 21-02-2010 10:14:02 2.8 C 4.52 g/m*3 2.8 C 0 km/h
813 21-02-2010 10:26:01 2.9 C 4.49 g/m*3 2.9 C 0 km/h
814 21-02-2010 10:38:02 3 C 4.34 g/m*3 3 C 0 km/h
815 21-02-2010 10:50:02 3.1 C 4.37 g/m*3 3.1 C 0 km/h
816 21-02-2010 11:02:01 3.2 C 4.4 g/m*3 3.2 C 0 km/h
817 21-02-2010 11:14:01 3.7 C 4.42 g/m*3 3.7 C 0 km/h
818 21-02-2010 11:26:01 3.8 C 4.33 g/m*3 3.8 C 0 km/h
819 21-02-2010 11:38:02 4 C 4.26 g/m*3 4 C 0 km/h
820 21-02-2010 11:50:01 4.2 C 4.25 g/m*3 4.2 C 0 km/h
821 21-02-2010 12:02:01 4.4 C 4.05 g/m*3 4.4 C 0 km/h
822 21-02-2010 12:14:01 4.5 C 3.81 g/m*3 4.5 C 0 km/h
823 21-02-2010 12:26:02 4.8 C 3.82 g/m*3 4.8 C 0 km/h
824 21-02-2010 12:38:01 5 C 3.94 g/m*3 5 C 0 km/h
825 21-02-2010 12:50:01 5.1 C 3.9 g/m*3 5.1 C 0 km/h
Sensor: Nr:Datum:Temp:Abs-Feuchte:Windchill:Wind:
Aussen-T/F 826 21-02-2010 13:02:01 4.9 C 3.78 g/m*3 4.9 C 0 km/h
827 21-02-2010 13:14:01 4.7 C 3.86 g/m*3 4.7 C 0 km/h
828 21-02-2010 13:26:01 4.7 C 3.93 g/m*3 4.7 C 0 km/h
829 21-02-2010 13:38:01 4.7 C 4.06 g/m*3 4.7 C 0 km/h
830 21-02-2010 13:50:01 5.2 C 4.06 g/m*3 5.2 C 0 km/h
831 21-02-2010 14:02:02 5.7 C 4.06 g/m*3 5.7 C 0 km/h
832 21-02-2010 14:14:02 5.3 C 3.95 g/m*3 5.3 C 0 km/h
833 21-02-2010 14:26:01 5.3 C 3.95 g/m*3 5.3 C 0 km/h
834 21-02-2010 14:38:01 5.2 C 4.06 g/m*3 5.2 C 0 km/h
835 21-02-2010 14:50:01 5.2 C 4.06 g/m*3 5.2 C 0 km/h
836 21-02-2010 15:02:01 5.4 C 4.12 g/m*3 5.4 C 0 km/h
837 21-02-2010 15:14:01 6.1 C 4.09 g/m*3 6.1 C 0 km/h
838 21-02-2010 15:26:01 6.3 C 4.07 g/m*3 6.3 C 0 km/h
839 21-02-2010 15:38:01 6.4 C 4.1 g/m*3 6.4 C 0 km/h
840 21-02-2010 15:50:02 6.3 C 4.15 g/m*3 6.3 C 0 km/h
841 21-02-2010 16:02:01 6.4 C 4.17 g/m*3 6.4 C 0 km/h
842 21-02-2010 16:14:01 6.5 C 4.12 g/m*3 6.5 C 0 km/h
843 21-02-2010 16:26:02 6.5 C 4.2 g/m*3 6.5 C 0 km/h
844 21-02-2010 16:38:01 6.2 C 4.04 g/m*3 6.2 C 0 km/h
845 21-02-2010 16:50:01 7.2 C 4.24 g/m*3 7.2 C 0 km/h
846 21-02-2010 17:02:02 6.5 C 3.97 g/m*3 6.5 C 0 km/h
847 21-02-2010 17:14:02 5.9 C 4.11 g/m*3 5.9 C 0 km/h
848 21-02-2010 17:26:01 5.6 C 4.1 g/m*3 5.6 C 0 km/h
849 21-02-2010 17:38:02 5.3 C 4.16 g/m*3 5.3 C 0 km/h
850 21-02-2010 17:50:01 5.1 C 4.17 g/m*3 5.1 C 0 km/h
Sensor: Nr:Datum:Temp:Abs-Feuchte:Windchill:Wind:
Aussen-T/F 851 21-02-2010 18:02:02 4.8 C 4.29 g/m*3 4.8 C 0 km/h
852 21-02-2010 18:14:02 4.6 C 4.3 g/m*3 4.6 C 0 km/h
853 21-02-2010 18:26:01 4.4 C 4.31 g/m*3 4.4 C 0 km/h
854 21-02-2010 18:38:01 3.8 C 4.27 g/m*3 3.8 C 0 km/h
855 21-02-2010 18:50:01 3.4 C 4.28 g/m*3 3.4 C 0 km/h
856 21-02-2010 19:02:02 3 C 4.22 g/m*3 3 C 0 km/h
857 21-02-2010 19:14:02 2.9 C 4.37 g/m*3 2.9 C 0 km/h
858 21-02-2010 19:26:01 2.8 C 4.4 g/m*3 2.8 C 0 km/h
859 21-02-2010 19:38:01 2.8 C 4.46 g/m*3 2.8 C 0 km/h
860 21-02-2010 19:50:01 2.7 C 4.49 g/m*3 2.7 C 0 km/h
861 21-02-2010 20:02:01 2.5 C 4.43 g/m*3 2.5 C 0 km/h
862 21-02-2010 20:14:01 2.4 C 4.4 g/m*3 2.4 C 0 km/h
863 21-02-2010 20:26:01 2.7 C 4.6 g/m*3 2.7 C 0 km/h
864 21-02-2010 20:38:01 2.8 C 4.63 g/m*3 2.8 C 0 km/h
865 21-02-2010 20:50:01 3 C 4.58 g/m*3 3 C 0 km/h
866 21-02-2010 21:02:01 3 C 4.58 g/m*3 3 C 0 km/h
867 21-02-2010 21:14:01 3 C 4.58 g/m*3 3 C 0 km/h
868 21-02-2010 21:26:02 2.9 C 4.61 g/m*3 2.9 C 0 km/h
869 21-02-2010 21:38:01 2.8 C 4.58 g/m*3 2.8 C 0 km/h
870 21-02-2010 21:50:02 2.7 C 4.6 g/m*3 2.7 C 0 km/h
871 21-02-2010 22:02:01 2.6 C 4.57 g/m*3 2.6 C 0 km/h
872 21-02-2010 22:14:01 2.4 C 4.51 g/m*3 2.4 C 0 km/h
873 21-02-2010 22:26:02 2.3 C 4.54 g/m*3 2.3 C 0 km/h
874 21-02-2010 22:38:01 2.1 C 4.53 g/m*3 2.1 C 0 km/h
875 21-02-2010 22:50:02 2.1 C 4.53 g/m*3 2.1 C 0 km/h
Sensor: Nr:Datum:Temp:Abs-Feuchte:Windchill:Wind:
Aussen-T/F 876 21-02-2010 23:02:01 2.2 C 4.62 g/m*3 2.2 C 0 km/h
877 21-02-2010 23:14:01 2.1 C 4.59 g/m*3 2.1 C 0 km/h
878 21-02-2010 23:26:02 2 C 4.56 g/m*3 2 C 0 km/h
879 21-02-2010 23:38:01 2 C 4.56 g/m*3 2 C 0 km/h
880 21-02-2010 23:50:02 1.9 C 4.58 g/m*3 1.9 C 0 km/h
881 22-02-2010 00:02:01 1.9 C 4.58 g/m*3 1.9 C 0 km/h
882 22-02-2010 00:14:01 1.8 C 4.55 g/m*3 1.8 C 0 km/h
883 22-02-2010 00:26:01 1.7 C 4.57 g/m*3 1.7 C 0 km/h
884 22-02-2010 00:38:02 1.7 C 4.57 g/m*3 1.7 C 0 km/h
885 22-02-2010 00:50:01 1.6 C 4.54 g/m*3 1.6 C 0 km/h
886 22-02-2010 01:02:02 1.6 C 4.54 g/m*3 1.6 C 0 km/h
887 22-02-2010 01:14:02 1.5 C 4.51 g/m*3 1.5 C 0 km/h
888 22-02-2010 01:26:01 1.3 C 4.45 g/m*3 1.3 C 0 km/h
889 22-02-2010 01:38:02 1.3 C 4.45 g/m*3 1.3 C 0 km/h
890 22-02-2010 01:50:01 1.3 C 4.45 g/m*3 1.3 C 0 km/h
891 22-02-2010 02:02:02 1.3 C 4.45 g/m*3 1.3 C 0 km/h
892 22-02-2010 02:14:02 1.3 C 4.45 g/m*3 1.3 C 0 km/h
893 22-02-2010 02:26:01 1 C 4.36 g/m*3 1 C 0 km/h
894 22-02-2010 02:38:01 1 C 4.36 g/m*3 1 C 0 km/h
895 22-02-2010 02:50:01 1 C 4.41 g/m*3 1 C 0 km/h
896 22-02-2010 03:02:01 1.1 C 4.44 g/m*3 1.1 C 0 km/h
897 22-02-2010 03:14:02 1.1 C 4.44 g/m*3 1.1 C 0 km/h
898 22-02-2010 03:26:02 1 C 4.41 g/m*3 1 C 0 km/h
899 22-02-2010 03:38:01 1.1 C 4.44 g/m*3 1.1 C 0 km/h
900 22-02-2010 03:50:01 1.1 C 4.49 g/m*3 1.1 C 0 km/h
Sensor: Nr:Datum:Temp:Abs-Feuchte:Windchill:Wind:
Aussen-T/F 901 22-02-2010 04:02:02 1.4 C 4.59 g/m*3 1.4 C 0 km/h
902 22-02-2010 04:14:02 1.1 C 4.44 g/m*3 1.1 C 0 km/h
903 22-02-2010 04:26:01 1 C 4.41 g/m*3 1 C 0 km/h
904 22-02-2010 04:38:02 1.1 C 4.49 g/m*3 1.1 C 0 km/h
905 22-02-2010 04:50:01 1.1 C 4.49 g/m*3 1.1 C 0 km/h
906 22-02-2010 05:02:02 1.1 C 4.49 g/m*3 1.1 C 0 km/h
907 22-02-2010 05:14:02 1.2 C 4.53 g/m*3 1.2 C 0 km/h
908 22-02-2010 05:26:01 1.4 C 4.59 g/m*3 1.4 C 0 km/h
909 22-02-2010 05:38:01 1.4 C 4.59 g/m*3 1.4 C 0 km/h
910 22-02-2010 05:50:01 1.5 C 4.62 g/m*3 1.5 C 0 km/h
911 22-02-2010 06:02:01 1.5 C 4.62 g/m*3 1.5 C 0 km/h
912 22-02-2010 06:14:02 1.5 C 4.62 g/m*3 1.5 C 0 km/h
913 22-02-2010 06:26:01 1.5 C 4.62 g/m*3 1.5 C 0 km/h
914 22-02-2010 06:38:01 1.6 C 4.65 g/m*3 1.6 C 0 km/h
915 22-02-2010 06:50:01 1.6 C 4.65 g/m*3 1.6 C 0 km/h
916 22-02-2010 07:02:01 1.6 C 4.65 g/m*3 1.6 C 0 km/h
917 22-02-2010 07:14:01 1.8 C 4.77 g/m*3 1.8 C 0 km/h
918 22-02-2010 07:26:02 2.2 C 4.9 g/m*3 2.2 C 0 km/h
919 22-02-2010 07:38:01 2.3 C 4.93 g/m*3 2.3 C 0 km/h
920 22-02-2010 07:50:02 2.5 C 5 g/m*3 2.5 C 0 km/h
921 22-02-2010 08:02:01 2.7 C 5.07 g/m*3 2.7 C 0 km/h
922 22-02-2010 08:14:01 3 C 5.11 g/m*3 3 C 0 km/h
923 22-02-2010 08:26:02 3.2 C 5.12 g/m*3 3.2 C 0 km/h
924 22-02-2010 08:38:01 3.5 C 5.16 g/m*3 3.5 C 0 km/h
925 22-02-2010 08:50:02 3.8 C 5.21 g/m*3 3.8 C 0 km/h
Sensor: Nr:Datum:Temp:Abs-Feuchte:Windchill:Wind:
Aussen-T/F 926 22-02-2010 09:02:01 4.2 C 5.22 g/m*3 4.2 C 0 km/h
927 22-02-2010 09:14:01 4.5 C 5.32 g/m*3 4.5 C 0 km/h
928 22-02-2010 09:26:01 4.8 C 5.3 g/m*3 4.8 C 0 km/h
929 22-02-2010 09:38:01 5.1 C 5.27 g/m*3 5.1 C 0 km/h
930 22-02-2010 09:50:02 5.3 C 5.2 g/m*3 5.3 C 0 km/h
931 22-02-2010 10:02:01 5.7 C 5.19 g/m*3 5.7 C 0 km/h
932 22-02-2010 10:14:01 6.3 C 5.18 g/m*3 6.3 C 0 km/h
933 22-02-2010 10:26:01 6.9 C 5.08 g/m*3 6.9 C 0 km/h
934 22-02-2010 10:38:02 7.2 C 5.02 g/m*3 7.2 C 0 km/h
935 22-02-2010 10:50:01 7.6 C 5.08 g/m*3 7.6 C 0 km/h
936 22-02-2010 11:02:01 7.7 C 5.19 g/m*3 7.7 C 0 km/h
937 22-02-2010 11:14:01 8 C 5.21 g/m*3 8 C 0 km/h
938 22-02-2010 11:26:02 8.5 C 5.21 g/m*3 8.5 C 0 km/h
939 22-02-2010 11:38:01 8.9 C 5.26 g/m*3 8.9 C 0 km/h
940 22-02-2010 11:50:02 8.7 C 5.19 g/m*3 8.7 C 0 km/h
941 22-02-2010 12:02:01 8.6 C 5.33 g/m*3 8.6 C 0 km/h
942 22-02-2010 12:14:01 8.4 C 5.51 g/m*3 8.4 C 0 km/h
943 22-02-2010 12:26:02 8.8 C 5.74 g/m*3 8.8 C 0 km/h
944 22-02-2010 12:38:01 9.7 C 5.81 g/m*3 9.7 C 0 km/h
945 22-02-2010 12:50:02 10.3 C 5.55 g/m*3 10.3 C 0 km/h
946 22-02-2010 13:02:01 10.6 C 5.37 g/m*3 10.6 C 0 km/h
947 22-02-2010 13:14:01 11.2 C 5.27 g/m*3 11.2 C 0 km/h
948 22-02-2010 13:26:01 11.7 C 5.12 g/m*3 11.7 C 0 km/h
949 22-02-2010 13:38:02 11.4 C 5.13 g/m*3 11.4 C 0 km/h
950 22-02-2010 13:50:01 11.8 C 5.26 g/m*3 11.8 C 0 km/h
Sensor: Nr:Datum:Temp:Abs-Feuchte:Windchill:Wind:
Aussen-T/F 951 22-02-2010 14:02:02 11.9 C 5.08 g/m*3 11.9 C 0 km/h
952 22-02-2010 14:14:02 12.7 C 5.01 g/m*3 12.7 C 0 km/h
953 22-02-2010 14:26:01 12.2 C 5.07 g/m*3 12.2 C 0 km/h
954 22-02-2010 14:38:02 12.5 C 5.06 g/m*3 12.5 C 0 km/h
955 22-02-2010 14:50:01 12.2 C 5.07 g/m*3 12.2 C 0 km/h
956 22-02-2010 15:02:02 12.3 C 5.1 g/m*3 12.3 C 0 km/h
957 22-02-2010 15:14:02 12.7 C 5.12 g/m*3 12.7 C 0 km/h
958 22-02-2010 15:26:01 13.3 C 5.2 g/m*3 13.3 C 0 km/h
959 22-02-2010 15:38:02 13.4 C 5 g/m*3 13.4 C 0 km/h
960 22-02-2010 15:50:01 12.7 C 5.23 g/m*3 12.7 C 0 km/h
961 22-02-2010 16:02:02 12.4 C 5.14 g/m*3 12.4 C 0 km/h
962 22-02-2010 16:14:02 11.9 C 5.3 g/m*3 11.9 C 0 km/h
963 22-02-2010 16:26:01 11.5 C 5.37 g/m*3 11.5 C 0 km/h
964 22-02-2010 16:38:01 11.4 C 5.44 g/m*3 11.4 C 0 km/h
965 22-02-2010 16:50:01 11.8 C 5.58 g/m*3 11.8 C 0 km/h
966 22-02-2010 17:02:01 12.1 C 5.47 g/m*3 12.1 C 0 km/h
967 22-02-2010 17:14:01 11.8 C 5.47 g/m*3 11.8 C 0 km/h
968 22-02-2010 17:26:01 11.3 C 5.51 g/m*3 11.3 C 0 km/h
969 22-02-2010 17:38:01 10.7 C 5.6 g/m*3 10.7 C 0 km/h
970 22-02-2010 17:50:01 10.4 C 5.69 g/m*3 10.4 C 0 km/h
971 22-02-2010 18:02:01 10.1 C 5.67 g/m*3 10.1 C 0 km/h
972 22-02-2010 18:14:01 9.9 C 5.79 g/m*3 9.9 C 0 km/h
973 22-02-2010 18:26:02 9.7 C 5.72 g/m*3 9.7 C 0 km/h
974 22-02-2010 18:38:01 9.4 C 5.7 g/m*3 9.4 C 0 km/h
975 22-02-2010 18:50:02 9.2 C 5.8 g/m*3 9.2 C 0 km/h
Sensor: Nr:Datum:Temp:Abs-Feuchte:Windchill:Wind:
Aussen-T/F 976 22-02-2010 19:02:01 9 C 5.73 g/m*3 9 C 0 km/h
977 22-02-2010 19:14:01 8.9 C 5.87 g/m*3 8.9 C 0 km/h
978 22-02-2010 19:26:02 8.9 C 5.87 g/m*3 8.9 C 0 km/h
979 22-02-2010 19:38:01 9 C 5.82 g/m*3 9 C 0 km/h
980 22-02-2010 19:50:02 9.1 C 5.77 g/m*3 9.1 C 0 km/h
981 22-02-2010 20:02:02 9.1 C 5.68 g/m*3 9.1 C 0 km/h
982 22-02-2010 20:14:02 9.2 C 5.63 g/m*3 9.2 C 0 km/h
983 22-02-2010 20:26:01 9.5 C 5.64 g/m*3 9.5 C 0 km/h
984 22-02-2010 20:38:02 9.4 C 5.52 g/m*3 9.4 C 0 km/h
985 22-02-2010 20:50:02 9 C 5.47 g/m*3 9 C 0 km/h
986 22-02-2010 21:02:01 8.7 C 5.53 g/m*3 8.7 C 0 km/h
987 22-02-2010 21:14:01 8.9 C 5.52 g/m*3 8.9 C 0 km/h
988 22-02-2010 21:26:01 8.8 C 5.48 g/m*3 8.8 C 0 km/h
989 22-02-2010 21:38:02 8.9 C 5.52 g/m*3 8.9 C 0 km/h
990 22-02-2010 21:50:01 8.9 C 5.52 g/m*3 8.9 C 0 km/h
991 22-02-2010 22:02:02 9.1 C 5.5 g/m*3 9.1 C 0 km/h
992 22-02-2010 22:14:02 9.5 C 5.55 g/m*3 9.5 C 0 km/h
993 22-02-2010 22:28:08 10.1 C 5.67 g/m*3 10.1 C 0 km/h
994 22-02-2010 22:40:08 11.1 C 5.54 g/m*3 11.1 C 0 km/h
995 22-02-2010 22:52:08 11.5 C 5.47 g/m*3 11.5 C 0 km/h
996 22-02-2010 23:04:08 12 C 5.33 g/m*3 12 C 0 km/h
997 22-02-2010 23:16:08 12.1 C 5.36 g/m*3 12.1 C 0 km/h
998 22-02-2010 23:28:08 12.1 C 5.47 g/m*3 12.1 C 0 km/h
999 22-02-2010 23:40:08 12 C 5.44 g/m*3 12 C 0 km/h
1000 22-02-2010 23:52:08 12.2 C 5.5 g/m*3 12.2 C 0 km/h
Sensor: Nr:Datum:Temp:Abs-Feuchte:Windchill:Wind:
Aussen-T/F 1001 23-02-2010 00:04:08 12.1 C 5.47 g/m*3 12.1 C 0 km/h
1002 23-02-2010 00:16:08 12.1 C 5.47 g/m*3 12.1 C 0 km/h
1003 23-02-2010 00:28:08 12.2 C 5.5 g/m*3 12.2 C 0 km/h
1004 23-02-2010 00:40:08 12.2 C 5.4 g/m*3 12.2 C 0 km/h
1005 23-02-2010 00:52:08 12.1 C 5.36 g/m*3 12.1 C 0 km/h
1006 23-02-2010 01:04:08 11.8 C 5.47 g/m*3 11.8 C 0 km/h
1007 23-02-2010 01:16:08 11.5 C 5.58 g/m*3 11.5 C 0 km/h
1008 23-02-2010 01:28:08 11.4 C 5.75 g/m*3 11.4 C 0 km/h
1009 23-02-2010 01:40:08 11.4 C 5.75 g/m*3 11.4 C 0 km/h
1010 23-02-2010 01:52:08 11.4 C 5.85 g/m*3 11.4 C 0 km/h
1011 23-02-2010 02:04:08 11.2 C 5.78 g/m*3 11.2 C 0 km/h
1012 23-02-2010 02:16:08 11.2 C 5.88 g/m*3 11.2 C 0 km/h
1013 23-02-2010 02:28:08 10.6 C 6.25 g/m*3 10.6 C 0 km/h
1014 23-02-2010 02:40:08 10.4 C 6.46 g/m*3 10.4 C 0 km/h
1015 23-02-2010 02:52:08 9.6 C 6.78 g/m*3 9.6 C 0 km/h
1016 23-02-2010 03:04:09 9.3 C 6.83 g/m*3 9.3 C 0 km/h
1017 23-02-2010 03:16:09 9.2 C 6.97 g/m*3 9.2 C 0 km/h
1018 23-02-2010 03:28:09 9.1 C 6.92 g/m*3 9.1 C 0 km/h
1019 23-02-2010 03:40:09 9.1 C 7.01 g/m*3 9.1 C 0 km/h
1020 23-02-2010 03:52:09 8.9 C 7.1 g/m*3 8.9 C 0 km/h
1021 23-02-2010 04:04:09 8.6 C 7.13 g/m*3 8.6 C 0 km/h
1022 23-02-2010 04:16:09 8.6 C 7.22 g/m*3 8.6 C 0 km/h
1023 23-02-2010 04:28:09 8.5 C 7.17 g/m*3 8.5 C 0 km/h
1024 23-02-2010 04:40:09 8.6 C 7.22 g/m*3 8.6 C 0 km/h
1025 23-02-2010 04:52:09 8.5 C 7.17 g/m*3 8.5 C 0 km/h
Sensor: Nr:Datum:Temp:Abs-Feuchte:Windchill:Wind:
Aussen-T/F 1026 23-02-2010 05:04:09 8.4 C 7.04 g/m*3 8.4 C 0 km/h
1027 23-02-2010 05:16:09 8.5 C 7.17 g/m*3 8.5 C 0 km/h
1028 23-02-2010 05:28:09 8.3 C 7.08 g/m*3 8.3 C 0 km/h
1029 23-02-2010 05:40:09 8.5 C 7.17 g/m*3 8.5 C 0 km/h
1030 23-02-2010 05:52:09 8.5 C 7.09 g/m*3 8.5 C 0 km/h
1031 23-02-2010 06:04:09 8.5 C 7.09 g/m*3 8.5 C 0 km/h
1032 23-02-2010 06:16:09 8.5 C 7.09 g/m*3 8.5 C 0 km/h
1033 23-02-2010 06:28:09 8.5 C 7.09 g/m*3 8.5 C 0 km/h
1034 23-02-2010 06:40:09 8.5 C 7.09 g/m*3 8.5 C 0 km/h
1035 23-02-2010 06:52:09 8.5 C 7.09 g/m*3 8.5 C 0 km/h
1036 23-02-2010 07:04:09 8.4 C 7.04 g/m*3 8.4 C 0 km/h
1037 23-02-2010 07:16:08 8.2 C 6.95 g/m*3 8.2 C 0 km/h
1038 23-02-2010 07:28:08 8.1 C 6.99 g/m*3 8.1 C 0 km/h
1039 23-02-2010 07:40:08 8.2 C 7.03 g/m*3 8.2 C 0 km/h
1040 23-02-2010 07:52:01 8.2 C 7.03 g/m*3 8.2 C 0 km/h
1041 23-02-2010 08:04:02 8.3 C 7.16 g/m*3 8.3 C 0 km/h
1042 23-02-2010 08:16:01 8.5 C 7.26 g/m*3 8.5 C 0 km/h
1043 23-02-2010 08:28:01 8.6 C 7.22 g/m*3 8.6 C 0 km/h
1044 23-02-2010 08:40:02 8.8 C 7.31 g/m*3 8.8 C 0 km/h
1045 23-02-2010 08:52:02 8.9 C 7.27 g/m*3 8.9 C 0 km/h
1046 23-02-2010 09:04:02 9 C 7.23 g/m*3 9 C 0 km/h
1047 23-02-2010 09:16:01 9.1 C 7.28 g/m*3 9.1 C 0 km/h
1048 23-02-2010 09:28:01 9.1 C 7.1 g/m*3 9.1 C 0 km/h
1049 23-02-2010 09:40:02 9.1 C 7.01 g/m*3 9.1 C 0 km/h
1050 23-02-2010 09:52:02 9.3 C 7.19 g/m*3 9.3 C 0 km/h
Sensor: Nr:Datum:Temp:Abs-Feuchte:Windchill:Wind:
Aussen-T/F 1051 23-02-2010 10:04:02 9.7 C 7.19 g/m*3 9.7 C 0 km/h
1052 23-02-2010 10:16:01 10.4 C 7.04 g/m*3 10.4 C 0 km/h
1053 23-02-2010 10:28:01 10.7 C 6.88 g/m*3 10.7 C 0 km/h
1054 23-02-2010 10:40:02 10.6 C 6.83 g/m*3 10.6 C 0 km/h
1055 23-02-2010 10:52:01 10.6 C 6.73 g/m*3 10.6 C 0 km/h
1056 23-02-2010 11:04:02 10.8 C 6.92 g/m*3 10.8 C 0 km/h
1057 23-02-2010 11:16:02 11 C 6.81 g/m*3 11 C 0 km/h
1058 23-02-2010 11:28:02 11.2 C 6.69 g/m*3 11.2 C 0 km/h
1059 23-02-2010 11:40:02 11.4 C 6.57 g/m*3 11.4 C 0 km/h
1060 23-02-2010 11:52:01 11.6 C 6.55 g/m*3 11.6 C 0 km/h
1061 23-02-2010 12:04:02 11.2 C 6.49 g/m*3 11.2 C 0 km/h
1062 23-02-2010 12:16:02 10.9 C 6.66 g/m*3 10.9 C 0 km/h
1063 23-02-2010 12:28:02 10.3 C 6.9 g/m*3 10.3 C 0 km/h
1064 23-02-2010 12:40:01 10.5 C 7.27 g/m*3 10.5 C 0 km/h
1065 23-02-2010 12:52:02 10.4 C 7.13 g/m*3 10.4 C 0 km/h
1066 23-02-2010 13:04:01 10.3 C 7.18 g/m*3 10.3 C 0 km/h
1067 23-02-2010 13:16:02 10.4 C 7.32 g/m*3 10.4 C 0 km/h
1068 23-02-2010 13:28:02 10.5 C 7.37 g/m*3 10.5 C 0 km/h
1069 23-02-2010 13:40:01 10.3 C 7.47 g/m*3 10.3 C 0 km/h
1070 23-02-2010 13:52:02 10.6 C 7.71 g/m*3 10.6 C 0 km/h
1071 23-02-2010 14:04:02 10.9 C 7.76 g/m*3 10.9 C 0 km/h
1072 23-02-2010 14:16:02 11 C 7.81 g/m*3 11 C 0 km/h
1073 23-02-2010 14:28:02 10.8 C 7.71 g/m*3 10.8 C 0 km/h
1074 23-02-2010 14:40:03 10.9 C 7.76 g/m*3 10.9 C 0 km/h
1075 23-02-2010 14:52:02 11 C 7.61 g/m*3 11 C 0 km/h
Sensor: Nr:Datum:Temp:Abs-Feuchte:Windchill:Wind:
Aussen-T/F 1076 23-02-2010 15:04:01 11 C 7.71 g/m*3 11 C 0 km/h
1077 23-02-2010 15:16:02 11 C 7.71 g/m*3 11 C 0 km/h
1078 23-02-2010 15:28:02 11 C 7.81 g/m*3 11 C 0 km/h
1079 23-02-2010 15:40:02 11.1 C 7.66 g/m*3 11.1 C 0 km/h
1080 23-02-2010 15:52:02 11 C 7.51 g/m*3 11 C 0 km/h
1081 23-02-2010 16:04:03 10.7 C 7.46 g/m*3 10.7 C 0 km/h
1082 23-02-2010 16:16:02 10.5 C 7.47 g/m*3 10.5 C 0 km/h
1083 23-02-2010 16:28:02 10.6 C 7.52 g/m*3 10.6 C 0 km/h
1084 23-02-2010 16:40:02 10.6 C 7.52 g/m*3 10.6 C 0 km/h
1085 23-02-2010 16:52:01 10.4 C 7.32 g/m*3 10.4 C 0 km/h
1086 23-02-2010 17:04:02 10.4 C 7.32 g/m*3 10.4 C 0 km/h
1087 23-02-2010 17:16:01 10.2 C 7.23 g/m*3 10.2 C 0 km/h
1088 23-02-2010 17:28:01 10.1 C 7.09 g/m*3 10.1 C 0 km/h
1089 23-02-2010 17:40:02 10.1 C 7.19 g/m*3 10.1 C 0 km/h
1090 23-02-2010 17:52:01 10 C 7.14 g/m*3 10 C 0 km/h
1091 23-02-2010 18:04:02 9.8 C 7.24 g/m*3 9.8 C 0 km/h
1092 23-02-2010 18:16:01 9.6 C 7.33 g/m*3 9.6 C 0 km/h
1093 23-02-2010 18:28:01 9.6 C 7.33 g/m*3 9.6 C 0 km/h
1094 23-02-2010 18:40:02 9.5 C 7.37 g/m*3 9.5 C 0 km/h
1095 23-02-2010 18:52:01 9.5 C 7.46 g/m*3 9.5 C 0 km/h
1096 23-02-2010 19:04:02 9.2 C 7.41 g/m*3 9.2 C 0 km/h
1097 23-02-2010 19:16:02 9.1 C 7.45 g/m*3 9.1 C 0 km/h
1098 23-02-2010 19:28:02 9.2 C 7.59 g/m*3 9.2 C 0 km/h
1099 23-02-2010 19:40:02 9.2 C 7.68 g/m*3 9.2 C 0 km/h
1100 23-02-2010 19:52:02 9.2 C 7.68 g/m*3 9.2 C 0 km/h
Sensor: Nr:Datum:Temp:Abs-Feuchte:Windchill:Wind:
Aussen-T/F 1101 23-02-2010 20:04:02 9 C 7.67 g/m*3 9 C 0 km/h
1102 23-02-2010 20:16:02 9.1 C 7.81 g/m*3 9.1 C 0 km/h
1103 23-02-2010 20:28:02 9 C 7.76 g/m*3 9 C 0 km/h
1104 23-02-2010 20:40:02 9 C 7.76 g/m*3 9 C 0 km/h
1105 23-02-2010 20:52:01 9.2 C 7.86 g/m*3 9.2 C 0 km/h
1106 23-02-2010 21:04:02 9.3 C 7.91 g/m*3 9.3 C 0 km/h
1107 23-02-2010 21:16:01 9.4 C 7.78 g/m*3 9.4 C 0 km/h
1108 23-02-2010 21:28:01 9.6 C 7.6 g/m*3 9.6 C 0 km/h
1109 23-02-2010 21:40:02 9.6 C 7.33 g/m*3 9.6 C 0 km/h
1110 23-02-2010 21:52:02 9.5 C 7.1 g/m*3 9.5 C 0 km/h
1111 23-02-2010 22:04:02 9.3 C 6.92 g/m*3 9.3 C 0 km/h
1112 23-02-2010 22:16:02 9.3 C 6.92 g/m*3 9.3 C 0 km/h
1113 23-02-2010 22:28:02 9.3 C 6.74 g/m*3 9.3 C 0 km/h
1114 23-02-2010 22:40:02 8.9 C 6.75 g/m*3 8.9 C 0 km/h
1115 23-02-2010 22:52:01 8.7 C 6.75 g/m*3 8.7 C 0 km/h
1116 23-02-2010 23:04:02 8.5 C 6.66 g/m*3 8.5 C 0 km/h
1117 23-02-2010 23:16:02 8.5 C 6.66 g/m*3 8.5 C 0 km/h
1118 23-02-2010 23:28:02 8.2 C 6.62 g/m*3 8.2 C 0 km/h
1119 23-02-2010 23:40:01 8.2 C 6.7 g/m*3 8.2 C 0 km/h
1120 23-02-2010 23:52:02 8.2 C 6.7 g/m*3 8.2 C 0 km/h
1121 24-02-2010 00:04:01 8.1 C 6.66 g/m*3 8.1 C 0 km/h
1122 24-02-2010 00:16:02 7.9 C 6.74 g/m*3 7.9 C 0 km/h
1123 24-02-2010 00:28:02 7.9 C 6.82 g/m*3 7.9 C 0 km/h
1124 24-02-2010 00:40:01 7.8 C 6.77 g/m*3 7.8 C 0 km/h
1125 24-02-2010 00:52:02 7.5 C 6.64 g/m*3 7.5 C 0 km/h
Sensor: Nr:Datum:Temp:Abs-Feuchte:Windchill:Wind:
Aussen-T/F 1126 24-02-2010 01:04:01 7.3 C 6.64 g/m*3 7.3 C 0 km/h
1127 24-02-2010 01:16:02 7.5 C 6.8 g/m*3 7.5 C 0 km/h
1128 24-02-2010 01:28:02 8.1 C 6.99 g/m*3 8.1 C 0 km/h
1129 24-02-2010 01:40:01 8.7 C 6.92 g/m*3 8.7 C 0 km/h
1130 24-02-2010 01:52:02 8.6 C 6.7 g/m*3 8.6 C 0 km/h
1131 24-02-2010 02:04:02 8.3 C 6.57 g/m*3 8.3 C 0 km/h
1132 24-02-2010 02:16:02 8.1 C 6.57 g/m*3 8.1 C 0 km/h
1133 24-02-2010 02:28:02 7.9 C 6.74 g/m*3 7.9 C 0 km/h
1134 24-02-2010 02:40:02 7.9 C 6.82 g/m*3 7.9 C 0 km/h
1135 24-02-2010 02:52:01 7.8 C 6.77 g/m*3 7.8 C 0 km/h
1136 24-02-2010 03:04:01 7.7 C 6.73 g/m*3 7.7 C 0 km/h
1137 24-02-2010 03:16:01 7.9 C 6.9 g/m*3 7.9 C 0 km/h
1138 24-02-2010 03:28:01 8 C 6.86 g/m*3 8 C 0 km/h
1139 24-02-2010 03:40:02 8 C 6.78 g/m*3 8 C 0 km/h
1140 24-02-2010 03:52:02 8 C 6.78 g/m*3 8 C 0 km/h
1141 24-02-2010 04:04:01 8 C 6.78 g/m*3 8 C 0 km/h
1142 24-02-2010 04:16:02 8 C 6.86 g/m*3 8 C 0 km/h
1143 24-02-2010 04:28:02 8 C 6.86 g/m*3 8 C 0 km/h
1144 24-02-2010 04:40:01 8 C 6.86 g/m*3 8 C 0 km/h
1145 24-02-2010 04:52:02 8.1 C 6.91 g/m*3 8.1 C 0 km/h
1146 24-02-2010 05:04:01 8.3 C 7 g/m*3 8.3 C 0 km/h
1147 24-02-2010 05:16:01 8.4 C 6.96 g/m*3 8.4 C 0 km/h
1148 24-02-2010 05:28:01 8.2 C 6.78 g/m*3 8.2 C 0 km/h
1149 24-02-2010 05:40:01 8.3 C 6.83 g/m*3 8.3 C 0 km/h
1150 24-02-2010 05:52:02 8.4 C 6.79 g/m*3 8.4 C 0 km/h
Sensor: Nr:Datum:Temp:Abs-Feuchte:Windchill:Wind:
Aussen-T/F 1151 24-02-2010 06:04:01 8.2 C 6.62 g/m*3 8.2 C 0 km/h
1152 24-02-2010 06:16:01 7.9 C 6.65 g/m*3 7.9 C 0 km/h
1153 24-02-2010 06:28:01 7.8 C 6.61 g/m*3 7.8 C 0 km/h
1154 24-02-2010 06:40:02 7.6 C 6.53 g/m*3 7.6 C 0 km/h
1155 24-02-2010 06:52:01 7.3 C 6.4 g/m*3 7.3 C 0 km/h
1156 24-02-2010 07:04:01 7.3 C 6.56 g/m*3 7.3 C 0 km/h
1157 24-02-2010 07:16:01 7.4 C 6.6 g/m*3 7.4 C 0 km/h
1158 24-02-2010 07:28:01 7.5 C 6.64 g/m*3 7.5 C 0 km/h
1159 24-02-2010 07:40:02 7.5 C 6.56 g/m*3 7.5 C 0 km/h
1160 24-02-2010 07:52:01 7.4 C 6.6 g/m*3 7.4 C 0 km/h
1161 24-02-2010 08:04:02 7.5 C 6.64 g/m*3 7.5 C 0 km/h
1162 24-02-2010 08:16:01 7.5 C 6.56 g/m*3 7.5 C 0 km/h
1163 24-02-2010 08:28:01 7.9 C 6.82 g/m*3 7.9 C 0 km/h
1164 24-02-2010 08:40:02 8.1 C 6.74 g/m*3 8.1 C 0 km/h
1165 24-02-2010 08:52:01 8.5 C 6.92 g/m*3 8.5 C 0 km/h
1166 24-02-2010 09:04:02 8.6 C 6.79 g/m*3 8.6 C 0 km/h
1167 24-02-2010 09:16:01 8.9 C 6.83 g/m*3 8.9 C 0 km/h
1168 24-02-2010 09:28:01 9.1 C 6.65 g/m*3 9.1 C 0 km/h
1169 24-02-2010 09:40:01 9.2 C 6.52 g/m*3 9.2 C 0 km/h
1170 24-02-2010 09:52:01 9.4 C 6.51 g/m*3 9.4 C 0 km/h
1171 24-02-2010 10:04:02 9.7 C 6.55 g/m*3 9.7 C 0 km/h
1172 24-02-2010 10:16:01 10 C 6.39 g/m*3 10 C 0 km/h
1173 24-02-2010 10:28:01 10.2 C 6.28 g/m*3 10.2 C 0 km/h
1174 24-02-2010 10:40:01 10.4 C 6.26 g/m*3 10.4 C 0 km/h
1175 24-02-2010 10:52:01 10.9 C 6.17 g/m*3 10.9 C 0 km/h
Sensor: Nr:Datum:Temp:Abs-Feuchte:Windchill:Wind:
Aussen-T/F 1176 24-02-2010 11:04:01 10.9 C 5.97 g/m*3 10.9 C 0 km/h
1177 24-02-2010 11:16:02 11.1 C 5.74 g/m*3 11.1 C 0 km/h
1178 24-02-2010 11:28:02 11.2 C 5.68 g/m*3 11.2 C 0 km/h
1179 24-02-2010 11:40:01 11.2 C 5.57 g/m*3 11.2 C 0 km/h
1180 24-02-2010 11:52:01 11.3 C 5.61 g/m*3 11.3 C 0 km/h
1181 24-02-2010 12:04:01 11.1 C 5.64 g/m*3 11.1 C 0 km/h
1182 24-02-2010 12:16:02 11.2 C 5.57 g/m*3 11.2 C 0 km/h
1183 24-02-2010 12:28:02 11.6 C 5.72 g/m*3 11.6 C 0 km/h
1184 24-02-2010 12:40:01 11.8 C 5.58 g/m*3 11.8 C 0 km/h
1185 24-02-2010 12:52:02 12 C 5.54 g/m*3 12 C 0 km/h
1186 24-02-2010 13:04:01 12 C 5.54 g/m*3 12 C 0 km/h
1187 24-02-2010 13:16:02 11.8 C 5.58 g/m*3 11.8 C 0 km/h
1188 24-02-2010 13:28:02 12 C 5.44 g/m*3 12 C 0 km/h
1189 24-02-2010 13:40:01 12.2 C 5.61 g/m*3 12.2 C 0 km/h
1190 24-02-2010 13:52:02 12.4 C 5.35 g/m*3 12.4 C 0 km/h
1191 24-02-2010 14:04:01 12.3 C 5.32 g/m*3 12.3 C 0 km/h
1192 24-02-2010 14:16:01 12.6 C 5.53 g/m*3 12.6 C 0 km/h
1193 24-02-2010 14:28:01 12.7 C 5.45 g/m*3 12.7 C 0 km/h
1194 24-02-2010 14:40:01 12.8 C 5.38 g/m*3 12.8 C 0 km/h
1195 24-02-2010 14:52:02 13.1 C 5.36 g/m*3 13.1 C 0 km/h
1196 24-02-2010 15:04:01 13.2 C 5.4 g/m*3 13.2 C 0 km/h
1197 24-02-2010 15:16:01 13.1 C 5.36 g/m*3 13.1 C 0 km/h
1198 24-02-2010 15:28:01 13.2 C 5.4 g/m*3 13.2 C 0 km/h
1199 24-02-2010 15:40:02 13.7 C 5.45 g/m*3 13.7 C 0 km/h
1200 24-02-2010 15:52:01 14.1 C 5.46 g/m*3 14.1 C 0 km/h
Sensor: Nr:Datum:Temp:Abs-Feuchte:Windchill:Wind:
Aussen-T/F 1201 24-02-2010 16:04:01 15.2 C 5.58 g/m*3 15.2 C 0 km/h
1202 24-02-2010 16:16:01 14.4 C 5.19 g/m*3 14.4 C 0 km/h
1203 24-02-2010 16:28:01 14 C 5.43 g/m*3 14 C 0 km/h
1204 24-02-2010 16:40:02 14.4 C 5.32 g/m*3 14.4 C 0 km/h
1205 24-02-2010 16:52:01 14.2 C 5.13 g/m*3 14.2 C 0 km/h
1206 24-02-2010 17:04:02 13.6 C 5.3 g/m*3 13.6 C 0 km/h
1207 24-02-2010 17:16:01 12.8 C 5.38 g/m*3 12.8 C 0 km/h
1208 24-02-2010 17:28:01 11.8 C 5.68 g/m*3 11.8 C 0 km/h
1209 24-02-2010 17:40:02 11.2 C 5.68 g/m*3 11.2 C 0 km/h
1210 24-02-2010 17:52:01 10.7 C 5.8 g/m*3 10.7 C 0 km/h
1211 24-02-2010 18:04:02 10.2 C 5.8 g/m*3 10.2 C 0 km/h
1212 24-02-2010 18:16:01 9.8 C 5.85 g/m*3 9.8 C 0 km/h
1213 24-02-2010 18:28:02 9.7 C 5.9 g/m*3 9.7 C 0 km/h
1214 24-02-2010 18:40:01 9.6 C 5.95 g/m*3 9.6 C 0 km/h
1215 24-02-2010 18:52:01 9.6 C 6.05 g/m*3 9.6 C 0 km/h
1216 24-02-2010 19:04:01 9.7 C 6.18 g/m*3 9.7 C 0 km/h
1217 24-02-2010 19:16:01 9.5 C 6.55 g/m*3 9.5 C 0 km/h
1218 24-02-2010 19:28:01 8.8 C 6.7 g/m*3 8.8 C 0 km/h
1219 24-02-2010 19:40:01 8.5 C 6.92 g/m*3 8.5 C 0 km/h
1220 24-02-2010 19:52:01 8.5 C 7.09 g/m*3 8.5 C 0 km/h
1221 24-02-2010 20:04:01 8.4 C 7.13 g/m*3 8.4 C 0 km/h
1222 24-02-2010 20:16:02 8.3 C 7.16 g/m*3 8.3 C 0 km/h
1223 24-02-2010 20:28:02 8.4 C 7.3 g/m*3 8.4 C 0 km/h
1224 24-02-2010 20:40:01 8.3 C 7.33 g/m*3 8.3 C 0 km/h
1225 24-02-2010 20:52:01 8.5 C 7.43 g/m*3 8.5 C 0 km/h
Sensor: Nr:Datum:Temp:Abs-Feuchte:Windchill:Wind:
Aussen-T/F 1226 24-02-2010 21:04:01 8.5 C 7.51 g/m*3 8.5 C 0 km/h
1227 24-02-2010 21:16:02 8.4 C 7.38 g/m*3 8.4 C 0 km/h
1228 24-02-2010 21:28:02 7.9 C 7.23 g/m*3 7.9 C 0 km/h
1229 24-02-2010 21:40:01 7.8 C 7.18 g/m*3 7.8 C 0 km/h
1230 24-02-2010 21:52:02 7.6 C 7.09 g/m*3 7.6 C 0 km/h
1231 24-02-2010 22:04:01 7.5 C 6.96 g/m*3 7.5 C 0 km/h
1232 24-02-2010 22:16:02 7.6 C 7.01 g/m*3 7.6 C 0 km/h
1233 24-02-2010 22:28:02 7.7 C 7.05 g/m*3 7.7 C 0 km/h
1234 24-02-2010 22:40:01 8 C 7.03 g/m*3 8 C 0 km/h
1235 24-02-2010 22:52:02 8.1 C 6.82 g/m*3 8.1 C 0 km/h
1236 24-02-2010 23:04:01 8.2 C 6.7 g/m*3 8.2 C 0 km/h
1237 24-02-2010 23:16:01 8.3 C 6.74 g/m*3 8.3 C 0 km/h
1238 24-02-2010 23:28:01 8.4 C 6.62 g/m*3 8.4 C 0 km/h
1239 24-02-2010 23:40:01 8.4 C 6.53 g/m*3 8.4 C 0 km/h
1240 24-02-2010 23:52:02 8.4 C 6.45 g/m*3 8.4 C 0 km/h
1241 25-02-2010 00:04:01 8.7 C 6.49 g/m*3 8.7 C 0 km/h
1242 25-02-2010 00:16:02 8.7 C 6.4 g/m*3 8.7 C 0 km/h
1243 25-02-2010 00:28:02 8.6 C 6.36 g/m*3 8.6 C 0 km/h
1244 25-02-2010 00:40:01 8.4 C 6.28 g/m*3 8.4 C 0 km/h
1245 25-02-2010 00:52:02 8.1 C 6.24 g/m*3 8.1 C 0 km/h
1246 25-02-2010 01:04:01 8.1 C 6.41 g/m*3 8.1 C 0 km/h
1247 25-02-2010 01:16:01 8.4 C 6.36 g/m*3 8.4 C 0 km/h
1248 25-02-2010 01:28:01 8.5 C 6.23 g/m*3 8.5 C 0 km/h
1249 25-02-2010 01:40:02 8.6 C 6.19 g/m*3 8.6 C 0 km/h
1250 25-02-2010 01:52:01 8.6 C 6.19 g/m*3 8.6 C 0 km/h
Sensor: Nr:Datum:Temp:Abs-Feuchte:Windchill:Wind:
Aussen-T/F 1251 25-02-2010 02:04:01 8.4 C 6.11 g/m*3 8.4 C 0 km/h
1252 25-02-2010 02:16:01 8 C 6.12 g/m*3 8 C 0 km/h
1253 25-02-2010 02:28:01 7.9 C 6.32 g/m*3 7.9 C 0 km/h
1254 25-02-2010 02:40:02 7.9 C 6.41 g/m*3 7.9 C 0 km/h
1255 25-02-2010 02:52:01 7.8 C 6.28 g/m*3 7.8 C 0 km/h
1256 25-02-2010 03:04:01 7.7 C 6.32 g/m*3 7.7 C 0 km/h
1257 25-02-2010 03:16:02 7.5 C 6.48 g/m*3 7.5 C 0 km/h
1258 25-02-2010 03:28:02 7.4 C 6.6 g/m*3 7.4 C 0 km/h
1259 25-02-2010 03:40:02 7.3 C 6.56 g/m*3 7.3 C 0 km/h
1260 25-02-2010 03:52:02 7.3 C 6.56 g/m*3 7.3 C 0 km/h
1261 25-02-2010 04:04:01 7.2 C 6.52 g/m*3 7.2 C 0 km/h
1262 25-02-2010 04:16:01 7.2 C 6.52 g/m*3 7.2 C 0 km/h
1263 25-02-2010 04:28:01 7.2 C 6.52 g/m*3 7.2 C 0 km/h
1264 25-02-2010 04:40:02 7.1 C 6.47 g/m*3 7.1 C 0 km/h
1265 25-02-2010 04:52:01 7.1 C 6.55 g/m*3 7.1 C 0 km/h
1266 25-02-2010 05:04:02 7.3 C 6.56 g/m*3 7.3 C 0 km/h
1267 25-02-2010 05:16:01 7.2 C 6.52 g/m*3 7.2 C 0 km/h
1268 25-02-2010 05:28:01 7.4 C 6.6 g/m*3 7.4 C 0 km/h
1269 25-02-2010 05:40:02 7.6 C 6.53 g/m*3 7.6 C 0 km/h
1270 25-02-2010 05:52:01 7.9 C 6.32 g/m*3 7.9 C 0 km/h
1271 25-02-2010 06:04:02 8.1 C 6.07 g/m*3 8.1 C 0 km/h
1272 25-02-2010 06:16:01 8.3 C 5.98 g/m*3 8.3 C 0 km/h
1273 25-02-2010 06:28:01 8.5 C 5.89 g/m*3 8.5 C 0 km/h
1274 25-02-2010 06:40:02 8.6 C 5.84 g/m*3 8.6 C 0 km/h
1275 25-02-2010 06:52:02 8.7 C 5.79 g/m*3 8.7 C 0 km/h
Sensor: Nr:Datum:Temp:Abs-Feuchte:Windchill:Wind:
Aussen-T/F 1276 25-02-2010 07:04:01 8.7 C 5.79 g/m*3 8.7 C 0 km/h
1277 25-02-2010 07:16:01 8.8 C 5.74 g/m*3 8.8 C 0 km/h
1278 25-02-2010 07:28:01 8.8 C 5.83 g/m*3 8.8 C 0 km/h
1279 25-02-2010 07:40:01 8.7 C 5.88 g/m*3 8.7 C 0 km/h
1280 25-02-2010 07:52:02 8.6 C 5.93 g/m*3 8.6 C 0 km/h
1281 25-02-2010 08:04:01 8.4 C 6.02 g/m*3 8.4 C 0 km/h
1282 25-02-2010 08:16:01 8.6 C 5.93 g/m*3 8.6 C 0 km/h
1283 25-02-2010 08:28:01 8.9 C 5.78 g/m*3 8.9 C 0 km/h
1284 25-02-2010 08:40:02 9 C 5.64 g/m*3 9 C 0 km/h
1285 25-02-2010 08:52:01 9.1 C 5.68 g/m*3 9.1 C 0 km/h
1286 25-02-2010 09:04:02 9.3 C 5.66 g/m*3 9.3 C 0 km/h
1287 25-02-2010 09:16:01 9.5 C 5.64 g/m*3 9.5 C 0 km/h
1288 25-02-2010 09:28:01 9.6 C 5.5 g/m*3 9.6 C 0 km/h
1289 25-02-2010 09:40:02 9.6 C 5.59 g/m*3 9.6 C 0 km/h
1290 25-02-2010 09:52:01 9.9 C 5.6 g/m*3 9.9 C 0 km/h
1291 25-02-2010 10:04:02 9.9 C 5.51 g/m*3 9.9 C 0 km/h
1292 25-02-2010 10:16:01 9.9 C 5.6 g/m*3 9.9 C 0 km/h
1293 25-02-2010 10:28:01 10.2 C 5.42 g/m*3 10.2 C 0 km/h
1294 25-02-2010 10:40:02 10.6 C 5.37 g/m*3 10.6 C 0 km/h
1295 25-02-2010 10:52:01 10.7 C 5.21 g/m*3 10.7 C 0 km/h
1296 25-02-2010 11:04:01 10.6 C 5.17 g/m*3 10.6 C 0 km/h
1297 25-02-2010 11:16:01 11.2 C 5.17 g/m*3 11.2 C 0 km/h
1298 25-02-2010 11:28:01 10.9 C 5.17 g/m*3 10.9 C 0 km/h
1299 25-02-2010 11:40:02 11.2 C 5.07 g/m*3 11.2 C 0 km/h
1300 25-02-2010 11:52:01 11.3 C 5.1 g/m*3 11.3 C 0 km/h
Sensor: Nr:Datum:Temp:Abs-Feuchte:Windchill:Wind:
Aussen-T/F 1301 25-02-2010 12:04:02 11.4 C 4.82 g/m*3 11.4 C 0 km/h
1302 25-02-2010 12:16:01 11.4 C 4.82 g/m*3 11.4 C 0 km/h
1303 25-02-2010 12:28:01 11.4 C 4.82 g/m*3 11.4 C 0 km/h
1304 25-02-2010 12:40:02 11.1 C 4.73 g/m*3 11.1 C 0 km/h
1305 25-02-2010 12:52:01 11.4 C 4.82 g/m*3 11.4 C 0 km/h
1306 25-02-2010 13:04:02 11.7 C 4.81 g/m*3 11.7 C 0 km/h
1307 25-02-2010 13:16:01 12.9 C 4.85 g/m*3 12.9 C 0 km/h
1308 25-02-2010 13:28:01 13 C 4.54 g/m*3 13 C 0 km/h
1309 25-02-2010 13:40:02 12.7 C 4.68 g/m*3 12.7 C 0 km/h
1310 25-02-2010 13:52:01 11.9 C 4.77 g/m*3 11.9 C 0 km/h
1311 25-02-2010 14:04:02 12.2 C 4.96 g/m*3 12.2 C 0 km/h
1312 25-02-2010 14:16:01 13 C 4.88 g/m*3 13 C 0 km/h
1313 25-02-2010 14:28:01 12.8 C 4.82 g/m*3 12.8 C 0 km/h
1314 25-02-2010 14:40:01 12.4 C 4.7 g/m*3 12.4 C 0 km/h
1315 25-02-2010 14:52:01 12.6 C 4.87 g/m*3 12.6 C 0 km/h
1316 25-02-2010 15:04:02 12.7 C 4.68 g/m*3 12.7 C 0 km/h
1317 25-02-2010 15:16:01 12.8 C 4.59 g/m*3 12.8 C 0 km/h
1318 25-02-2010 15:28:01 12.5 C 4.4 g/m*3 12.5 C 0 km/h
1319 25-02-2010 15:40:01 12.5 C 4.4 g/m*3 12.5 C 0 km/h
1320 25-02-2010 15:52:01 12.3 C 4.34 g/m*3 12.3 C 0 km/h
1321 25-02-2010 16:04:01 12.2 C 4.32 g/m*3 12.2 C 0 km/h
1322 25-02-2010 16:16:02 12 C 4.26 g/m*3 12 C 0 km/h
1323 25-02-2010 16:28:02 11.8 C 4.53 g/m*3 11.8 C 0 km/h
1324 25-02-2010 16:40:01 11.6 C 4.68 g/m*3 11.6 C 0 km/h
1325 25-02-2010 16:52:01 11.5 C 4.75 g/m*3 11.5 C 0 km/h
Sensor: Nr:Datum:Temp:Abs-Feuchte:Windchill:Wind:
Aussen-T/F 1326 25-02-2010 17:04:01 11.2 C 5.07 g/m*3 11.2 C 0 km/h
1327 25-02-2010 17:16:01 11.2 C 4.97 g/m*3 11.2 C 0 km/h
1328 25-02-2010 17:28:01 11 C 4.8 g/m*3 11 C 0 km/h
1329 25-02-2010 17:40:01 11 C 4.8 g/m*3 11 C 0 km/h
1330 25-02-2010 17:52:01 10.9 C 4.87 g/m*3 10.9 C 0 km/h
1331 25-02-2010 18:04:02 10.5 C 5.14 g/m*3 10.5 C 0 km/h
1332 25-02-2010 18:16:01 9.7 C 5.35 g/m*3 9.7 C 0 km/h
1333 25-02-2010 18:28:01 9.3 C 5.93 g/m*3 9.3 C 0 km/h
1334 25-02-2010 18:40:02 8.9 C 6.22 g/m*3 8.9 C 0 km/h
1335 25-02-2010 18:52:02 8.8 C 6.53 g/m*3 8.8 C 0 km/h
1336 25-02-2010 19:04:01 8.5 C 6.57 g/m*3 8.5 C 0 km/h
1337 25-02-2010 19:16:01 8.6 C 6.79 g/m*3 8.6 C 0 km/h
1338 25-02-2010 19:28:01 8.5 C 6.83 g/m*3 8.5 C 0 km/h
1339 25-02-2010 19:40:02 8.4 C 6.87 g/m*3 8.4 C 0 km/h
1340 25-02-2010 19:52:01 8.5 C 6.83 g/m*3 8.5 C 0 km/h
1341 25-02-2010 20:04:02 8.6 C 6.79 g/m*3 8.6 C 0 km/h
1342 25-02-2010 20:16:01 8.6 C 6.7 g/m*3 8.6 C 0 km/h
1343 25-02-2010 20:28:01 8.6 C 6.7 g/m*3 8.6 C 0 km/h
1344 25-02-2010 20:40:02 8.7 C 6.66 g/m*3 8.7 C 0 km/h
1345 25-02-2010 20:52:01 8.8 C 6.61 g/m*3 8.8 C 0 km/h
1346 25-02-2010 21:04:02 8.9 C 6.66 g/m*3 8.9 C 0 km/h
1347 25-02-2010 21:16:01 9 C 6.52 g/m*3 9 C 0 km/h
1348 25-02-2010 21:28:01 9.2 C 6.61 g/m*3 9.2 C 0 km/h
1349 25-02-2010 21:40:02 9.2 C 6.52 g/m*3 9.2 C 0 km/h
1350 25-02-2010 21:52:01 9.2 C 6.52 g/m*3 9.2 C 0 km/h
Sensor: Nr:Datum:Temp:Abs-Feuchte:Windchill:Wind:
Aussen-T/F 1351 25-02-2010 22:04:01 9.1 C 6.57 g/m*3 9.1 C 0 km/h
1352 25-02-2010 22:16:01 9.1 C 6.65 g/m*3 9.1 C 0 km/h
1353 25-02-2010 22:28:01 9.2 C 6.61 g/m*3 9.2 C 0 km/h
1354 25-02-2010 22:40:01 9.3 C 6.65 g/m*3 9.3 C 0 km/h
1355 25-02-2010 22:52:02 9.2 C 6.61 g/m*3 9.2 C 0 km/h
1356 25-02-2010 23:04:01 9.2 C 6.7 g/m*3 9.2 C 0 km/h
1357 25-02-2010 23:16:01 9.5 C 6.83 g/m*3 9.5 C 0 km/h
1358 25-02-2010 23:28:01 9.4 C 6.78 g/m*3 9.4 C 0 km/h
1359 25-02-2010 23:40:02 9.3 C 6.74 g/m*3 9.3 C 0 km/h
1360 25-02-2010 23:52:01 9.4 C 6.78 g/m*3 9.4 C 0 km/h
1361 26-02-2010 00:04:02 9.3 C 6.83 g/m*3 9.3 C 0 km/h
1362 26-02-2010 00:16:01 9.4 C 6.87 g/m*3 9.4 C 0 km/h
1363 26-02-2010 00:28:01 9.4 C 6.87 g/m*3 9.4 C 0 km/h
1364 26-02-2010 00:40:02 9.3 C 6.83 g/m*3 9.3 C 0 km/h
1365 26-02-2010 00:52:01 9.3 C 6.92 g/m*3 9.3 C 0 km/h
1366 26-02-2010 01:04:02 9.4 C 6.96 g/m*3 9.4 C 0 km/h
1367 26-02-2010 01:16:01 9.5 C 7.01 g/m*3 9.5 C 0 km/h
1368 26-02-2010 01:28:01 9.4 C 6.96 g/m*3 9.4 C 0 km/h
1369 26-02-2010 01:40:01 9.6 C 7.05 g/m*3 9.6 C 0 km/h
1370 26-02-2010 01:52:01 9.6 C 6.96 g/m*3 9.6 C 0 km/h
1371 26-02-2010 02:04:01 9.8 C 7.05 g/m*3 9.8 C 0 km/h
1372 26-02-2010 02:16:01 9.8 C 7.05 g/m*3 9.8 C 0 km/h
1373 26-02-2010 02:28:01 9.7 C 7.01 g/m*3 9.7 C 0 km/h
1374 26-02-2010 02:40:01 9.8 C 7.05 g/m*3 9.8 C 0 km/h
1375 26-02-2010 02:53:06 9.8 C 7.05 g/m*3 9.8 C 0 km/h
Sensor: Nr:Datum:Temp:Abs-Feuchte:Windchill:Wind:
Aussen-T/F 1376 26-02-2010 03:05:06 9.8 C 7.05 g/m*3 9.8 C 0 km/h
1377 26-02-2010 03:17:06 10 C 6.95 g/m*3 10 C 0 km/h
1378 26-02-2010 03:29:06 9.9 C 7 g/m*3 9.9 C 0 km/h
1379 26-02-2010 03:41:02 9.9 C 6.91 g/m*3 9.9 C 0 km/h
1380 26-02-2010 03:53:02 9.7 C 6.82 g/m*3 9.7 C 0 km/h
1381 26-02-2010 04:05:03 9.5 C 6.83 g/m*3 9.5 C 0 km/h
1382 26-02-2010 04:17:02 9.5 C 6.83 g/m*3 9.5 C 0 km/h
1383 26-02-2010 04:29:02 9.5 C 6.83 g/m*3 9.5 C 0 km/h
1384 26-02-2010 04:41:02 9.7 C 6.73 g/m*3 9.7 C 0 km/h
1385 26-02-2010 04:53:01 9.5 C 6.64 g/m*3 9.5 C 0 km/h
1386 26-02-2010 05:05:02 9.4 C 6.51 g/m*3 9.4 C 0 km/h
1387 26-02-2010 05:17:01 9.4 C 6.42 g/m*3 9.4 C 0 km/h
1388 26-02-2010 05:29:01 9.6 C 6.32 g/m*3 9.6 C 0 km/h
1389 26-02-2010 05:41:02 9.2 C 6.34 g/m*3 9.2 C 0 km/h
1390 26-02-2010 05:53:01 9.1 C 6.3 g/m*3 9.1 C 0 km/h
1391 26-02-2010 06:05:02 8.8 C 6.27 g/m*3 8.8 C 0 km/h
1392 26-02-2010 06:17:01 9 C 6.26 g/m*3 9 C 0 km/h
1393 26-02-2010 06:29:01 9.1 C 6.21 g/m*3 9.1 C 0 km/h
1394 26-02-2010 06:41:02 9.2 C 6.07 g/m*3 9.2 C 0 km/h
1395 26-02-2010 06:53:01 9.4 C 6.15 g/m*3 9.4 C 0 km/h
1396 26-02-2010 07:05:02 9.1 C 6.03 g/m*3 9.1 C 0 km/h
1397 26-02-2010 07:17:02 8.9 C 6.31 g/m*3 8.9 C 0 km/h
1398 26-02-2010 07:29:02 9 C 6.26 g/m*3 9 C 0 km/h
1399 26-02-2010 07:41:02 9.2 C 6.07 g/m*3 9.2 C 0 km/h
1400 26-02-2010 07:53:02 9.5 C 5.92 g/m*3 9.5 C 0 km/h
Sensor: Nr:Datum:Temp:Abs-Feuchte:Windchill:Wind:
Aussen-T/F 1401 26-02-2010 08:05:02 9.6 C 5.77 g/m*3 9.6 C 0 km/h
1402 26-02-2010 08:17:02 9.6 C 5.68 g/m*3 9.6 C 0 km/h
1403 26-02-2010 08:29:02 9.8 C 5.57 g/m*3 9.8 C 0 km/h
1404 26-02-2010 08:41:02 9.7 C 5.72 g/m*3 9.7 C 0 km/h
1405 26-02-2010 08:53:02 9.8 C 5.66 g/m*3 9.8 C 0 km/h
1406 26-02-2010 09:05:02 10.2 C 5.52 g/m*3 10.2 C 0 km/h
1407 26-02-2010 09:17:02 10.2 C 5.42 g/m*3 10.2 C 0 km/h
1408 26-02-2010 09:29:02 10.1 C 5.58 g/m*3 10.1 C 0 km/h
1409 26-02-2010 09:41:02 10.1 C 5.39 g/m*3 10.1 C 0 km/h
1410 26-02-2010 09:53:02 10.5 C 5.33 g/m*3 10.5 C 0 km/h
1411 26-02-2010 10:05:02 9.8 C 5.66 g/m*3 9.8 C 0 km/h
1412 26-02-2010 10:17:02 9.5 C 5.92 g/m*3 9.5 C 0 km/h
1413 26-02-2010 10:29:02 9.9 C 5.88 g/m*3 9.9 C 0 km/h
1414 26-02-2010 10:41:02 10.1 C 5.48 g/m*3 10.1 C 0 km/h
1415 26-02-2010 10:53:02 10.3 C 5.36 g/m*3 10.3 C 0 km/h
1416 26-02-2010 11:05:02 10.6 C 5.47 g/m*3 10.6 C 0 km/h
1417 26-02-2010 11:17:03 10.8 C 5.34 g/m*3 10.8 C 0 km/h
1418 26-02-2010 11:29:03 11 C 5.2 g/m*3 11 C 0 km/h
1419 26-02-2010 11:41:02 11.2 C 5.17 g/m*3 11.2 C 0 km/h
1420 26-02-2010 11:53:02 10.2 C 5.52 g/m*3 10.2 C 0 km/h
1421 26-02-2010 12:05:02 9.7 C 5.72 g/m*3 9.7 C 0 km/h
1422 26-02-2010 12:17:02 10 C 5.64 g/m*3 10 C 0 km/h
1423 26-02-2010 12:29:02 10.8 C 5.73 g/m*3 10.8 C 0 km/h
1424 26-02-2010 12:41:02 10.8 C 5.44 g/m*3 10.8 C 0 km/h
1425 26-02-2010 12:53:02 10.3 C 5.84 g/m*3 10.3 C 0 km/h
Sensor: Nr:Datum:Temp:Abs-Feuchte:Windchill:Wind:
Aussen-T/F 1426 26-02-2010 13:05:02 10.4 C 5.78 g/m*3 10.4 C 0 km/h
1427 26-02-2010 13:17:03 10.7 C 5.6 g/m*3 10.7 C 0 km/h
1428 26-02-2010 13:29:03 11.4 C 5.44 g/m*3 11.4 C 0 km/h
1429 26-02-2010 13:41:02 11.1 C 5.24 g/m*3 11.1 C 0 km/h
1430 26-02-2010 13:53:01 10.9 C 5.07 g/m*3 10.9 C 0 km/h
1431 26-02-2010 14:05:01 11.1 C 5.34 g/m*3 11.1 C 0 km/h
1432 26-02-2010 14:17:02 10.8 C 5.14 g/m*3 10.8 C 0 km/h
1433 26-02-2010 14:29:02 10.6 C 5.17 g/m*3 10.6 C 0 km/h
1434 26-02-2010 14:41:02 10.1 C 5.01 g/m*3 10.1 C 0 km/h
1435 26-02-2010 14:53:03 9.4 C 5.25 g/m*3 9.4 C 0 km/h
1436 26-02-2010 15:05:03 9.2 C 5.36 g/m*3 9.2 C 0 km/h
1437 26-02-2010 15:17:02 8.9 C 5.26 g/m*3 8.9 C 0 km/h
1438 26-02-2010 15:29:03 8.7 C 5.28 g/m*3 8.7 C 0 km/h
1439 26-02-2010 15:41:02 8.4 C 5.34 g/m*3 8.4 C 0 km/h
1440 26-02-2010 15:53:02 8.3 C 4.89 g/m*3 8.3 C 0 km/h
1441 26-02-2010 16:05:02 8.2 C 4.69 g/m*3 8.2 C 0 km/h
1442 26-02-2010 16:17:02 8 C 4.3 g/m*3 8 C 0 km/h
1443 26-02-2010 16:29:02 7.9 C 4.19 g/m*3 7.9 C 0 km/h
1444 26-02-2010 16:41:04 7.9 C 4.02 g/m*3 7.9 C 0 km/h
1445 26-02-2010 16:53:02 7.9 C 4.11 g/m*3 7.9 C 0 km/h
1446 26-02-2010 17:05:01 8.1 C 4.08 g/m*3 8.1 C 0 km/h
1447 26-02-2010 17:17:02 8 C 4.05 g/m*3 8 C 0 km/h
1448 26-02-2010 17:29:02 7.9 C 4.11 g/m*3 7.9 C 0 km/h
1449 26-02-2010 17:41:02 7.8 C 4.16 g/m*3 7.8 C 0 km/h
1450 26-02-2010 17:53:02 7.7 C 4.22 g/m*3 7.7 C 0 km/h
Sensor: Nr:Datum:Temp:Abs-Feuchte:Windchill:Wind:
Aussen-T/F 1451 26-02-2010 18:05:02 7.6 C 4.27 g/m*3 7.6 C 0 km/h
1452 26-02-2010 18:17:01 7.3 C 4.42 g/m*3 7.3 C 0 km/h
1453 26-02-2010 18:29:01 6.6 C 4.76 g/m*3 6.6 C 0 km/h
1454 26-02-2010 18:41:02 6.3 C 4.44 g/m*3 6.3 C 0 km/h
1455 26-02-2010 18:53:02 6.3 C 4.22 g/m*3 6.3 C 0 km/h
1456 26-02-2010 19:05:02 6.5 C 4.2 g/m*3 6.5 C 0 km/h
1457 26-02-2010 19:17:02 6.3 C 4.29 g/m*3 6.3 C 0 km/h
1458 26-02-2010 19:29:02 5.8 C 4.3 g/m*3 5.8 C 0 km/h
1459 26-02-2010 19:41:04 5.8 C 4.01 g/m*3 5.8 C 0 km/h
1460 26-02-2010 19:53:04 5.8 C 3.94 g/m*3 5.8 C 0 km/h
1461 26-02-2010 20:05:02 5.9 C 4.04 g/m*3 5.9 C 0 km/h
1462 26-02-2010 20:17:02 6 C 4.14 g/m*3 6 C 0 km/h
1463 26-02-2010 20:29:02 5.9 C 4.18 g/m*3 5.9 C 0 km/h
1464 26-02-2010 20:41:03 6 C 3.92 g/m*3 6 C 0 km/h
1465 26-02-2010 20:53:02 5.9 C 3.89 g/m*3 5.9 C 0 km/h
1466 26-02-2010 21:05:02 5.8 C 3.94 g/m*3 5.8 C 0 km/h
1467 26-02-2010 21:17:03 5.6 C 4.03 g/m*3 5.6 C 0 km/h
1468 26-02-2010 21:29:03 5.5 C 4 g/m*3 5.5 C 0 km/h
1469 26-02-2010 21:41:02 5.6 C 3.89 g/m*3 5.6 C 0 km/h
1470 26-02-2010 21:53:03 5.7 C 3.91 g/m*3 5.7 C 0 km/h
1471 26-02-2010 22:05:02 5.5 C 3.86 g/m*3 5.5 C 0 km/h
1472 26-02-2010 22:17:03 5.4 C 3.84 g/m*3 5.4 C 0 km/h
1473 26-02-2010 22:29:03 5.3 C 3.81 g/m*3 5.3 C 0 km/h
1474 26-02-2010 22:42:04 5.2 C 3.65 g/m*3 5.2 C 0 km/h
1475 26-02-2010 22:54:04 5.1 C 3.69 g/m*3 5.1 C 0 km/h
Sensor: Nr:Datum:Temp:Abs-Feuchte:Windchill:Wind:
Aussen-T/F 1476 26-02-2010 23:06:04 5.1 C 3.63 g/m*3 5.1 C 0 km/h
1477 26-02-2010 23:18:04 5.1 C 3.63 g/m*3 5.1 C 0 km/h
1478 26-02-2010 23:30:04 4.9 C 3.71 g/m*3 4.9 C 0 km/h
1479 26-02-2010 23:42:04 4.7 C 3.66 g/m*3 4.7 C 0 km/h
1480 26-02-2010 23:54:05 4.7 C 3.6 g/m*3 4.7 C 0 km/h
1481 27-02-2010 00:06:05 4.5 C 3.62 g/m*3 4.5 C 0 km/h
1482 27-02-2010 00:18:05 4.4 C 3.59 g/m*3 4.4 C 0 km/h
1483 27-02-2010 00:30:05 4.4 C 3.59 g/m*3 4.4 C 0 km/h
1484 27-02-2010 00:42:05 4.3 C 3.57 g/m*3 4.3 C 0 km/h
1485 27-02-2010 00:54:05 4.1 C 3.58 g/m*3 4.1 C 0 km/h
1486 27-02-2010 01:06:05 3.8 C 3.64 g/m*3 3.8 C 0 km/h
1487 27-02-2010 01:18:05 3.9 C 3.73 g/m*3 3.9 C 0 km/h
1488 27-02-2010 01:30:05 4 C 3.62 g/m*3 4 C 0 km/h
1489 27-02-2010 01:42:05 4.1 C 3.58 g/m*3 4.1 C 0 km/h
1490 27-02-2010 01:54:05 3.7 C 3.68 g/m*3 3.7 C 0 km/h
1491 27-02-2010 02:06:05 3.2 C 3.74 g/m*3 3.2 C 0 km/h
1492 27-02-2010 02:18:05 2.8 C 3.75 g/m*3 2.8 C 0 km/h
1493 27-02-2010 02:30:05 3.1 C 3.77 g/m*3 3.1 C 0 km/h
1494 27-02-2010 02:42:05 3.1 C 3.77 g/m*3 3.1 C 0 km/h
1495 27-02-2010 02:54:05 3.2 C 3.74 g/m*3 3.2 C 0 km/h
1496 27-02-2010 03:06:05 3.3 C 3.76 g/m*3 3.3 C 0 km/h
1497 27-02-2010 03:18:05 3.5 C 3.69 g/m*3 3.5 C 0 km/h
1498 27-02-2010 03:30:05 3.7 C 3.74 g/m*3 3.7 C 0 km/h
1499 27-02-2010 03:42:05 3.6 C 3.78 g/m*3 3.6 C 0 km/h
1500 27-02-2010 03:54:05 3.5 C 3.81 g/m*3 3.5 C 0 km/h
Sensor: Nr:Datum:Temp:Abs-Feuchte:Windchill:Wind:
Aussen-T/F 1501 27-02-2010 04:06:06 3.4 C 3.79 g/m*3 3.4 C 0 km/h
1502 27-02-2010 04:18:06 3.3 C 3.88 g/m*3 3.3 C 0 km/h
1503 27-02-2010 04:30:06 3.4 C 3.97 g/m*3 3.4 C 0 km/h
1504 27-02-2010 04:42:06 3.6 C 4.09 g/m*3 3.6 C 0 km/h
1505 27-02-2010 04:54:06 4.1 C 4.16 g/m*3 4.1 C 0 km/h
1506 27-02-2010 05:06:06 4 C 4.07 g/m*3 4 C 0 km/h
1507 27-02-2010 05:18:06 3.9 C 4.17 g/m*3 3.9 C 0 km/h
1508 27-02-2010 05:30:06 3.9 C 4.23 g/m*3 3.9 C 0 km/h
1509 27-02-2010 05:42:06 3.8 C 4.2 g/m*3 3.8 C 0 km/h
1510 27-02-2010 05:54:06 3.6 C 4.21 g/m*3 3.6 C 0 km/h
1511 27-02-2010 06:06:06 4 C 4.26 g/m*3 4 C 0 km/h
1512 27-02-2010 06:18:06 4.3 C 4.28 g/m*3 4.3 C 0 km/h
1513 27-02-2010 06:30:06 4.3 C 4.22 g/m*3 4.3 C 0 km/h
1514 27-02-2010 06:42:06 4.4 C 4.31 g/m*3 4.4 C 0 km/h
1515 27-02-2010 06:54:06 4.6 C 4.37 g/m*3 4.6 C 0 km/h
1516 27-02-2010 07:06:06 4.4 C 4.31 g/m*3 4.4 C 0 km/h
1517 27-02-2010 07:18:06 4.7 C 4.46 g/m*3 4.7 C 0 km/h
1518 27-02-2010 07:30:06 4.8 C 4.49 g/m*3 4.8 C 0 km/h
1519 27-02-2010 07:42:06 5.2 C 4.54 g/m*3 5.2 C 0 km/h
1520 27-02-2010 07:54:06 5.3 C 4.57 g/m*3 5.3 C 0 km/h
1521 27-02-2010 08:06:07 5.4 C 4.6 g/m*3 5.4 C 0 km/h
1522 27-02-2010 08:18:07 5.6 C 4.67 g/m*3 5.6 C 0 km/h
1523 27-02-2010 08:30:07 5.8 C 4.66 g/m*3 5.8 C 0 km/h
1524 27-02-2010 08:42:03 6.4 C 4.62 g/m*3 6.4 C 0 km/h
1525 27-02-2010 08:54:01 6.5 C 4.57 g/m*3 6.5 C 0 km/h
Sensor: Nr:Datum:Temp:Abs-Feuchte:Windchill:Wind:
Aussen-T/F 1526 27-02-2010 09:06:02 6.6 C 4.6 g/m*3 6.6 C 0 km/h
1527 27-02-2010 09:18:02 6.8 C 4.59 g/m*3 6.8 C 0 km/h
1528 27-02-2010 09:30:02 7 C 4.49 g/m*3 7 C 0 km/h
1529 27-02-2010 09:42:01 7.1 C 4.45 g/m*3 7.1 C 0 km/h
1530 27-02-2010 09:54:02 7.3 C 4.5 g/m*3 7.3 C 0 km/h
1531 27-02-2010 10:06:01 7.5 C 4.48 g/m*3 7.5 C 0 km/h
1532 27-02-2010 10:18:02 7.6 C 4.43 g/m*3 7.6 C 0 km/h
1533 27-02-2010 10:30:02 8.1 C 4.49 g/m*3 8.1 C 0 km/h
1534 27-02-2010 10:42:01 8.7 C 4.58 g/m*3 8.7 C 0 km/h
1535 27-02-2010 10:54:03 8.6 C 4.55 g/m*3 8.6 C 0 km/h
1536 27-02-2010 11:06:02 8.7 C 4.5 g/m*3 8.7 C 0 km/h
1537 27-02-2010 11:18:02 9.1 C 4.53 g/m*3 9.1 C 0 km/h
1538 27-02-2010 11:30:03 9.3 C 4.49 g/m*3 9.3 C 0 km/h
1539 27-02-2010 11:42:02 9.3 C 4.31 g/m*3 9.3 C 0 km/h
1540 27-02-2010 11:54:02 9.3 C 4.31 g/m*3 9.3 C 0 km/h
1541 27-02-2010 12:06:02 9.4 C 4.34 g/m*3 9.4 C 0 km/h
1542 27-02-2010 12:18:02 9.8 C 4.36 g/m*3 9.8 C 0 km/h
1543 27-02-2010 12:30:02 10.1 C 4.35 g/m*3 10.1 C 0 km/h
1544 27-02-2010 12:42:02 10.8 C 4.35 g/m*3 10.8 C 0 km/h
1545 27-02-2010 12:54:02 11.2 C 4.16 g/m*3 11.2 C 0 km/h
1546 27-02-2010 13:06:01 11.8 C 4.1 g/m*3 11.8 C 0 km/h
1547 27-02-2010 13:18:01 11.8 C 3.68 g/m*3 11.8 C 0 km/h
1548 27-02-2010 13:30:01 12.3 C 3.58 g/m*3 12.3 C 0 km/h
1549 27-02-2010 13:42:02 12.9 C 3.49 g/m*3 12.9 C 0 km/h
1550 27-02-2010 13:54:02 12.9 C 3.38 g/m*3 12.9 C 0 km/h
Sensor: Nr:Datum:Temp:Abs-Feuchte:Windchill:Wind:
Aussen-T/F 1551 27-02-2010 14:06:02 13.4 C 3.49 g/m*3 13.4 C 0 km/h
1552 27-02-2010 14:18:02 14.2 C 3.42 g/m*3 14.2 C 0 km/h
1553 27-02-2010 14:30:02 14.5 C 3.23 g/m*3 14.5 C 0 km/h
1554 27-02-2010 14:42:02 14.8 C 3.17 g/m*3 14.8 C 0 km/h
1555 27-02-2010 14:54:01 14.9 C 2.8 g/m*3 14.9 C 0 km/h
1556 27-02-2010 15:06:02 14.8 C 2.79 g/m*3 14.8 C 0 km/h
1557 27-02-2010 15:18:01 15.5 C 2.78 g/m*3 15.5 C 0 km/h
1558 27-02-2010 15:30:01 15.9 C 2.84 g/m*3 15.9 C 0 km/h
1559 27-02-2010 15:42:02 15.6 C 2.93 g/m*3 15.6 C 0 km/h
1560 27-02-2010 15:54:02 15.7 C 3.08 g/m*3 15.7 C 0 km/h
1561 27-02-2010 16:06:02 15.7 C 2.81 g/m*3 15.7 C 0 km/h
1562 27-02-2010 16:18:01 14.8 C 2.66 g/m*3 14.8 C 0 km/h
1563 27-02-2010 16:30:01 15 C 2.56 g/m*3 15 C 0 km/h
1564 27-02-2010 16:42:02 14.3 C 2.46 g/m*3 14.3 C 0 km/h
1565 27-02-2010 16:54:02 14.6 C 2.5 g/m*3 14.6 C 0 km/h
1566 27-02-2010 17:06:02 15.7 C 2.68 g/m*3 15.7 C 0 km/h
1567 27-02-2010 17:18:02 14.4 C 2.47 g/m*3 14.4 C 0 km/h
1568 27-02-2010 17:30:02 13.5 C 2.57 g/m*3 13.5 C 0 km/h
1569 27-02-2010 17:42:02 12.9 C 3.38 g/m*3 12.9 C 0 km/h
1570 27-02-2010 17:54:02 11.7 C 3.66 g/m*3 11.7 C 0 km/h
1571 27-02-2010 18:06:02 11 C 3.7 g/m*3 11 C 0 km/h
1572 27-02-2010 18:18:03 10.5 C 3.88 g/m*3 10.5 C 0 km/h
1573 27-02-2010 18:30:03 10.2 C 3.81 g/m*3 10.2 C 0 km/h
1574 27-02-2010 18:42:02 10 C 3.95 g/m*3 10 C 0 km/h
1575 27-02-2010 18:54:02 9.9 C 4.2 g/m*3 9.9 C 0 km/h
Sensor: Nr:Datum:Temp:Abs-Feuchte:Windchill:Wind:
Aussen-T/F 1576 27-02-2010 19:06:02 9.8 C 4.27 g/m*3 9.8 C 0 km/h
1577 27-02-2010 19:18:02 10 C 4.23 g/m*3 10 C 0 km/h
1578 27-02-2010 19:30:02 10 C 4.23 g/m*3 10 C 0 km/h
1579 27-02-2010 19:42:02 9.8 C 4.18 g/m*3 9.8 C 0 km/h
1580 27-02-2010 19:54:02 9.8 C 4.18 g/m*3 9.8 C 0 km/h
1581 27-02-2010 20:06:02 10 C 4.13 g/m*3 10 C 0 km/h
1582 27-02-2010 20:18:02 9.9 C 4.2 g/m*3 9.9 C 0 km/h
1583 27-02-2010 20:30:02 9.7 C 4.15 g/m*3 9.7 C 0 km/h
1584 27-02-2010 20:42:02 9.9 C 4.01 g/m*3 9.9 C 0 km/h
1585 27-02-2010 20:54:02 9.8 C 4.18 g/m*3 9.8 C 0 km/h
1586 27-02-2010 21:06:01 9.6 C 3.94 g/m*3 9.6 C 0 km/h
1587 27-02-2010 21:18:02 9.6 C 3.94 g/m*3 9.6 C 0 km/h
1588 27-02-2010 21:30:02 9.6 C 3.94 g/m*3 9.6 C 0 km/h
1589 27-02-2010 21:42:01 9.7 C 3.69 g/m*3 9.7 C 0 km/h
1590 27-02-2010 21:54:03 9.6 C 3.66 g/m*3 9.6 C 0 km/h
1591 27-02-2010 22:06:03 9.7 C 3.78 g/m*3 9.7 C 0 km/h
1592 27-02-2010 22:18:02 9.8 C 3.71 g/m*3 9.8 C 0 km/h
1593 27-02-2010 22:30:02 9.8 C 3.71 g/m*3 9.8 C 0 km/h
1594 27-02-2010 22:43:02 9.9 C 3.64 g/m*3 9.9 C 0 km/h
1595 27-02-2010 22:55:02 9.8 C 3.71 g/m*3 9.8 C 0 km/h
1596 27-02-2010 23:07:02 9.8 C 3.71 g/m*3 9.8 C 0 km/h
1597 27-02-2010 23:19:02 9.7 C 3.69 g/m*3 9.7 C 0 km/h
1598 27-02-2010 23:31:02 9.6 C 3.66 g/m*3 9.6 C 0 km/h
1599 27-02-2010 23:43:03 9.6 C 3.76 g/m*3 9.6 C 0 km/h
1600 27-02-2010 23:55:03 9.4 C 3.8 g/m*3 9.4 C 0 km/h
Sensor: Nr:Datum:Temp:Abs-Feuchte:Windchill:Wind:
Aussen-T/F 1601 28-02-2010 00:07:03 9.3 C 3.77 g/m*3 9.3 C 0 km/h
1602 28-02-2010 00:19:03 8.9 C 4.2 g/m*3 8.9 C 0 km/h
1603 28-02-2010 00:31:03 8.6 C 4.04 g/m*3 8.6 C 0 km/h
1604 28-02-2010 00:43:03 8.5 C 4.44 g/m*3 8.5 C 0 km/h
1605 28-02-2010 00:55:03 7.3 C 4.98 g/m*3 7.3 C 0 km/h
1606 28-02-2010 01:07:03 6.9 C 5.54 g/m*3 6.9 C 0 km/h
1607 28-02-2010 01:19:03 6.6 C 5.59 g/m*3 6.6 C 0 km/h
1608 28-02-2010 01:31:03 6.4 C 5.74 g/m*3 6.4 C 0 km/h
1609 28-02-2010 01:43:03 6.4 C 5.89 g/m*3 6.4 C 0 km/h
1610 28-02-2010 01:55:03 6.2 C 5.88 g/m*3 6.2 C 0 km/h
1611 28-02-2010 02:07:03 6.2 C 6.03 g/m*3 6.2 C 0 km/h
1612 28-02-2010 02:19:03 6.2 C 6.1 g/m*3 6.2 C 0 km/h
1613 28-02-2010 02:31:03 5.9 C 6.06 g/m*3 5.9 C 0 km/h
1614 28-02-2010 02:43:03 5.9 C 6.13 g/m*3 5.9 C 0 km/h
1615 28-02-2010 02:55:03 5.8 C 6.09 g/m*3 5.8 C 0 km/h
1616 28-02-2010 03:07:03 5.8 C 6.16 g/m*3 5.8 C 0 km/h
1617 28-02-2010 03:19:03 5.7 C 6.12 g/m*3 5.7 C 0 km/h
1618 28-02-2010 03:31:03 5.7 C 6.12 g/m*3 5.7 C 0 km/h
1619 28-02-2010 03:43:03 5.7 C 6.12 g/m*3 5.7 C 0 km/h
1620 28-02-2010 03:55:04 5.8 C 6.09 g/m*3 5.8 C 0 km/h
1621 28-02-2010 04:07:04 5.9 C 6.13 g/m*3 5.9 C 0 km/h
1622 28-02-2010 04:19:04 6 C 6.17 g/m*3 6 C 0 km/h
1623 28-02-2010 04:31:04 6.3 C 6.29 g/m*3 6.3 C 0 km/h
1624 28-02-2010 04:43:04 6.3 C 6.37 g/m*3 6.3 C 0 km/h
1625 28-02-2010 04:55:04 6.1 C 6.28 g/m*3 6.1 C 0 km/h
Sensor: Nr:Datum:Temp:Abs-Feuchte:Windchill:Wind:
Aussen-T/F 1626 28-02-2010 05:07:04 6.1 C 6.36 g/m*3 6.1 C 0 km/h
1627 28-02-2010 05:19:04 6.3 C 6.44 g/m*3 6.3 C 0 km/h
1628 28-02-2010 05:31:04 6.3 C 6.44 g/m*3 6.3 C 0 km/h
1629 28-02-2010 05:43:04 6.3 C 6.44 g/m*3 6.3 C 0 km/h
1630 28-02-2010 05:55:04 6.3 C 6.44 g/m*3 6.3 C 0 km/h
1631 28-02-2010 06:07:04 6.1 C 6.43 g/m*3 6.1 C 0 km/h
1632 28-02-2010 06:19:04 6.3 C 6.51 g/m*3 6.3 C 0 km/h
1633 28-02-2010 06:31:04 6.2 C 6.47 g/m*3 6.2 C 0 km/h
1634 28-02-2010 06:43:04 6.1 C 6.5 g/m*3 6.1 C 0 km/h
1635 28-02-2010 06:55:04 6.1 C 6.5 g/m*3 6.1 C 0 km/h
1636 28-02-2010 07:07:04 6.3 C 6.66 g/m*3 6.3 C 0 km/h
1637 28-02-2010 07:19:04 6.3 C 6.66 g/m*3 6.3 C 0 km/h
1638 28-02-2010 07:31:04 6.2 C 6.69 g/m*3 6.2 C 0 km/h
1639 28-02-2010 07:43:04 6.3 C 6.74 g/m*3 6.3 C 0 km/h
1640 28-02-2010 07:55:04 6.4 C 6.85 g/m*3 6.4 C 0 km/h
1641 28-02-2010 08:07:01 6.5 C 6.9 g/m*3 6.5 C 0 km/h
1642 28-02-2010 08:19:02 6.7 C 7.07 g/m*3 6.7 C 0 km/h
1643 28-02-2010 08:31:02 6.9 C 7.16 g/m*3 6.9 C 0 km/h
1644 28-02-2010 08:43:02 7 C 7.13 g/m*3 7 C 0 km/h
1645 28-02-2010 08:55:01 7.3 C 7.35 g/m*3 7.3 C 0 km/h
1646 28-02-2010 09:07:02 7.9 C 7.47 g/m*3 7.9 C 0 km/h
1647 28-02-2010 09:19:02 8.2 C 7.2 g/m*3 8.2 C 0 km/h
1648 28-02-2010 09:31:01 8.5 C 7.09 g/m*3 8.5 C 0 km/h
1649 28-02-2010 09:43:01 8.8 C 6.96 g/m*3 8.8 C 0 km/h
1650 28-02-2010 09:55:01 8.8 C 6.88 g/m*3 8.8 C 0 km/h
Sensor: Nr:Datum:Temp:Abs-Feuchte:Windchill:Wind:
Aussen-T/F 1651 28-02-2010 10:07:02 8.9 C 6.75 g/m*3 8.9 C 0 km/h
1652 28-02-2010 10:19:02 9.3 C 6.65 g/m*3 9.3 C 0 km/h
1653 28-02-2010 10:31:01 9.6 C 6.69 g/m*3 9.6 C 0 km/h
1654 28-02-2010 10:43:01 9.8 C 6.87 g/m*3 9.8 C 0 km/h
1655 28-02-2010 10:55:01 10.2 C 6.66 g/m*3 10.2 C 0 km/h
1656 28-02-2010 11:07:02 10.7 C 6.78 g/m*3 10.7 C 0 km/h
1657 28-02-2010 11:19:02 12.3 C 5.97 g/m*3 12.3 C 0 km/h
1658 28-02-2010 11:31:01 13.2 C 5.28 g/m*3 13.2 C 0 km/h
1659 28-02-2010 11:43:01 13 C 5.22 g/m*3 13 C 0 km/h
1660 28-02-2010 11:55:01 13 C 4.65 g/m*3 13 C 0 km/h
1661 28-02-2010 12:07:01 13 C 4.65 g/m*3 13 C 0 km/h
1662 28-02-2010 12:19:02 12.7 C 4.56 g/m*3 12.7 C 0 km/h
1663 28-02-2010 12:31:01 13 C 4.31 g/m*3 13 C 0 km/h
1664 28-02-2010 12:43:01 12.6 C 4.54 g/m*3 12.6 C 0 km/h
1665 28-02-2010 12:55:02 12.5 C 4.29 g/m*3 12.5 C 0 km/h
1666 28-02-2010 13:07:01 12.5 C 4.18 g/m*3 12.5 C 0 km/h
1667 28-02-2010 13:19:02 12.2 C 4.1 g/m*3 12.2 C 0 km/h
1668 28-02-2010 13:31:01 11.9 C 3.92 g/m*3 11.9 C 0 km/h
1669 28-02-2010 13:43:01 11.8 C 3.89 g/m*3 11.8 C 0 km/h
1670 28-02-2010 13:55:02 11.8 C 3.79 g/m*3 11.8 C 0 km/h
1671 28-02-2010 14:07:42 11.6 C 3.64 g/m*3 11.6 C 0 km/h
1672 28-02-2010 14:19:02 11.4 C 3.59 g/m*3 11.4 C 0 km/h
1673 28-02-2010 14:31:02 11.1 C 3.63 g/m*3 11.1 C 0 km/h
1674 28-02-2010 14:43:02 10.7 C 3.83 g/m*3 10.7 C 0 km/h
1675 28-02-2010 14:55:02 10.5 C 3.88 g/m*3 10.5 C 0 km/h
Sensor: Nr:Datum:Temp:Abs-Feuchte:Windchill:Wind:
Aussen-T/F 1676 28-02-2010 15:07:01 10.6 C 3.9 g/m*3 10.6 C 0 km/h
1677 28-02-2010 15:19:02 10.5 C 3.88 g/m*3 10.5 C 0 km/h
1678 28-02-2010 15:31:01 9.7 C 4.52 g/m*3 9.7 C 0 km/h
1679 28-02-2010 15:43:01 10 C 4.51 g/m*3 10 C 0 km/h
1680 28-02-2010 15:55:03 10 C 4.32 g/m*3 10 C 0 km/h
1681 28-02-2010 16:07:02 10 C 4.42 g/m*3 10 C 0 km/h
1682 28-02-2010 16:19:02 9.8 C 4.45 g/m*3 9.8 C 0 km/h
1683 28-02-2010 16:31:02 9.6 C 4.49 g/m*3 9.6 C 0 km/h
1684 28-02-2010 16:43:02 9.5 C 4.64 g/m*3 9.5 C 0 km/h
1685 28-02-2010 16:55:02 9.2 C 4.64 g/m*3 9.2 C 0 km/h
1686 28-02-2010 17:07:02 9.2 C 4.64 g/m*3 9.2 C 0 km/h
1687 28-02-2010 17:19:02 9.2 C 4.64 g/m*3 9.2 C 0 km/h
1688 28-02-2010 17:31:02 9.1 C 4.53 g/m*3 9.1 C 0 km/h
1689 28-02-2010 17:43:02 8.9 C 4.56 g/m*3 8.9 C 0 km/h
1690 28-02-2010 17:55:02 8.7 C 4.76 g/m*3 8.7 C 0 km/h
1691 28-02-2010 18:07:01 8.2 C 5.02 g/m*3 8.2 C 0 km/h
1692 28-02-2010 18:19:02 8.1 C 4.99 g/m*3 8.1 C 0 km/h
1693 28-02-2010 18:31:01 8.2 C 5.02 g/m*3 8.2 C 0 km/h
1694 28-02-2010 18:43:01 8.2 C 4.94 g/m*3 8.2 C 0 km/h
1695 28-02-2010 18:55:03 8 C 5.13 g/m*3 8 C 0 km/h
1696 28-02-2010 19:07:02 7.9 C 5.09 g/m*3 7.9 C 0 km/h
1697 28-02-2010 19:19:03 8 C 4.88 g/m*3 8 C 0 km/h
1698 28-02-2010 19:31:03 8.1 C 4.74 g/m*3 8.1 C 0 km/h
1699 28-02-2010 19:43:03 8 C 4.71 g/m*3 8 C 0 km/h
1700 28-02-2010 19:55:02 8.1 C 4.74 g/m*3 8.1 C 0 km/h
Sensor: Nr:Datum:Temp:Abs-Feuchte:Windchill:Wind:
Aussen-T/F 1701 28-02-2010 20:07:03 8 C 4.71 g/m*3 8 C 0 km/h
1702 28-02-2010 20:19:02 7.8 C 4.9 g/m*3 7.8 C 0 km/h
1703 28-02-2010 20:31:01 7.8 C 4.98 g/m*3 7.8 C 0 km/h
1704 28-02-2010 20:43:01 7.7 C 4.95 g/m*3 7.7 C 0 km/h
1705 28-02-2010 20:55:01 7.8 C 4.73 g/m*3 7.8 C 0 km/h
1706 28-02-2010 21:07:02 7.8 C 4.57 g/m*3 7.8 C 0 km/h
1707 28-02-2010 21:19:02 7.6 C 4.51 g/m*3 7.6 C 0 km/h
1708 28-02-2010 21:31:02 7.5 C 4.56 g/m*3 7.5 C 0 km/h
1709 28-02-2010 21:43:02 7.6 C 4.51 g/m*3 7.6 C 0 km/h
1710 28-02-2010 21:55:02 7.7 C 4.54 g/m*3 7.7 C 0 km/h
1711 28-02-2010 22:08:03 7.6 C 4.51 g/m*3 7.6 C 0 km/h
1712 28-02-2010 22:20:03 7.5 C 4.48 g/m*3 7.5 C 0 km/h
1713 28-02-2010 22:32:03 7.4 C 4.53 g/m*3 7.4 C 0 km/h
1714 28-02-2010 22:44:03 7.1 C 4.68 g/m*3 7.1 C 0 km/h
1715 28-02-2010 22:56:03 7 C 4.65 g/m*3 7 C 0 km/h
1716 28-02-2010 23:08:03 7 C 4.8 g/m*3 7 C 0 km/h
1717 28-02-2010 23:20:03 7 C 4.8 g/m*3 7 C 0 km/h
1718 28-02-2010 23:32:03 6.9 C 4.93 g/m*3 6.9 C 0 km/h
1719 28-02-2010 23:44:03 6.7 C 4.94 g/m*3 6.7 C 0 km/h
1720 28-02-2010 23:56:03 6.6 C 4.98 g/m*3 6.6 C 0 km/h
1721 01-03-2010 00:08:03 6.3 C 4.89 g/m*3 6.3 C 0 km/h
1722 01-03-2010 00:20:04 6.1 C 4.89 g/m*3 6.1 C 0 km/h
1723 01-03-2010 00:32:04 6.2 C 4.85 g/m*3 6.2 C 0 km/h
1724 01-03-2010 00:44:04 6.1 C 4.75 g/m*3 6.1 C 0 km/h
1725 01-03-2010 00:56:04 6.1 C 4.6 g/m*3 6.1 C 0 km/h
Sensor: Nr:Datum:Temp:Abs-Feuchte:Windchill:Wind:
Aussen-T/F 1726 01-03-2010 01:08:04 5.9 C 4.76 g/m*3 5.9 C 0 km/h
1727 01-03-2010 01:20:04 5.7 C 4.7 g/m*3 5.7 C 0 km/h
1728 01-03-2010 01:32:04 5.8 C 4.37 g/m*3 5.8 C 0 km/h
1729 01-03-2010 01:44:04 5.7 C 4.34 g/m*3 5.7 C 0 km/h
1730 01-03-2010 01:56:04 5.8 C 4.23 g/m*3 5.8 C 0 km/h
1731 01-03-2010 02:08:04 5.8 C 4.23 g/m*3 5.8 C 0 km/h
1732 01-03-2010 02:20:04 5.7 C 3.99 g/m*3 5.7 C 0 km/h
1733 01-03-2010 02:32:04 5.6 C 3.96 g/m*3 5.6 C 0 km/h
1734 01-03-2010 02:44:05 5.5 C 3.93 g/m*3 5.5 C 0 km/h
1735 01-03-2010 02:56:05 5.4 C 4.05 g/m*3 5.4 C 0 km/h
1736 01-03-2010 03:08:05 5.3 C 4.09 g/m*3 5.3 C 0 km/h
1737 01-03-2010 03:20:05 5 C 4.14 g/m*3 5 C 0 km/h
1738 01-03-2010 03:32:05 5 C 4.14 g/m*3 5 C 0 km/h
1739 01-03-2010 03:44:05 4.9 C 4.12 g/m*3 4.9 C 0 km/h
1740 01-03-2010 03:56:05 4.8 C 4.09 g/m*3 4.8 C 0 km/h
1741 01-03-2010 04:08:05 4.7 C 4.13 g/m*3 4.7 C 0 km/h
1742 01-03-2010 04:20:05 4.6 C 4.17 g/m*3 4.6 C 0 km/h
1743 01-03-2010 04:32:05 4.6 C 4.23 g/m*3 4.6 C 0 km/h
1744 01-03-2010 04:44:05 4.7 C 4.33 g/m*3 4.7 C 0 km/h
1745 01-03-2010 04:56:05 4.8 C 4.36 g/m*3 4.8 C 0 km/h
1746 01-03-2010 05:08:05 4.4 C 4.7 g/m*3 4.4 C 0 km/h
1747 01-03-2010 05:20:05 4.1 C 4.99 g/m*3 4.1 C 0 km/h
1748 01-03-2010 05:32:05 3.8 C 5.08 g/m*3 3.8 C 0 km/h
1749 01-03-2010 05:44:05 3.5 C 5.04 g/m*3 3.5 C 0 km/h
1750 01-03-2010 05:56:05 3.5 C 5.04 g/m*3 3.5 C 0 km/h
Sensor: Nr:Datum:Temp:Abs-Feuchte:Windchill:Wind:
Aussen-T/F 1751 01-03-2010 06:08:05 3.4 C 5.01 g/m*3 3.4 C 0 km/h
1752 01-03-2010 06:20:05 3.4 C 5.01 g/m*3 3.4 C 0 km/h
1753 01-03-2010 06:32:05 3.6 C 4.89 g/m*3 3.6 C 0 km/h
1754 01-03-2010 06:44:05 3.8 C 4.77 g/m*3 3.8 C 0 km/h
1755 01-03-2010 06:56:05 4 C 4.64 g/m*3 4 C 0 km/h
1756 01-03-2010 07:08:05 4.1 C 4.48 g/m*3 4.1 C 0 km/h
1757 01-03-2010 07:20:03 4.2 C 4.38 g/m*3 4.2 C 0 km/h
1758 01-03-2010 07:32:03 4.2 C 4.12 g/m*3 4.2 C 0 km/h
1759 01-03-2010 07:44:03 4.4 C 3.92 g/m*3 4.4 C 0 km/h
1760 01-03-2010 07:56:02 4.6 C 3.77 g/m*3 4.6 C 0 km/h
1761 01-03-2010 08:08:02 4.6 C 3.71 g/m*3 4.6 C 0 km/h
1762 01-03-2010 08:20:02 4.8 C 3.69 g/m*3 4.8 C 0 km/h
1763 01-03-2010 08:32:02 4.9 C 3.71 g/m*3 4.9 C 0 km/h
1764 01-03-2010 08:44:02 5 C 3.67 g/m*3 5 C 0 km/h
1765 01-03-2010 08:56:01 5.1 C 3.69 g/m*3 5.1 C 0 km/h
1766 01-03-2010 09:08:02 5.2 C 3.86 g/m*3 5.2 C 0 km/h
1767 01-03-2010 09:20:01 5.3 C 4.02 g/m*3 5.3 C 0 km/h
1768 01-03-2010 09:32:02 5.4 C 3.91 g/m*3 5.4 C 0 km/h
1769 01-03-2010 09:44:02 5.6 C 3.96 g/m*3 5.6 C 0 km/h
1770 01-03-2010 09:56:01 5.8 C 4.01 g/m*3 5.8 C 0 km/h
1771 01-03-2010 10:08:02 6 C 3.7 g/m*3 6 C 0 km/h
1772 01-03-2010 10:20:01 6.2 C 3.6 g/m*3 6.2 C 0 km/h
1773 01-03-2010 10:32:02 6.4 C 3.65 g/m*3 6.4 C 0 km/h
1774 01-03-2010 10:44:02 6.3 C 3.48 g/m*3 6.3 C 0 km/h
1775 01-03-2010 10:56:01 6.4 C 3.5 g/m*3 6.4 C 0 km/h
Sensor: Nr:Datum:Temp:Abs-Feuchte:Windchill:Wind:
Aussen-T/F 1776 01-03-2010 11:08:02 6.7 C 3.5 g/m*3 6.7 C 0 km/h
1777 01-03-2010 11:20:02 6.6 C 3.47 g/m*3 6.6 C 0 km/h
1778 01-03-2010 11:32:02 6.3 C 3.41 g/m*3 6.3 C 0 km/h
1779 01-03-2010 11:44:02 6.6 C 3.47 g/m*3 6.6 C 0 km/h
1780 01-03-2010 11:56:01 7 C 3.33 g/m*3 7 C 0 km/h
1781 01-03-2010 12:08:02 7 C 3.33 g/m*3 7 C 0 km/h
1782 01-03-2010 12:20:02 7.2 C 3.3 g/m*3 7.2 C 0 km/h
1783 01-03-2010 12:32:01 7.5 C 3.2 g/m*3 7.5 C 0 km/h
1784 01-03-2010 12:44:01 7.9 C 3.2 g/m*3 7.9 C 0 km/h
1785 01-03-2010 12:56:02 7.8 C 3.18 g/m*3 7.8 C 0 km/h
1786 01-03-2010 13:08:01 7.7 C 3.16 g/m*3 7.7 C 0 km/h
1787 01-03-2010 13:20:02 8 C 3.14 g/m*3 8 C 0 km/h
1788 01-03-2010 13:32:01 8 C 3.06 g/m*3 8 C 0 km/h
1789 01-03-2010 13:44:01 7.8 C 3.02 g/m*3 7.8 C 0 km/h
1790 01-03-2010 13:56:01 7.7 C 3 g/m*3 7.7 C 0 km/h
1791 01-03-2010 14:08:01 7.3 C 3.16 g/m*3 7.3 C 0 km/h
1792 01-03-2010 14:20:01 7.1 C 3.2 g/m*3 7.1 C 0 km/h
1793 01-03-2010 14:32:02 7.6 C 3.22 g/m*3 7.6 C 0 km/h
1794 01-03-2010 14:44:02 7.5 C 3.2 g/m*3 7.5 C 0 km/h
1795 01-03-2010 14:56:02 7.4 C 3.18 g/m*3 7.4 C 0 km/h
1796 01-03-2010 15:08:02 7.3 C 3.24 g/m*3 7.3 C 0 km/h
1797 01-03-2010 15:20:02 7.6 C 3.3 g/m*3 7.6 C 0 km/h
1798 01-03-2010 15:32:02 7.5 C 3.28 g/m*3 7.5 C 0 km/h
1799 01-03-2010 15:44:02 7.4 C 3.1 g/m*3 7.4 C 0 km/h
1800 01-03-2010 15:56:02 7.3 C 3 g/m*3 7.3 C 0 km/h
Sensor: Nr:Datum:Temp:Abs-Feuchte:Windchill:Wind:
Aussen-T/F 1801 01-03-2010 16:08:01 7.3 C 3.08 g/m*3 7.3 C 0 km/h
1802 01-03-2010 16:20:02 7.3 C 3.08 g/m*3 7.3 C 0 km/h
1803 01-03-2010 16:32:02 7.3 C 3.08 g/m*3 7.3 C 0 km/h
1804 01-03-2010 16:44:02 7.3 C 3.08 g/m*3 7.3 C 0 km/h
1805 01-03-2010 16:56:02 7.2 C 3.06 g/m*3 7.2 C 0 km/h
1806 01-03-2010 17:08:03 7.1 C 3.12 g/m*3 7.1 C 0 km/h
1807 01-03-2010 17:20:02 6.9 C 3.08 g/m*3 6.9 C 0 km/h
1808 01-03-2010 17:32:02 6.8 C 3.06 g/m*3 6.8 C 0 km/h
1809 01-03-2010 17:44:02 6.8 C 3.14 g/m*3 6.8 C 0 km/h
1810 01-03-2010 17:56:01 6.7 C 3.12 g/m*3 6.7 C 0 km/h
1811 01-03-2010 18:08:02 6.5 C 3.22 g/m*3 6.5 C 0 km/h
1812 01-03-2010 18:20:01 6.4 C 3.5 g/m*3 6.4 C 0 km/h
1813 01-03-2010 18:32:01 6 C 3.56 g/m*3 6 C 0 km/h
1814 01-03-2010 18:44:01 5.8 C 3.72 g/m*3 5.8 C 0 km/h
1815 01-03-2010 18:56:01 5.7 C 3.77 g/m*3 5.7 C 0 km/h
1816 01-03-2010 19:08:02 5.6 C 3.68 g/m*3 5.6 C 0 km/h
1817 01-03-2010 19:20:01 5.6 C 3.53 g/m*3 5.6 C 0 km/h
1818 01-03-2010 19:32:02 5.4 C 3.56 g/m*3 5.4 C 0 km/h
1819 01-03-2010 19:44:02 5.3 C 3.53 g/m*3 5.3 C 0 km/h
1820 01-03-2010 19:56:02 5.1 C 3.42 g/m*3 5.1 C 0 km/h
1821 01-03-2010 20:08:03 5 C 3.4 g/m*3 5 C 0 km/h
1822 01-03-2010 20:20:02 5.1 C 3.42 g/m*3 5.1 C 0 km/h
1823 01-03-2010 20:32:02 4.6 C 3.44 g/m*3 4.6 C 0 km/h
1824 01-03-2010 20:44:02 4.4 C 3.46 g/m*3 4.4 C 0 km/h
1825 01-03-2010 20:56:02 4.4 C 3.4 g/m*3 4.4 C 0 km/h
Sensor: Nr:Datum:Temp:Abs-Feuchte:Windchill:Wind:
Aussen-T/F 1826 01-03-2010 21:08:02 3.8 C 3.51 g/m*3 3.8 C 0 km/h
1827 01-03-2010 21:20:02 3.4 C 3.54 g/m*3 3.4 C 0 km/h
1828 01-03-2010 21:32:01 3.4 C 3.6 g/m*3 3.4 C 0 km/h
1829 01-03-2010 21:44:01 3.3 C 3.64 g/m*3 3.3 C 0 km/h
1830 01-03-2010 21:56:02 3.1 C 3.71 g/m*3 3.1 C 0 km/h
1831 01-03-2010 22:08:02 2.8 C 3.64 g/m*3 2.8 C 0 km/h
1832 01-03-2010 22:21:03 2.6 C 3.82 g/m*3 2.6 C 0 km/h
1833 01-03-2010 22:33:03 2.4 C 3.83 g/m*3 2.4 C 0 km/h
1834 01-03-2010 22:45:03 2.1 C 3.86 g/m*3 2.1 C 0 km/h
1835 01-03-2010 22:57:03 2 C 3.89 g/m*3 2 C 0 km/h
1836 01-03-2010 23:09:03 1.8 C 3.95 g/m*3 1.8 C 0 km/h
1837 01-03-2010 23:21:03 1.5 C 3.92 g/m*3 1.5 C 0 km/h
1838 01-03-2010 23:33:03 1.2 C 3.89 g/m*3 1.2 C 0 km/h
1839 01-03-2010 23:45:03 1.1 C 3.92 g/m*3 1.1 C 0 km/h
1840 01-03-2010 23:57:03 1.1 C 3.97 g/m*3 1.1 C 0 km/h
1841 02-03-2010 00:09:03 0.9 C 3.97 g/m*3 0.9 C 0 km/h
1842 02-03-2010 00:21:03 0.7 C 3.97 g/m*3 0.7 C 0 km/h
1843 02-03-2010 00:33:03 0.5 C 3.96 g/m*3 0.5 C 0 km/h
1844 02-03-2010 00:45:03 0.2 C 3.88 g/m*3 0.2 C 0 km/h
1845 02-03-2010 00:57:03 0.2 C 3.88 g/m*3 0.2 C 0 km/h
1846 02-03-2010 01:09:03 0.1 C 3.9 g/m*3 0.1 C 0 km/h
1847 02-03-2010 01:21:03 0.2 C 3.98 g/m*3 0.2 C 0 km/h
1848 02-03-2010 01:33:03 0.3 C 4.01 g/m*3 0.3 C 0 km/h
1849 02-03-2010 01:45:03 0 C 3.92 g/m*3 0 C 0 km/h
1850 02-03-2010 01:57:03 0 C 3.97 g/m*3 0 C 0 km/h
Sensor: Nr:Datum:Temp:Abs-Feuchte:Windchill:Wind:
Aussen-T/F 1851 02-03-2010 02:09:03 0 C 3.97 g/m*3 0 C 0 km/h
1852 02-03-2010 02:21:04 -0.2 C 3.92 g/m*3 -0.2 C 0 km/h
1853 02-03-2010 02:33:04 -0.2 C 3.97 g/m*3 -0.2 C 0 km/h
1854 02-03-2010 02:45:04 -0.4 C 3.91 g/m*3 -0.4 C 0 km/h
1855 02-03-2010 02:57:04 -0.6 C 3.86 g/m*3 -0.6 C 0 km/h
1856 02-03-2010 03:09:04 -0.7 C 3.83 g/m*3 -0.7 C 0 km/h
1857 02-03-2010 03:21:04 -0.6 C 3.86 g/m*3 -0.6 C 0 km/h
1858 02-03-2010 03:33:04 -0.7 C 3.83 g/m*3 -0.7 C 0 km/h
1859 02-03-2010 03:45:04 -0.9 C 3.82 g/m*3 -0.9 C 0 km/h
1860 02-03-2010 03:57:04 -1 C 3.8 g/m*3 -1 C 0 km/h
1861 02-03-2010 04:09:04 -1.3 C 3.72 g/m*3 -1.3 C 0 km/h
1862 02-03-2010 04:21:04 -1.3 C 3.72 g/m*3 -1.3 C 0 km/h
1863 02-03-2010 04:33:04 -1.4 C 3.69 g/m*3 -1.4 C 0 km/h
1864 02-03-2010 04:45:04 -1.2 C 3.79 g/m*3 -1.2 C 0 km/h
1865 02-03-2010 04:57:04 -1.2 C 3.79 g/m*3 -1.2 C 0 km/h
1866 02-03-2010 05:09:04 -1.1 C 3.86 g/m*3 -1.1 C 0 km/h
1867 02-03-2010 05:21:04 -1.1 C 3.86 g/m*3 -1.1 C 0 km/h
1868 02-03-2010 05:33:04 -1.1 C 3.86 g/m*3 -1.1 C 0 km/h
1869 02-03-2010 05:45:04 -1.1 C 3.86 g/m*3 -1.1 C 0 km/h
1870 02-03-2010 05:57:04 -1.4 C 3.74 g/m*3 -1.4 C 0 km/h
1871 02-03-2010 06:09:04 -1.6 C 3.68 g/m*3 -1.6 C 0 km/h
1872 02-03-2010 06:21:04 -1.7 C 3.66 g/m*3 -1.7 C 0 km/h
1873 02-03-2010 06:33:05 -1.8 C 3.63 g/m*3 -1.8 C 0 km/h
1874 02-03-2010 06:45:05 -1.9 C 3.65 g/m*3 -1.9 C 0 km/h
1875 02-03-2010 06:57:05 -1.9 C 3.65 g/m*3 -1.9 C 0 km/h
Sensor: Nr:Datum:Temp:Abs-Feuchte:Windchill:Wind:
Aussen-T/F 1876 02-03-2010 07:09:02 -2 C 3.63 g/m*3 -2 C 0 km/h
1877 02-03-2010 07:21:03 -1.8 C 3.72 g/m*3 -1.8 C 0 km/h
1878 02-03-2010 07:33:02 -1.8 C 3.72 g/m*3 -1.8 C 0 km/h
1879 02-03-2010 07:45:02 -1.6 C 3.77 g/m*3 -1.6 C 0 km/h
1880 02-03-2010 07:57:02 -1.2 C 3.92 g/m*3 -1.2 C 0 km/h
1881 02-03-2010 08:09:02 -0.9 C 4.01 g/m*3 -0.9 C 0 km/h
1882 02-03-2010 08:21:02 -0.7 C 4.06 g/m*3 -0.7 C 0 km/h
1883 02-03-2010 08:33:03 -0.7 C 4.06 g/m*3 -0.7 C 0 km/h
1884 02-03-2010 08:45:02 -0.6 C 4.09 g/m*3 -0.6 C 0 km/h
1885 02-03-2010 08:57:03 -0.6 C 4.09 g/m*3 -0.6 C 0 km/h
1886 02-03-2010 09:09:01 -0.5 C 4.07 g/m*3 -0.5 C 0 km/h
1887 02-03-2010 09:21:02 0 C 4.26 g/m*3 0 C 0 km/h
1888 02-03-2010 09:33:02 0.1 C 4.24 g/m*3 0.1 C 0 km/h
1889 02-03-2010 09:45:02 -0.1 C 4.14 g/m*3 -0.1 C 0 km/h
1890 02-03-2010 09:57:02 -0.1 C 4.14 g/m*3 -0.1 C 0 km/h
1891 02-03-2010 10:09:03 0.3 C 4.25 g/m*3 0.3 C 0 km/h
1892 02-03-2010 10:21:02 0.7 C 4.32 g/m*3 0.7 C 0 km/h
1893 02-03-2010 10:33:02 1.2 C 4.42 g/m*3 1.2 C 0 km/h
1894 02-03-2010 10:45:01 1.6 C 4.49 g/m*3 1.6 C 0 km/h
1895 02-03-2010 10:57:01 2.1 C 4.48 g/m*3 2.1 C 0 km/h
1896 02-03-2010 11:09:02 2.6 C 4.57 g/m*3 2.6 C 0 km/h
1897 02-03-2010 11:21:01 3.1 C 4.61 g/m*3 3.1 C 0 km/h
1898 02-03-2010 11:33:02 4 C 4.7 g/m*3 4 C 0 km/h
1899 02-03-2010 11:45:02 4 C 4.51 g/m*3 4 C 0 km/h
1900 02-03-2010 11:57:02 4.2 C 4.25 g/m*3 4.2 C 0 km/h
Sensor: Nr:Datum:Temp:Abs-Feuchte:Windchill:Wind:
Aussen-T/F 1901 02-03-2010 12:09:02 5.1 C 3.63 g/m*3 5.1 C 0 km/h
1902 02-03-2010 12:21:01 6.1 C 3.29 g/m*3 6.1 C 0 km/h
1903 02-03-2010 12:33:02 6.3 C 3.26 g/m*3 6.3 C 0 km/h
1904 02-03-2010 12:45:02 7 C 3.02 g/m*3 7 C 0 km/h
1905 02-03-2010 12:57:02 7.4 C 2.86 g/m*3 7.4 C 0 km/h
1906 02-03-2010 13:09:02 8.1 C 2.91 g/m*3 8.1 C 0 km/h
1907 02-03-2010 13:21:01 9.1 C 2.75 g/m*3 9.1 C 0 km/h
1908 02-03-2010 13:33:02 8.5 C 2.65 g/m*3 8.5 C 0 km/h
1909 02-03-2010 13:45:01 9.5 C 2.73 g/m*3 9.5 C 0 km/h
1910 02-03-2010 13:57:01 10.3 C 2.49 g/m*3 10.3 C 0 km/h
1911 02-03-2010 14:09:02 10.2 C 2.38 g/m*3 10.2 C 0 km/h
1912 02-03-2010 14:21:02 10.1 C 2.65 g/m*3 10.1 C 0 km/h
1913 02-03-2010 14:33:02 9.5 C 2.28 g/m*3 9.5 C 0 km/h
1914 02-03-2010 14:45:02 9.5 C 2.46 g/m*3 9.5 C 0 km/h
1915 02-03-2010 14:57:02 9 C 2.29 g/m*3 9 C 0 km/h
1916 02-03-2010 15:09:02 8.7 C 2.42 g/m*3 8.7 C 0 km/h
1917 02-03-2010 15:21:02 9.5 C 2.55 g/m*3 9.5 C 0 km/h
1918 02-03-2010 15:33:01 10.3 C 2.49 g/m*3 10.3 C 0 km/h
1919 02-03-2010 15:45:02 11 C 2.4 g/m*3 11 C 0 km/h
1920 02-03-2010 15:57:02 10.7 C 1.96 g/m*3 10.7 C 0 km/h
1921 02-03-2010 16:09:01 9.7 C 1.84 g/m*3 9.7 C 0 km/h
1922 02-03-2010 16:21:02 9.5 C 1.82 g/m*3 9.5 C 0 km/h
1923 02-03-2010 16:33:01 8.7 C 2.51 g/m*3 8.7 C 0 km/h
1924 02-03-2010 16:45:02 8.4 C 2.63 g/m*3 8.4 C 0 km/h
1925 02-03-2010 16:57:03 8.7 C 2.77 g/m*3 8.7 C 0 km/h
Sensor: Nr:Datum:Temp:Abs-Feuchte:Windchill:Wind:
Aussen-T/F 1926 02-03-2010 17:09:02 8.7 C 2.77 g/m*3 8.7 C 0 km/h
1927 02-03-2010 17:21:02 9 C 2.73 g/m*3 9 C 0 km/h
1928 02-03-2010 17:33:02 8.4 C 2.71 g/m*3 8.4 C 0 km/h
1929 02-03-2010 17:45:02 8.2 C 2.93 g/m*3 8.2 C 0 km/h
1930 02-03-2010 17:57:03 7.9 C 2.96 g/m*3 7.9 C 0 km/h
1931 02-03-2010 18:09:01 7.5 C 3.04 g/m*3 7.5 C 0 km/h
1932 02-03-2010 18:21:02 7 C 3.1 g/m*3 7 C 0 km/h
1933 02-03-2010 18:33:02 6.5 C 3.3 g/m*3 6.5 C 0 km/h
1934 02-03-2010 18:45:02 6.2 C 3.38 g/m*3 6.2 C 0 km/h
1935 02-03-2010 18:57:02 5.9 C 3.53 g/m*3 5.9 C 0 km/h
1936 02-03-2010 19:09:01 5.9 C 3.53 g/m*3 5.9 C 0 km/h
1937 02-03-2010 19:21:02 5.9 C 3.39 g/m*3 5.9 C 0 km/h
1938 02-03-2010 19:33:02 5.8 C 3.3 g/m*3 5.8 C 0 km/h
1939 02-03-2010 19:45:01 5.8 C 3.3 g/m*3 5.8 C 0 km/h
1940 02-03-2010 19:57:01 5.8 C 3.3 g/m*3 5.8 C 0 km/h
1941 02-03-2010 20:09:02 6 C 3.19 g/m*3 6 C 0 km/h
1942 02-03-2010 20:21:01 5.8 C 3.22 g/m*3 5.8 C 0 km/h
1943 02-03-2010 20:33:01 5.5 C 3.3 g/m*3 5.5 C 0 km/h
1944 02-03-2010 20:45:01 5 C 3.47 g/m*3 5 C 0 km/h
1945 02-03-2010 20:57:02 4.4 C 3.66 g/m*3 4.4 C 0 km/h
1946 02-03-2010 21:09:01 4.3 C 3.83 g/m*3 4.3 C 0 km/h
1947 02-03-2010 21:21:02 3.8 C 4.02 g/m*3 3.8 C 0 km/h
1948 02-03-2010 21:33:02 3.2 C 4.34 g/m*3 3.2 C 0 km/h
1949 02-03-2010 21:45:02 2.9 C 4.43 g/m*3 2.9 C 0 km/h
1950 02-03-2010 21:57:02 2.7 C 4.43 g/m*3 2.7 C 0 km/h
Sensor: Nr:Datum:Temp:Abs-Feuchte:Windchill:Wind:
Aussen-T/F 1951 02-03-2010 22:10:02 2.5 C 4.37 g/m*3 2.5 C 0 km/h
1952 02-03-2010 22:22:02 2.5 C 4.43 g/m*3 2.5 C 0 km/h
1953 02-03-2010 22:34:02 2.4 C 4.34 g/m*3 2.4 C 0 km/h
1954 02-03-2010 22:46:02 2.2 C 4.34 g/m*3 2.2 C 0 km/h
1955 02-03-2010 22:58:02 2 C 4.28 g/m*3 2 C 0 km/h
1956 02-03-2010 23:10:02 1.8 C 4.28 g/m*3 1.8 C 0 km/h
1957 02-03-2010 23:22:02 1.7 C 4.3 g/m*3 1.7 C 0 km/h
1958 02-03-2010 23:34:02 1.5 C 4.24 g/m*3 1.5 C 0 km/h
1959 02-03-2010 23:46:02 1.3 C 4.19 g/m*3 1.3 C 0 km/h
1960 02-03-2010 23:58:02 1.3 C 4.13 g/m*3 1.3 C 0 km/h
1961 03-03-2010 00:10:03 1.1 C 4.08 g/m*3 1.1 C 0 km/h
1962 03-03-2010 00:22:03 1.2 C 4.05 g/m*3 1.2 C 0 km/h
1963 03-03-2010 00:34:03 1.1 C 3.92 g/m*3 1.1 C 0 km/h
1964 03-03-2010 00:46:03 0.9 C 3.87 g/m*3 0.9 C 0 km/h
1965 03-03-2010 00:58:03 0.9 C 3.81 g/m*3 0.9 C 0 km/h
1966 03-03-2010 01:10:03 0.8 C 3.79 g/m*3 0.8 C 0 km/h
1967 03-03-2010 01:22:03 0.5 C 3.71 g/m*3 0.5 C 0 km/h
1968 03-03-2010 01:34:03 0.3 C 3.66 g/m*3 0.3 C 0 km/h
1969 03-03-2010 01:46:03 0.1 C 3.66 g/m*3 0.1 C 0 km/h
1970 03-03-2010 01:58:03 -0.1 C 3.66 g/m*3 -0.1 C 0 km/h
1971 03-03-2010 02:10:03 0 C 3.78 g/m*3 0 C 0 km/h
1972 03-03-2010 02:22:03 -0.1 C 3.8 g/m*3 -0.1 C 0 km/h
1973 03-03-2010 02:34:03 -0.4 C 3.72 g/m*3 -0.4 C 0 km/h
1974 03-03-2010 02:46:03 -0.5 C 3.74 g/m*3 -0.5 C 0 km/h
1975 03-03-2010 02:58:03 -0.6 C 3.76 g/m*3 -0.6 C 0 km/h
Sensor: Nr:Datum:Temp:Abs-Feuchte:Windchill:Wind:
Aussen-T/F 1976 03-03-2010 03:10:03 -0.7 C 3.74 g/m*3 -0.7 C 0 km/h
1977 03-03-2010 03:22:03 -0.9 C 3.69 g/m*3 -0.9 C 0 km/h
1978 03-03-2010 03:34:03 -0.9 C 3.73 g/m*3 -0.9 C 0 km/h
1979 03-03-2010 03:46:03 -1 C 3.71 g/m*3 -1 C 0 km/h
1980 03-03-2010 03:58:04 -1.1 C 3.68 g/m*3 -1.1 C 0 km/h
1981 03-03-2010 04:10:04 -1.2 C 3.7 g/m*3 -1.2 C 0 km/h
1982 03-03-2010 04:22:04 -1.3 C 3.67 g/m*3 -1.3 C 0 km/h
1983 03-03-2010 04:34:04 -1.5 C 3.62 g/m*3 -1.5 C 0 km/h
1984 03-03-2010 04:46:04 -1.4 C 3.69 g/m*3 -1.4 C 0 km/h
1985 03-03-2010 04:58:04 -1.6 C 3.64 g/m*3 -1.6 C 0 km/h
1986 03-03-2010 05:10:04 -1.7 C 3.62 g/m*3 -1.7 C 0 km/h
1987 03-03-2010 05:22:04 -2 C 3.54 g/m*3 -2 C 0 km/h
1988 03-03-2010 05:34:04 -2 C 3.54 g/m*3 -2 C 0 km/h
1989 03-03-2010 05:46:04 -2.1 C 3.52 g/m*3 -2.1 C 0 km/h
1990 03-03-2010 05:58:04 -2.1 C 3.56 g/m*3 -2.1 C 0 km/h
1991 03-03-2010 06:10:04 -2.2 C 3.53 g/m*3 -2.2 C 0 km/h
1992 03-03-2010 06:22:04 -1.8 C 3.68 g/m*3 -1.8 C 0 km/h
1993 03-03-2010 06:34:04 -1.4 C 3.82 g/m*3 -1.4 C 0 km/h
1994 03-03-2010 06:46:04 -1.1 C 3.91 g/m*3 -1.1 C 0 km/h
1995 03-03-2010 06:58:04 -1.1 C 3.91 g/m*3 -1.1 C 0 km/h
1996 03-03-2010 07:10:02 -1.1 C 3.86 g/m*3 -1.1 C 0 km/h
1997 03-03-2010 07:22:02 -1.1 C 3.86 g/m*3 -1.1 C 0 km/h
1998 03-03-2010 07:34:02 -1.1 C 3.82 g/m*3 -1.1 C 0 km/h
1999 03-03-2010 07:46:02 -1.3 C 3.72 g/m*3 -1.3 C 0 km/h
2000 03-03-2010 07:58:02 -1.5 C 3.67 g/m*3 -1.5 C 0 km/h
Sensor: Nr:Datum:Temp:Abs-Feuchte:Windchill:Wind:
Aussen-T/F 2001 03-03-2010 08:10:02 -1.4 C 3.69 g/m*3 -1.4 C 0 km/h
2002 03-03-2010 08:22:02 -1.3 C 3.72 g/m*3 -1.3 C 0 km/h
2003 03-03-2010 08:34:02 -1.2 C 3.79 g/m*3 -1.2 C 0 km/h
2004 03-03-2010 08:46:02 -0.7 C 3.92 g/m*3 -0.7 C 0 km/h
2005 03-03-2010 08:58:02 0.1 C 4.2 g/m*3 0.1 C 0 km/h
2006 03-03-2010 09:10:01 0.6 C 4.29 g/m*3 0.6 C 0 km/h
2007 03-03-2010 09:22:02 0.8 C 4.15 g/m*3 0.8 C 0 km/h
2008 03-03-2010 09:34:02 1 C 3.84 g/m*3 1 C 0 km/h
2009 03-03-2010 09:46:02 1.2 C 3.68 g/m*3 1.2 C 0 km/h
2010 03-03-2010 09:58:02 1.5 C 3.54 g/m*3 1.5 C 0 km/h
2011 03-03-2010 10:10:03 1.4 C 3.41 g/m*3 1.4 C 0 km/h
2012 03-03-2010 10:22:02 1.1 C 3.4 g/m*3 1.1 C 0 km/h
2013 03-03-2010 10:34:02 1.2 C 3.47 g/m*3 1.2 C 0 km/h
2014 03-03-2010 10:46:01 1.3 C 3.5 g/m*3 1.3 C 0 km/h
2015 03-03-2010 10:58:01 1.7 C 3.54 g/m*3 1.7 C 0 km/h
2016 03-03-2010 11:10:02 2.2 C 3.49 g/m*3 2.2 C 0 km/h
2017 03-03-2010 11:22:01 2.5 C 3.45 g/m*3 2.5 C 0 km/h
2018 03-03-2010 11:34:01 2.8 C 3.46 g/m*3 2.8 C 0 km/h
2019 03-03-2010 11:46:01 3.1 C 3.35 g/m*3 3.1 C 0 km/h
2020 03-03-2010 11:58:01 3.7 C 3.24 g/m*3 3.7 C 0 km/h
2021 03-03-2010 12:10:02 4.3 C 3.24 g/m*3 4.3 C 0 km/h
2022 03-03-2010 12:22:01 4.8 C 3.22 g/m*3 4.8 C 0 km/h
2023 03-03-2010 12:34:02 5.1 C 3.15 g/m*3 5.1 C 0 km/h
2024 03-03-2010 12:46:01 5.8 C 3.15 g/m*3 5.8 C 0 km/h
2025 03-03-2010 12:58:01 6.5 C 3 g/m*3 6.5 C 0 km/h
Sensor: Nr:Datum:Temp:Abs-Feuchte:Windchill:Wind:
Aussen-T/F 2026 03-03-2010 13:10:02 7 C 2.94 g/m*3 7 C 0 km/h
2027 03-03-2010 13:22:01 7.8 C 2.86 g/m*3 7.8 C 0 km/h
2028 03-03-2010 13:34:02 8.5 C 2.48 g/m*3 8.5 C 0 km/h
2029 03-03-2010 13:46:01 8.9 C 2.19 g/m*3 8.9 C 0 km/h
2030 03-03-2010 13:58:01 9.1 C 1.77 g/m*3 9.1 C 0 km/h
2031 03-03-2010 14:10:02 9.4 C 1.81 g/m*3 9.4 C 0 km/h
2032 03-03-2010 14:22:02 9.8 C 1.86 g/m*3 9.8 C 0 km/h
2033 03-03-2010 14:34:01 10.3 C 1.92 g/m*3 10.3 C 0 km/h
2034 03-03-2010 14:46:02 10.5 C 1.94 g/m*3 10.5 C 0 km/h
2035 03-03-2010 14:58:02 10.2 C 1.9 g/m*3 10.2 C 0 km/h
2036 03-03-2010 15:10:01 10.7 C 1.96 g/m*3 10.7 C 0 km/h
2037 03-03-2010 15:22:02 11 C 2 g/m*3 11 C 0 km/h
2038 03-03-2010 15:34:01 11 C 2 g/m*3 11 C 0 km/h
2039 03-03-2010 15:46:03 10.5 C 1.94 g/m*3 10.5 C 0 km/h
2040 03-03-2010 15:58:03 11 C 2 g/m*3 11 C 0 km/h
2041 03-03-2010 16:10:02 11.2 C 2.03 g/m*3 11.2 C 0 km/h
2042 03-03-2010 16:22:02 11.5 C 2.07 g/m*3 11.5 C 0 km/h
2043 03-03-2010 16:34:02 11.1 C 2.01 g/m*3 11.1 C 0 km/h
2044 03-03-2010 16:46:02 10.3 C 1.92 g/m*3 10.3 C 0 km/h
2045 03-03-2010 16:58:02 10.3 C 1.92 g/m*3 10.3 C 0 km/h
2046 03-03-2010 17:10:01 9.3 C 1.8 g/m*3 9.3 C 0 km/h
2047 03-03-2010 17:22:02 8.5 C 1.71 g/m*3 8.5 C 0 km/h
2048 03-03-2010 17:34:02 7.8 C 1.63 g/m*3 7.8 C 0 km/h
2049 03-03-2010 17:46:02 7.2 C 1.96 g/m*3 7.2 C 0 km/h
2050 03-03-2010 17:58:03 6.6 C 1.89 g/m*3 6.6 C 0 km/h
Sensor: Nr:Datum:Temp:Abs-Feuchte:Windchill:Wind:
Aussen-T/F 2051 03-03-2010 18:10:02 6.2 C 2.21 g/m*3 6.2 C 0 km/h
2052 03-03-2010 18:22:02 5.7 C 2.13 g/m*3 5.7 C 0 km/h
2053 03-03-2010 18:34:03 5.4 C 2.02 g/m*3 5.4 C 0 km/h
2054 03-03-2010 18:46:02 5.1 C 2.05 g/m*3 5.1 C 0 km/h
2055 03-03-2010 18:58:02 4.8 C 2.15 g/m*3 4.8 C 0 km/h
2056 03-03-2010 19:10:02 4.6 C 2.12 g/m*3 4.6 C 0 km/h
2057 03-03-2010 19:22:02 4.4 C 2.15 g/m*3 4.4 C 0 km/h
2058 03-03-2010 19:34:02 4.2 C 2.19 g/m*3 4.2 C 0 km/h
2059 03-03-2010 19:46:02 4.1 C 2.24 g/m*3 4.1 C 0 km/h
2060 03-03-2010 19:58:02 3.9 C 2.46 g/m*3 3.9 C 0 km/h
2061 03-03-2010 20:10:02 3.7 C 2.49 g/m*3 3.7 C 0 km/h
2062 03-03-2010 20:22:02 3.7 C 2.49 g/m*3 3.7 C 0 km/h
2063 03-03-2010 20:34:02 3.6 C 2.54 g/m*3 3.6 C 0 km/h
2064 03-03-2010 20:46:01 3.4 C 2.57 g/m*3 3.4 C 0 km/h
2065 03-03-2010 20:58:01 3.3 C 2.55 g/m*3 3.3 C 0 km/h
2066 03-03-2010 21:10:02 3.2 C 2.59 g/m*3 3.2 C 0 km/h
2067 03-03-2010 21:22:01 3 C 2.62 g/m*3 3 C 0 km/h
2068 03-03-2010 21:34:02 3 C 2.68 g/m*3 3 C 0 km/h
2069 03-03-2010 21:46:02 2.9 C 2.72 g/m*3 2.9 C 0 km/h
2070 03-03-2010 21:58:02 2.8 C 2.76 g/m*3 2.8 C 0 km/h
2071 03-03-2010 22:11:02 2.7 C 2.8 g/m*3 2.7 C 0 km/h
2072 03-03-2010 22:23:02 2.6 C 2.84 g/m*3 2.6 C 0 km/h
2073 03-03-2010 22:35:02 2.5 C 2.82 g/m*3 2.5 C 0 km/h
2074 03-03-2010 22:47:03 2.4 C 2.8 g/m*3 2.4 C 0 km/h
2075 03-03-2010 22:59:03 2.2 C 2.82 g/m*3 2.2 C 0 km/h
Sensor: Nr:Datum:Temp:Abs-Feuchte:Windchill:Wind:
Aussen-T/F 2076 03-03-2010 23:11:03 1.9 C 2.87 g/m*3 1.9 C 0 km/h
2077 03-03-2010 23:23:03 1.7 C 2.89 g/m*3 1.7 C 0 km/h
2078 03-03-2010 23:35:03 1.6 C 2.92 g/m*3 1.6 C 0 km/h
2079 03-03-2010 23:47:03 1.5 C 2.95 g/m*3 1.5 C 0 km/h
2080 03-03-2010 23:59:03 1.4 C 2.93 g/m*3 1.4 C 0 km/h
2081 04-03-2010 00:11:03 1.3 C 2.97 g/m*3 1.3 C 0 km/h
2082 04-03-2010 00:23:03 1.2 C 2.89 g/m*3 1.2 C 0 km/h
2083 04-03-2010 00:35:03 1.2 C 2.89 g/m*3 1.2 C 0 km/h
2084 04-03-2010 00:47:03 1.2 C 2.89 g/m*3 1.2 C 0 km/h
2085 04-03-2010 00:59:03 1.3 C 2.91 g/m*3 1.3 C 0 km/h
2086 04-03-2010 01:11:03 1.3 C 2.91 g/m*3 1.3 C 0 km/h
2087 04-03-2010 01:23:03 1.2 C 2.89 g/m*3 1.2 C 0 km/h
2088 04-03-2010 01:35:03 1.1 C 2.87 g/m*3 1.1 C 0 km/h
2089 04-03-2010 01:47:03 1.2 C 2.89 g/m*3 1.2 C 0 km/h
2090 04-03-2010 01:59:03 1 C 2.85 g/m*3 1 C 0 km/h
2091 04-03-2010 02:11:03 0.8 C 2.92 g/m*3 0.8 C 0 km/h
2092 04-03-2010 02:23:03 0.5 C 2.96 g/m*3 0.5 C 0 km/h
2093 04-03-2010 02:35:03 0.2 C 2.95 g/m*3 0.2 C 0 km/h
2094 04-03-2010 02:47:03 0.1 C 2.98 g/m*3 0.1 C 0 km/h
2095 04-03-2010 02:59:04 0 C 2.96 g/m*3 0 C 0 km/h
2096 04-03-2010 03:11:04 -0.2 C 2.96 g/m*3 -0.2 C 0 km/h
2097 04-03-2010 03:23:04 -0.4 C 2.87 g/m*3 -0.4 C 0 km/h
2098 04-03-2010 03:35:04 -0.6 C 2.88 g/m*3 -0.6 C 0 km/h
2099 04-03-2010 03:47:04 -0.7 C 2.86 g/m*3 -0.7 C 0 km/h
2100 04-03-2010 03:59:04 -0.8 C 2.89 g/m*3 -0.8 C 0 km/h
Sensor: Nr:Datum:Temp:Abs-Feuchte:Windchill:Wind:
Aussen-T/F 2101 04-03-2010 04:11:04 -0.9 C 2.87 g/m*3 -0.9 C 0 km/h
2102 04-03-2010 04:23:04 -0.7 C 2.95 g/m*3 -0.7 C 0 km/h
2103 04-03-2010 04:35:04 -0.7 C 2.91 g/m*3 -0.7 C 0 km/h
2104 04-03-2010 04:47:04 -0.7 C 2.95 g/m*3 -0.7 C 0 km/h
2105 04-03-2010 04:59:04 -0.8 C 2.89 g/m*3 -0.8 C 0 km/h
2106 04-03-2010 05:11:04 -0.7 C 2.95 g/m*3 -0.7 C 0 km/h
2107 04-03-2010 05:23:04 -0.8 C 2.93 g/m*3 -0.8 C 0 km/h
2108 04-03-2010 05:35:04 -0.9 C 2.96 g/m*3 -0.9 C 0 km/h
2109 04-03-2010 05:47:04 -0.7 C 3 g/m*3 -0.7 C 0 km/h
2110 04-03-2010 05:59:04 -1 C 2.94 g/m*3 -1 C 0 km/h
2111 04-03-2010 06:11:04 -1 C 2.98 g/m*3 -1 C 0 km/h
2112 04-03-2010 06:23:04 -1.1 C 2.96 g/m*3 -1.1 C 0 km/h
2113 04-03-2010 06:35:04 -1.3 C 2.92 g/m*3 -1.3 C 0 km/h
2114 04-03-2010 06:47:04 -1.4 C 2.95 g/m*3 -1.4 C 0 km/h
2115 04-03-2010 06:59:04 -1.4 C 2.99 g/m*3 -1.4 C 0 km/h
2116 04-03-2010 07:11:01 -1.4 C 3.03 g/m*3 -1.4 C 0 km/h
2117 04-03-2010 07:23:02 -1.3 C 3.05 g/m*3 -1.3 C 0 km/h
2118 04-03-2010 07:35:02 -1.3 C 3.01 g/m*3 -1.3 C 0 km/h
2119 04-03-2010 07:47:01 -1.2 C 3.08 g/m*3 -1.2 C 0 km/h
2120 04-03-2010 07:59:01 -1.1 C 3.1 g/m*3 -1.1 C 0 km/h
2121 04-03-2010 08:11:02 -1.1 C 3.1 g/m*3 -1.1 C 0 km/h
2122 04-03-2010 08:23:01 -1 C 3.12 g/m*3 -1 C 0 km/h
2123 04-03-2010 08:35:01 -1.1 C 3.1 g/m*3 -1.1 C 0 km/h
2124 04-03-2010 08:47:02 -1.1 C 3.1 g/m*3 -1.1 C 0 km/h
2125 04-03-2010 08:59:02 -1 C 3.16 g/m*3 -1 C 0 km/h
Sensor: Nr:Datum:Temp:Abs-Feuchte:Windchill:Wind:
Aussen-T/F 2126 04-03-2010 09:11:02 -0.5 C 3.23 g/m*3 -0.5 C 0 km/h
2127 04-03-2010 09:23:02 0 C 3.29 g/m*3 0 C 0 km/h
2128 04-03-2010 09:35:01 0.2 C 3.24 g/m*3 0.2 C 0 km/h
2129 04-03-2010 09:47:02 0.5 C 3.26 g/m*3 0.5 C 0 km/h
2130 04-03-2010 09:59:02 1.3 C 3.34 g/m*3 1.3 C 0 km/h
2131 04-03-2010 10:11:01 2 C 3.28 g/m*3 2 C 0 km/h
2132 04-03-2010 10:23:02 3 C 3.21 g/m*3 3 C 0 km/h
2133 04-03-2010 10:35:02 3.6 C 2.85 g/m*3 3.6 C 0 km/h
2134 04-03-2010 10:47:02 3.4 C 2.63 g/m*3 3.4 C 0 km/h
2135 04-03-2010 10:59:03 3.9 C 2.59 g/m*3 3.9 C 0 km/h
2136 04-03-2010 11:11:01 3.8 C 2.45 g/m*3 3.8 C 0 km/h
2137 04-03-2010 11:23:02 4.1 C 2.24 g/m*3 4.1 C 0 km/h
2138 04-03-2010 11:35:02 4.4 C 2.35 g/m*3 4.4 C 0 km/h
2139 04-03-2010 11:47:01 4.6 C 2.32 g/m*3 4.6 C 0 km/h
2140 04-03-2010 11:59:01 4.3 C 2.08 g/m*3 4.3 C 0 km/h
2141 04-03-2010 12:11:02 4.2 C 2.19 g/m*3 4.2 C 0 km/h
2142 04-03-2010 12:23:01 4.5 C 2.3 g/m*3 4.5 C 0 km/h
2143 04-03-2010 12:35:01 4.8 C 2.28 g/m*3 4.8 C 0 km/h
2144 04-03-2010 12:47:02 4.8 C 2.08 g/m*3 4.8 C 0 km/h
2145 04-03-2010 12:59:02 5.8 C 2.08 g/m*3 5.8 C 0 km/h
2146 04-03-2010 13:11:02 6.3 C 1.92 g/m*3 6.3 C 0 km/h
2147 04-03-2010 13:23:01 6.8 C 1.53 g/m*3 6.8 C 0 km/h
2148 04-03-2010 13:35:02 7.1 C 1.56 g/m*3 7.1 C 0 km/h
2149 04-03-2010 13:47:02 6.9 C 1.54 g/m*3 6.9 C 0 km/h
2150 04-03-2010 13:59:02 7.1 C 1.56 g/m*3 7.1 C 0 km/h
Sensor: Nr:Datum:Temp:Abs-Feuchte:Windchill:Wind:
Aussen-T/F 2151 04-03-2010 14:11:02 7.9 C 1.64 g/m*3 7.9 C 0 km/h
2152 04-03-2010 14:23:01 8.2 C 1.67 g/m*3 8.2 C 0 km/h
2153 04-03-2010 14:35:02 9 C 1.76 g/m*3 9 C 0 km/h
2154 04-03-2010 14:47:02 8.9 C 1.75 g/m*3 8.9 C 0 km/h
2155 04-03-2010 14:59:02 9.2 C 1.79 g/m*3 9.2 C 0 km/h
2156 04-03-2010 15:11:02 9.2 C 1.79 g/m*3 9.2 C 0 km/h
2157 04-03-2010 15:23:01 9.3 C 1.8 g/m*3 9.3 C 0 km/h
2158 04-03-2010 15:35:02 8.2 C 1.67 g/m*3 8.2 C 0 km/h
2159 04-03-2010 15:47:02 8.9 C 1.75 g/m*3 8.9 C 0 km/h
2160 04-03-2010 15:59:02 9.2 C 1.79 g/m*3 9.2 C 0 km/h
2161 04-03-2010 16:11:02 9.4 C 1.81 g/m*3 9.4 C 0 km/h
2162 04-03-2010 16:23:01 9.3 C 1.8 g/m*3 9.3 C 0 km/h
2163 04-03-2010 16:35:02 9.1 C 1.77 g/m*3 9.1 C 0 km/h
2164 04-03-2010 16:47:01 9 C 1.76 g/m*3 9 C 0 km/h
2165 04-03-2010 16:59:01 8.5 C 1.71 g/m*3 8.5 C 0 km/h
2166 04-03-2010 17:11:02 8.3 C 1.69 g/m*3 8.3 C 0 km/h
2167 04-03-2010 17:23:02 7.7 C 1.62 g/m*3 7.7 C 0 km/h
2168 04-03-2010 17:35:01 7.3 C 1.58 g/m*3 7.3 C 0 km/h
2169 04-03-2010 17:47:02 6.9 C 1.54 g/m*3 6.9 C 0 km/h
2170 04-03-2010 17:59:02 5.7 C 1.42 g/m*3 5.7 C 0 km/h
2171 04-03-2010 18:11:01 4.9 C 1.42 g/m*3 4.9 C 0 km/h
2172 04-03-2010 18:23:02 4.3 C 1.62 g/m*3 4.3 C 0 km/h
2173 04-03-2010 18:35:01 4 C 1.78 g/m*3 4 C 0 km/h
2174 04-03-2010 18:47:02 3.5 C 1.91 g/m*3 3.5 C 0 km/h
2175 04-03-2010 18:59:02 3.2 C 1.93 g/m*3 3.2 C 0 km/h
Sensor: Nr:Datum:Temp:Abs-Feuchte:Windchill:Wind:
Aussen-T/F 2176 04-03-2010 19:11:02 3 C 2.08 g/m*3 3 C 0 km/h
2177 04-03-2010 19:23:02 2.6 C 2.14 g/m*3 2.6 C 0 km/h
2178 04-03-2010 19:35:02 2.2 C 2.25 g/m*3 2.2 C 0 km/h
2179 04-03-2010 19:47:01 1.9 C 2.32 g/m*3 1.9 C 0 km/h
2180 04-03-2010 19:59:01 1.6 C 2.33 g/m*3 1.6 C 0 km/h
2181 04-03-2010 20:11:02 1.5 C 2.36 g/m*3 1.5 C 0 km/h
2182 04-03-2010 20:23:02 1.4 C 2.35 g/m*3 1.4 C 0 km/h
2183 04-03-2010 20:35:01 1.3 C 2.38 g/m*3 1.3 C 0 km/h
2184 04-03-2010 20:47:02 1.1 C 2.35 g/m*3 1.1 C 0 km/h
2185 04-03-2010 20:59:02 1.1 C 2.51 g/m*3 1.1 C 0 km/h
2186 04-03-2010 21:11:02 1.1 C 2.51 g/m*3 1.1 C 0 km/h
2187 04-03-2010 21:23:01 1.1 C 2.51 g/m*3 1.1 C 0 km/h
2188 04-03-2010 21:35:02 0.8 C 2.56 g/m*3 0.8 C 0 km/h
2189 04-03-2010 21:47:02 0.6 C 2.58 g/m*3 0.6 C 0 km/h
2190 04-03-2010 21:59:02 0.7 C 2.59 g/m*3 0.7 C 0 km/h
2191 04-03-2010 22:11:02 0.9 C 2.68 g/m*3 0.9 C 0 km/h
2192 04-03-2010 22:24:03 0.7 C 2.64 g/m*3 0.7 C 0 km/h
2193 04-03-2010 22:36:03 0.3 C 2.57 g/m*3 0.3 C 0 km/h
2194 04-03-2010 22:48:03 0.1 C 2.63 g/m*3 0.1 C 0 km/h
2195 04-03-2010 23:00:03 0 C 2.62 g/m*3 0 C 0 km/h
2196 04-03-2010 23:12:03 -0.1 C 2.6 g/m*3 -0.1 C 0 km/h
2197 04-03-2010 23:24:03 -0.2 C 2.53 g/m*3 -0.2 C 0 km/h
2198 04-03-2010 23:36:03 -0.2 C 2.53 g/m*3 -0.2 C 0 km/h
2199 04-03-2010 23:48:03 -0.3 C 2.56 g/m*3 -0.3 C 0 km/h
2200 05-03-2010 00:00:03 -0.4 C 2.5 g/m*3 -0.4 C 0 km/h
Sensor: Nr:Datum:Temp:Abs-Feuchte:Windchill:Wind:
Aussen-T/F 2201 05-03-2010 00:12:03 -0.5 C 2.53 g/m*3 -0.5 C 0 km/h
2202 05-03-2010 00:24:03 -0.7 C 2.49 g/m*3 -0.7 C 0 km/h
2203 05-03-2010 00:36:03 -1 C 2.49 g/m*3 -1 C 0 km/h
2204 05-03-2010 00:48:03 -1.1 C 2.47 g/m*3 -1.1 C 0 km/h
2205 05-03-2010 01:00:03 -1.3 C 2.43 g/m*3 -1.3 C 0 km/h
2206 05-03-2010 01:12:03 -1.4 C 2.46 g/m*3 -1.4 C 0 km/h
2207 05-03-2010 01:24:03 -1.6 C 2.43 g/m*3 -1.6 C 0 km/h
2208 05-03-2010 01:36:04 -1.5 C 2.44 g/m*3 -1.5 C 0 km/h
2209 05-03-2010 01:48:04 -1.5 C 2.4 g/m*3 -1.5 C 0 km/h
2210 05-03-2010 02:00:04 -1.6 C 2.38 g/m*3 -1.6 C 0 km/h
2211 05-03-2010 02:12:04 -1.4 C 2.37 g/m*3 -1.4 C 0 km/h
2212 05-03-2010 02:24:04 -1.3 C 2.26 g/m*3 -1.3 C 0 km/h
2213 05-03-2010 02:36:04 -1.5 C 2.18 g/m*3 -1.5 C 0 km/h
2214 05-03-2010 02:48:04 -1.7 C 2.15 g/m*3 -1.7 C 0 km/h
2215 05-03-2010 03:00:04 -1.7 C 2.11 g/m*3 -1.7 C 0 km/h
2216 05-03-2010 03:12:04 -1.9 C 2.04 g/m*3 -1.9 C 0 km/h
2217 05-03-2010 03:24:04 -2 C 2.11 g/m*3 -2 C 0 km/h
2218 05-03-2010 03:36:04 -1.9 C 2.16 g/m*3 -1.9 C 0 km/h
2219 05-03-2010 03:48:04 -1.9 C 2.16 g/m*3 -1.9 C 0 km/h
2220 05-03-2010 04:00:04 -1.9 C 2.21 g/m*3 -1.9 C 0 km/h
2221 05-03-2010 04:12:04 -2.1 C 2.18 g/m*3 -2.1 C 0 km/h
2222 05-03-2010 04:24:04 -2.3 C 2.19 g/m*3 -2.3 C 0 km/h
2223 05-03-2010 04:36:04 -2.4 C 2.21 g/m*3 -2.4 C 0 km/h
2224 05-03-2010 04:48:04 -2.4 C 2.25 g/m*3 -2.4 C 0 km/h
2225 05-03-2010 05:00:04 -2.5 C 2.28 g/m*3 -2.5 C 0 km/h
Sensor: Nr:Datum:Temp:Abs-Feuchte:Windchill:Wind:
Aussen-T/F 2226 05-03-2010 05:12:04 -2.6 C 2.3 g/m*3 -2.6 C 0 km/h
2227 05-03-2010 05:24:04 -2.6 C 2.38 g/m*3 -2.6 C 0 km/h
2228 05-03-2010 05:36:04 -2.8 C 2.43 g/m*3 -2.8 C 0 km/h
2229 05-03-2010 05:48:05 -2.3 C 2.64 g/m*3 -2.3 C 0 km/h
2230 05-03-2010 06:00:05 -1.9 C 2.67 g/m*3 -1.9 C 0 km/h
2231 05-03-2010 06:12:05 -2 C 2.7 g/m*3 -2 C 0 km/h
2232 05-03-2010 06:24:05 -2.4 C 2.62 g/m*3 -2.4 C 0 km/h
2233 05-03-2010 06:36:05 -2.6 C 2.63 g/m*3 -2.6 C 0 km/h
2234 05-03-2010 06:48:05 -2.8 C 2.63 g/m*3 -2.8 C 0 km/h
2235 05-03-2010 07:00:05 -2.9 C 2.65 g/m*3 -2.9 C 0 km/h
2236 05-03-2010 07:12:02 -2.9 C 2.69 g/m*3 -2.9 C 0 km/h
2237 05-03-2010 07:24:03 -2.8 C 2.71 g/m*3 -2.8 C 0 km/h
2238 05-03-2010 07:36:02 -2.7 C 2.77 g/m*3 -2.7 C 0 km/h
2239 05-03-2010 07:48:02 -2.9 C 2.69 g/m*3 -2.9 C 0 km/h
2240 05-03-2010 08:00:02 -2.9 C 2.73 g/m*3 -2.9 C 0 km/h
2241 05-03-2010 08:12:02 -2.8 C 2.75 g/m*3 -2.8 C 0 km/h
2242 05-03-2010 08:24:03 -2.8 C 2.75 g/m*3 -2.8 C 0 km/h
2243 05-03-2010 08:36:02 -2.6 C 2.83 g/m*3 -2.6 C 0 km/h
2244 05-03-2010 08:48:01 -2.6 C 2.79 g/m*3 -2.6 C 0 km/h
2245 05-03-2010 09:00:01 -2.5 C 2.77 g/m*3 -2.5 C 0 km/h
2246 05-03-2010 09:12:02 -2.3 C 2.72 g/m*3 -2.3 C 0 km/h
2247 05-03-2010 09:24:01 -2 C 2.66 g/m*3 -2 C 0 km/h
2248 05-03-2010 09:36:02 -1.8 C 2.48 g/m*3 -1.8 C 0 km/h
2249 05-03-2010 09:48:02 -1.4 C 2.46 g/m*3 -1.4 C 0 km/h
2250 05-03-2010 10:00:02 -1 C 2.49 g/m*3 -1 C 0 km/h
Sensor: Nr:Datum:Temp:Abs-Feuchte:Windchill:Wind:
Aussen-T/F 2251 05-03-2010 10:12:02 -0.5 C 2.53 g/m*3 -0.5 C 0 km/h
2252 05-03-2010 10:24:02 0.4 C 2.54 g/m*3 0.4 C 0 km/h
2253 05-03-2010 10:36:02 0.9 C 2.06 g/m*3 0.9 C 0 km/h
2254 05-03-2010 10:48:02 1.4 C 1.92 g/m*3 1.4 C 0 km/h
2255 05-03-2010 11:00:02 1.8 C 1.97 g/m*3 1.8 C 0 km/h
2256 05-03-2010 11:12:02 2.1 C 2.01 g/m*3 2.1 C 0 km/h
2257 05-03-2010 11:24:02 2.1 C 1.96 g/m*3 2.1 C 0 km/h
2258 05-03-2010 11:36:02 2.2 C 1.52 g/m*3 2.2 C 0 km/h
2259 05-03-2010 11:48:01 2.5 C 1.21 g/m*3 2.5 C 0 km/h
2260 05-03-2010 12:00:01 3.5 C 1.54 g/m*3 3.5 C 0 km/h
2261 05-03-2010 12:12:02 2.5 C 1.21 g/m*3 2.5 C 0 km/h
2262 05-03-2010 12:24:01 2.7 C 1.34 g/m*3 2.7 C 0 km/h
2263 05-03-2010 12:36:01 3 C 1.19 g/m*3 3 C 0 km/h
2264 05-03-2010 12:48:01 3.6 C 1.24 g/m*3 3.6 C 0 km/h
2265 05-03-2010 13:00:01 3.5 C 1.23 g/m*3 3.5 C 0 km/h
2266 05-03-2010 13:12:02 3.3 C 1.21 g/m*3 3.3 C 0 km/h
2267 05-03-2010 13:24:01 3.5 C 1.23 g/m*3 3.5 C 0 km/h
2268 05-03-2010 13:36:01 3.2 C 1.21 g/m*3 3.2 C 0 km/h
2269 05-03-2010 13:48:01 3.2 C 1.51 g/m*3 3.2 C 0 km/h
2270 05-03-2010 14:00:01 3.1 C 1.26 g/m*3 3.1 C 0 km/h
2271 05-03-2010 14:12:02 3.6 C 1.3 g/m*3 3.6 C 0 km/h
2272 05-03-2010 14:24:02 4 C 1.27 g/m*3 4 C 0 km/h
2273 05-03-2010 14:36:01 3.7 C 1.25 g/m*3 3.7 C 0 km/h
2274 05-03-2010 14:48:01 4 C 1.34 g/m*3 4 C 0 km/h
2275 05-03-2010 15:00:01 4.5 C 1.38 g/m*3 4.5 C 0 km/h
Sensor: Nr:Datum:Temp:Abs-Feuchte:Windchill:Wind:
Aussen-T/F 2276 05-03-2010 15:12:02 5.2 C 1.58 g/m*3 5.2 C 0 km/h
2277 05-03-2010 15:24:02 4.8 C 1.41 g/m*3 4.8 C 0 km/h
2278 05-03-2010 15:36:01 5.5 C 1.47 g/m*3 5.5 C 0 km/h
2279 05-03-2010 15:48:01 6 C 1.45 g/m*3 6 C 0 km/h
2280 05-03-2010 16:00:01 5.4 C 1.4 g/m*3 5.4 C 0 km/h
2281 05-03-2010 16:12:01 4.9 C 1.35 g/m*3 4.9 C 0 km/h
2282 05-03-2010 16:24:02 4.8 C 1.34 g/m*3 4.8 C 0 km/h
2283 05-03-2010 16:36:01 4.5 C 1.38 g/m*3 4.5 C 0 km/h
2284 05-03-2010 16:48:02 4.4 C 1.63 g/m*3 4.4 C 0 km/h
2285 05-03-2010 17:00:02 4.4 C 1.7 g/m*3 4.4 C 0 km/h
2286 05-03-2010 17:12:01 4.3 C 1.49 g/m*3 4.3 C 0 km/h
2287 05-03-2010 17:24:02 4.2 C 1.48 g/m*3 4.2 C 0 km/h
2288 05-03-2010 17:36:01 4 C 1.46 g/m*3 4 C 0 km/h
2289 05-03-2010 17:48:03 3.8 C 1.44 g/m*3 3.8 C 0 km/h
2290 05-03-2010 18:00:03 3.8 C 1.57 g/m*3 3.8 C 0 km/h
2291 05-03-2010 18:12:02 3.5 C 1.66 g/m*3 3.5 C 0 km/h
2292 05-03-2010 18:24:02 3.3 C 1.82 g/m*3 3.3 C 0 km/h
2293 05-03-2010 18:36:02 3.2 C 1.99 g/m*3 3.2 C 0 km/h
2294 05-03-2010 18:48:02 3.1 C 2.21 g/m*3 3.1 C 0 km/h
2295 05-03-2010 19:00:02 3 C 2.32 g/m*3 3 C 0 km/h
2296 05-03-2010 19:12:02 2.9 C 2.42 g/m*3 2.9 C 0 km/h
2297 05-03-2010 19:24:02 2.8 C 2.46 g/m*3 2.8 C 0 km/h
2298 05-03-2010 19:36:02 2.7 C 2.56 g/m*3 2.7 C 0 km/h
2299 05-03-2010 19:48:02 2.6 C 2.66 g/m*3 2.6 C 0 km/h
2300 05-03-2010 20:00:02 2.5 C 2.7 g/m*3 2.5 C 0 km/h
Sensor: Nr:Datum:Temp:Abs-Feuchte:Windchill:Wind:
Aussen-T/F 2301 05-03-2010 20:12:01 2.5 C 2.76 g/m*3 2.5 C 0 km/h
2302 05-03-2010 20:24:02 2.4 C 2.8 g/m*3 2.4 C 0 km/h
2303 05-03-2010 20:36:01 2.5 C 2.82 g/m*3 2.5 C 0 km/h
2304 05-03-2010 20:48:02 2.5 C 2.82 g/m*3 2.5 C 0 km/h
2305 05-03-2010 21:00:02 2.5 C 2.82 g/m*3 2.5 C 0 km/h
2306 05-03-2010 21:12:01 2.4 C 2.91 g/m*3 2.4 C 0 km/h
2307 05-03-2010 21:24:01 2.1 C 3.13 g/m*3 2.1 C 0 km/h
2308 05-03-2010 21:36:02 1.8 C 3.4 g/m*3 1.8 C 0 km/h
2309 05-03-2010 21:48:02 1.5 C 3.54 g/m*3 1.5 C 0 km/h
2310 05-03-2010 22:00:03 1.3 C 3.71 g/m*3 1.3 C 0 km/h
2311 05-03-2010 22:12:02 1 C 3.84 g/m*3 1 C 0 km/h
2312 05-03-2010 22:24:02 0.9 C 3.97 g/m*3 0.9 C 0 km/h
2313 05-03-2010 22:36:02 0.8 C 4.04 g/m*3 0.8 C 0 km/h
2314 05-03-2010 22:48:02 0.8 C 4.1 g/m*3 0.8 C 0 km/h
2315 05-03-2010 23:00:02 0.7 C 4.12 g/m*3 0.7 C 0 km/h
2316 05-03-2010 23:12:01 0.5 C 4.16 g/m*3 0.5 C 0 km/h
2317 05-03-2010 23:24:02 0.6 C 4.24 g/m*3 0.6 C 0 km/h
2318 05-03-2010 23:36:02 0.7 C 4.27 g/m*3 0.7 C 0 km/h
2319 05-03-2010 23:48:02 0.7 C 4.27 g/m*3 0.7 C 0 km/h
2320 06-03-2010 00:00:03 0.9 C 4.28 g/m*3 0.9 C 0 km/h
2321 06-03-2010 00:12:02 0.7 C 4.17 g/m*3 0.7 C 0 km/h
2322 06-03-2010 00:25:05 0.6 C 4.24 g/m*3 0.6 C 0 km/h
2323 06-03-2010 00:37:05 0.7 C 4.27 g/m*3 0.7 C 0 km/h
2324 06-03-2010 00:49:05 0.6 C 4.29 g/m*3 0.6 C 0 km/h
2325 06-03-2010 01:01:05 0.6 C 4.34 g/m*3 0.6 C 0 km/h
Sensor: Nr:Datum:Temp:Abs-Feuchte:Windchill:Wind:
Aussen-T/F 2326 06-03-2010 01:13:05 0.5 C 4.36 g/m*3 0.5 C 0 km/h
2327 06-03-2010 01:25:05 0.5 C 4.41 g/m*3 0.5 C 0 km/h
2328 06-03-2010 01:37:06 0.4 C 4.43 g/m*3 0.4 C 0 km/h
2329 06-03-2010 01:49:06 0.5 C 4.46 g/m*3 0.5 C 0 km/h
2330 06-03-2010 02:01:06 0.6 C 4.54 g/m*3 0.6 C 0 km/h
2331 06-03-2010 02:13:06 0.6 C 4.6 g/m*3 0.6 C 0 km/h
2332 06-03-2010 02:25:06 0.6 C 4.6 g/m*3 0.6 C 0 km/h
2333 06-03-2010 02:37:06 0.6 C 4.6 g/m*3 0.6 C 0 km/h
2334 06-03-2010 02:49:06 0.5 C 4.61 g/m*3 0.5 C 0 km/h
2335 06-03-2010 03:01:06 0.4 C 4.58 g/m*3 0.4 C 0 km/h
2336 06-03-2010 03:13:06 0.3 C 4.55 g/m*3 0.3 C 0 km/h
2337 06-03-2010 03:25:06 0.2 C 4.57 g/m*3 0.2 C 0 km/h
2338 06-03-2010 03:37:06 0.1 C 4.54 g/m*3 0.1 C 0 km/h
2339 06-03-2010 03:49:06 0 C 4.51 g/m*3 0 C 0 km/h
2340 06-03-2010 04:01:06 0 C 4.51 g/m*3 0 C 0 km/h
2341 06-03-2010 04:13:06 0 C 4.51 g/m*3 0 C 0 km/h
2342 06-03-2010 04:25:06 0 C 4.51 g/m*3 0 C 0 km/h
2343 06-03-2010 04:37:06 0 C 4.55 g/m*3 0 C 0 km/h
2344 06-03-2010 04:49:06 0 C 4.55 g/m*3 0 C 0 km/h
2345 06-03-2010 05:01:06 0 C 4.55 g/m*3 0 C 0 km/h
2346 06-03-2010 05:13:06 -0.1 C 4.47 g/m*3 -0.1 C 0 km/h
2347 06-03-2010 05:25:06 0 C 4.51 g/m*3 0 C 0 km/h
2348 06-03-2010 05:37:06 0 C 4.51 g/m*3 0 C 0 km/h
2349 06-03-2010 05:49:07 0 C 4.51 g/m*3 0 C 0 km/h
2350 06-03-2010 06:01:07 -0.1 C 4.43 g/m*3 -0.1 C 0 km/h
Sensor: Nr:Datum:Temp:Abs-Feuchte:Windchill:Wind:
Aussen-T/F 2351 06-03-2010 06:13:07 -0.2 C 4.4 g/m*3 -0.2 C 0 km/h
2352 06-03-2010 06:25:07 -0.2 C 4.3 g/m*3 -0.2 C 0 km/h
2353 06-03-2010 06:37:07 -0.2 C 4.21 g/m*3 -0.2 C 0 km/h
2354 06-03-2010 06:49:07 -0.1 C 4.14 g/m*3 -0.1 C 0 km/h
2355 06-03-2010 07:01:07 -0.1 C 4.09 g/m*3 -0.1 C 0 km/h
2356 06-03-2010 07:13:07 0 C 4.12 g/m*3 0 C 0 km/h
2357 06-03-2010 07:25:07 0 C 4.17 g/m*3 0 C 0 km/h
2358 06-03-2010 07:37:07 0 C 4.17 g/m*3 0 C 0 km/h
2359 06-03-2010 07:49:01 0 C 4.12 g/m*3 0 C 0 km/h
2360 06-03-2010 08:01:02 0.1 C 4.2 g/m*3 0.1 C 0 km/h
2361 06-03-2010 08:13:02 0.1 C 4.2 g/m*3 0.1 C 0 km/h
2362 06-03-2010 08:25:01 0.2 C 4.22 g/m*3 0.2 C 0 km/h
2363 06-03-2010 08:37:02 0.4 C 4.23 g/m*3 0.4 C 0 km/h
2364 06-03-2010 08:49:01 0.4 C 4.13 g/m*3 0.4 C 0 km/h
2365 06-03-2010 09:01:02 0.4 C 4.03 g/m*3 0.4 C 0 km/h
2366 06-03-2010 09:13:02 0.4 C 4.03 g/m*3 0.4 C 0 km/h
2367 06-03-2010 09:25:02 0.4 C 4.08 g/m*3 0.4 C 0 km/h
2368 06-03-2010 09:37:02 0.3 C 4.06 g/m*3 0.3 C 0 km/h
2369 06-03-2010 09:49:02 0.4 C 4.03 g/m*3 0.4 C 0 km/h
2370 06-03-2010 10:01:02 0.4 C 3.88 g/m*3 0.4 C 0 km/h
2371 06-03-2010 10:13:02 0.5 C 3.71 g/m*3 0.5 C 0 km/h
2372 06-03-2010 10:25:02 0.5 C 3.71 g/m*3 0.5 C 0 km/h
2373 06-03-2010 10:37:02 0.5 C 3.71 g/m*3 0.5 C 0 km/h
2374 06-03-2010 10:49:01 0.4 C 3.59 g/m*3 0.4 C 0 km/h
2375 06-03-2010 11:01:02 0.5 C 3.66 g/m*3 0.5 C 0 km/h
Sensor: Nr:Datum:Temp:Abs-Feuchte:Windchill:Wind:
Aussen-T/F 2376 06-03-2010 11:13:02 0.4 C 3.59 g/m*3 0.4 C 0 km/h
2377 06-03-2010 11:25:01 0.5 C 3.56 g/m*3 0.5 C 0 km/h
2378 06-03-2010 11:37:01 0.4 C 3.39 g/m*3 0.4 C 0 km/h
2379 06-03-2010 11:49:01 0.3 C 3.26 g/m*3 0.3 C 0 km/h
2380 06-03-2010 12:01:02 0.4 C 3.34 g/m*3 0.4 C 0 km/h
2381 06-03-2010 12:13:02 0.5 C 3.26 g/m*3 0.5 C 0 km/h
2382 06-03-2010 12:25:01 0.4 C 3.19 g/m*3 0.4 C 0 km/h
2383 06-03-2010 12:37:02 0.6 C 3.23 g/m*3 0.6 C 0 km/h
2384 06-03-2010 12:49:02 0.7 C 3.36 g/m*3 0.7 C 0 km/h
2385 06-03-2010 13:01:02 0.8 C 3.28 g/m*3 0.8 C 0 km/h
2386 06-03-2010 13:13:02 1.1 C 3.29 g/m*3 1.1 C 0 km/h
2387 06-03-2010 13:25:01 0.9 C 2.94 g/m*3 0.9 C 0 km/h
2388 06-03-2010 13:37:02 0.5 C 3.11 g/m*3 0.5 C 0 km/h
2389 06-03-2010 13:49:02 0.4 C 3.34 g/m*3 0.4 C 0 km/h
2390 06-03-2010 14:01:02 0.2 C 3.19 g/m*3 0.2 C 0 km/h
2391 06-03-2010 14:13:02 0.5 C 3.36 g/m*3 0.5 C 0 km/h
2392 06-03-2010 14:25:02 1 C 3.32 g/m*3 1 C 0 km/h
2393 06-03-2010 14:37:02 1.7 C 3.27 g/m*3 1.7 C 0 km/h
2394 06-03-2010 14:49:02 1.4 C 3.04 g/m*3 1.4 C 0 km/h
2395 06-03-2010 15:01:02 1.3 C 3.02 g/m*3 1.3 C 0 km/h
2396 06-03-2010 15:13:02 1.3 C 2.97 g/m*3 1.3 C 0 km/h
2397 06-03-2010 15:25:02 1.5 C 2.79 g/m*3 1.5 C 0 km/h
2398 06-03-2010 15:37:02 1.3 C 2.7 g/m*3 1.3 C 0 km/h
2399 06-03-2010 15:49:02 1.4 C 2.67 g/m*3 1.4 C 0 km/h
2400 06-03-2010 16:01:02 1.4 C 2.72 g/m*3 1.4 C 0 km/h
Sensor: Nr:Datum:Temp:Abs-Feuchte:Windchill:Wind:
Aussen-T/F 2401 06-03-2010 16:13:02 0.9 C 2.63 g/m*3 0.9 C 0 km/h
2402 06-03-2010 16:25:02 1 C 2.6 g/m*3 1 C 0 km/h
2403 06-03-2010 16:37:02 0.8 C 2.66 g/m*3 0.8 C 0 km/h
2404 06-03-2010 16:49:02 0.5 C 2.71 g/m*3 0.5 C 0 km/h
2405 06-03-2010 17:01:02 0.2 C 2.55 g/m*3 0.2 C 0 km/h
2406 06-03-2010 17:13:02 -0.2 C 2.25 g/m*3 -0.2 C 0 km/h
2407 06-03-2010 17:25:02 -0.5 C 2.15 g/m*3 -0.5 C 0 km/h
2408 06-03-2010 17:37:02 -0.6 C 2.14 g/m*3 -0.6 C 0 km/h
2409 06-03-2010 17:49:01 -1 C 2.08 g/m*3 -1 C 0 km/h
2410 06-03-2010 18:01:02 -1.4 C 2.02 g/m*3 -1.4 C 0 km/h
2411 06-03-2010 18:13:02 -1.6 C 2.08 g/m*3 -1.6 C 0 km/h
2412 06-03-2010 18:25:02 -1.8 C 2.05 g/m*3 -1.8 C 0 km/h
2413 06-03-2010 18:37:02 -1.9 C 2.08 g/m*3 -1.9 C 0 km/h
2414 06-03-2010 18:49:02 -1.8 C 2.05 g/m*3 -1.8 C 0 km/h
2415 06-03-2010 19:01:02 -2 C 2.11 g/m*3 -2 C 0 km/h
2416 06-03-2010 19:13:02 -2.3 C 2.1 g/m*3 -2.3 C 0 km/h
2417 06-03-2010 19:25:02 -2.5 C 2.2 g/m*3 -2.5 C 0 km/h
2418 06-03-2010 19:37:01 -2.6 C 2.22 g/m*3 -2.6 C 0 km/h
2419 06-03-2010 19:49:02 -2.7 C 2.21 g/m*3 -2.7 C 0 km/h
2420 06-03-2010 20:01:01 -2.7 C 2.21 g/m*3 -2.7 C 0 km/h
2421 06-03-2010 20:13:01 -2.8 C 2.15 g/m*3 -2.8 C 0 km/h
2422 06-03-2010 20:25:02 -3.1 C 2.15 g/m*3 -3.1 C 0 km/h
2423 06-03-2010 20:37:01 -3.4 C 2.25 g/m*3 -3.4 C 0 km/h
2424 06-03-2010 20:49:02 -3.6 C 2.3 g/m*3 -3.6 C 0 km/h
2425 06-03-2010 21:01:01 -3.8 C 2.3 g/m*3 -3.8 C 0 km/h
Sensor: Nr:Datum:Temp:Abs-Feuchte:Windchill:Wind:
Aussen-T/F 2426 06-03-2010 21:13:01 -4 C 2.34 g/m*3 -4 C 0 km/h
2427 06-03-2010 21:25:02 -4 C 2.38 g/m*3 -4 C 0 km/h
2428 06-03-2010 21:37:01 -4.2 C 2.38 g/m*3 -4.2 C 0 km/h
2429 06-03-2010 21:50:03 -4.2 C 2.42 g/m*3 -4.2 C 0 km/h
2430 06-03-2010 22:02:03 -4.3 C 2.43 g/m*3 -4.3 C 0 km/h
2431 06-03-2010 22:14:03 -4.2 C 2.49 g/m*3 -4.2 C 0 km/h
2432 06-03-2010 22:26:03 -4 C 2.52 g/m*3 -4 C 0 km/h
2433 06-03-2010 22:38:03 -3.7 C 2.58 g/m*3 -3.7 C 0 km/h
2434 06-03-2010 22:50:03 -3.4 C 2.6 g/m*3 -3.4 C 0 km/h
2435 06-03-2010 23:02:03 -3.4 C 2.6 g/m*3 -3.4 C 0 km/h
2436 06-03-2010 23:14:03 -3.3 C 2.58 g/m*3 -3.3 C 0 km/h
2437 06-03-2010 23:26:03 -3.3 C 2.58 g/m*3 -3.3 C 0 km/h
2438 06-03-2010 23:38:03 -3.5 C 2.5 g/m*3 -3.5 C 0 km/h
2439 06-03-2010 23:50:03 -3.8 C 2.45 g/m*3 -3.8 C 0 km/h
2440 07-03-2010 00:02:03 -4.2 C 2.42 g/m*3 -4.2 C 0 km/h
2441 07-03-2010 00:14:03 -4.4 C 2.42 g/m*3 -4.4 C 0 km/h
2442 07-03-2010 00:26:04 -4.5 C 2.4 g/m*3 -4.5 C 0 km/h
2443 07-03-2010 00:38:04 -4.7 C 2.4 g/m*3 -4.7 C 0 km/h
2444 07-03-2010 00:50:04 -4.6 C 2.42 g/m*3 -4.6 C 0 km/h
2445 07-03-2010 01:02:04 -4.4 C 2.49 g/m*3 -4.4 C 0 km/h
2446 07-03-2010 01:14:04 -4.3 C 2.47 g/m*3 -4.3 C 0 km/h
2447 07-03-2010 01:26:04 -4.4 C 2.45 g/m*3 -4.4 C 0 km/h
2448 07-03-2010 01:38:04 -4.5 C 2.44 g/m*3 -4.5 C 0 km/h
2449 07-03-2010 01:50:04 -4.4 C 2.45 g/m*3 -4.4 C 0 km/h
2450 07-03-2010 02:02:04 -4.4 C 2.49 g/m*3 -4.4 C 0 km/h
Sensor: Nr:Datum:Temp:Abs-Feuchte:Windchill:Wind:
Aussen-T/F 2451 07-03-2010 02:14:04 -4.4 C 2.49 g/m*3 -4.4 C 0 km/h
2452 07-03-2010 02:26:04 -4.6 C 2.45 g/m*3 -4.6 C 0 km/h
2453 07-03-2010 02:38:04 -4.4 C 2.52 g/m*3 -4.4 C 0 km/h
2454 07-03-2010 02:50:04 -4.5 C 2.51 g/m*3 -4.5 C 0 km/h
2455 07-03-2010 03:02:04 -4.6 C 2.49 g/m*3 -4.6 C 0 km/h
2456 07-03-2010 03:14:04 -4.8 C 2.45 g/m*3 -4.8 C 0 km/h
2457 07-03-2010 03:26:04 -5 C 2.45 g/m*3 -5 C 0 km/h
2458 07-03-2010 03:38:04 -5.1 C 2.43 g/m*3 -5.1 C 0 km/h
2459 07-03-2010 03:50:04 -5.2 C 2.45 g/m*3 -5.2 C 0 km/h
2460 07-03-2010 04:02:04 -5.3 C 2.43 g/m*3 -5.3 C 0 km/h
2461 07-03-2010 04:14:04 -5.1 C 2.5 g/m*3 -5.1 C 0 km/h
2462 07-03-2010 04:26:05 -4.9 C 2.54 g/m*3 -4.9 C 0 km/h
2463 07-03-2010 04:38:05 -4.6 C 2.63 g/m*3 -4.6 C 0 km/h
2464 07-03-2010 04:50:05 -4.6 C 2.63 g/m*3 -4.6 C 0 km/h
2465 07-03-2010 05:02:05 -4.8 C 2.56 g/m*3 -4.8 C 0 km/h
2466 07-03-2010 05:14:05 -5 C 2.52 g/m*3 -5 C 0 km/h
2467 07-03-2010 05:26:05 -5.2 C 2.48 g/m*3 -5.2 C 0 km/h
2468 07-03-2010 05:38:05 -5.3 C 2.47 g/m*3 -5.3 C 0 km/h
2469 07-03-2010 05:50:05 -5.3 C 2.47 g/m*3 -5.3 C 0 km/h
2470 07-03-2010 06:02:05 -5.6 C 2.41 g/m*3 -5.6 C 0 km/h
2471 07-03-2010 06:14:05 -5.8 C 2.38 g/m*3 -5.8 C 0 km/h
2472 07-03-2010 06:26:05 -5.8 C 2.41 g/m*3 -5.8 C 0 km/h
2473 07-03-2010 06:38:05 -5.9 C 2.42 g/m*3 -5.9 C 0 km/h
2474 07-03-2010 06:50:05 -6 C 2.41 g/m*3 -6 C 0 km/h
2475 07-03-2010 07:02:05 -6 C 2.44 g/m*3 -6 C 0 km/h
Sensor: Nr:Datum:Temp:Abs-Feuchte:Windchill:Wind:
Aussen-T/F 2476 07-03-2010 07:14:05 -6.1 C 2.42 g/m*3 -6.1 C 0 km/h
2477 07-03-2010 07:26:05 -6.1 C 2.42 g/m*3 -6.1 C 0 km/h
2478 07-03-2010 07:38:05 -6.4 C 2.34 g/m*3 -6.4 C 0 km/h
2479 07-03-2010 07:50:05 -6.5 C 2.32 g/m*3 -6.5 C 0 km/h
2480 07-03-2010 08:02:05 -6.5 C 2.32 g/m*3 -6.5 C 0 km/h
2481 07-03-2010 08:14:05 -6.4 C 2.34 g/m*3 -6.4 C 0 km/h
2482 07-03-2010 08:26:02 -6.2 C 2.4 g/m*3 -6.2 C 0 km/h
2483 07-03-2010 08:38:03 -5.7 C 2.49 g/m*3 -5.7 C 0 km/h
2484 07-03-2010 08:50:02 -5.3 C 2.57 g/m*3 -5.3 C 0 km/h
2485 07-03-2010 09:02:02 -5 C 2.59 g/m*3 -5 C 0 km/h
2486 07-03-2010 09:14:02 -4.6 C 2.63 g/m*3 -4.6 C 0 km/h
2487 07-03-2010 09:26:02 -4.1 C 2.65 g/m*3 -4.1 C 0 km/h
2488 07-03-2010 09:38:02 -3.5 C 2.65 g/m*3 -3.5 C 0 km/h
2489 07-03-2010 09:50:02 -3 C 2.59 g/m*3 -3 C 0 km/h
2490 07-03-2010 10:02:01 -2 C 2.66 g/m*3 -2 C 0 km/h
2491 07-03-2010 10:14:01 -1.4 C 2.51 g/m*3 -1.4 C 0 km/h
2492 07-03-2010 10:26:02 -1 C 2.4 g/m*3 -1 C 0 km/h
2493 07-03-2010 10:38:02 -1 C 2.35 g/m*3 -1 C 0 km/h
2494 07-03-2010 10:50:02 -1 C 2.31 g/m*3 -1 C 0 km/h
2495 07-03-2010 11:02:03 -0.7 C 2.35 g/m*3 -0.7 C 0 km/h
2496 07-03-2010 11:14:03 -0.5 C 2.29 g/m*3 -0.5 C 0 km/h
2497 07-03-2010 11:26:02 -0.5 C 2.2 g/m*3 -0.5 C 0 km/h
2498 07-03-2010 11:38:02 -0.4 C 2.22 g/m*3 -0.4 C 0 km/h
2499 07-03-2010 11:50:02 -0.1 C 2.26 g/m*3 -0.1 C 0 km/h
2500 07-03-2010 12:02:02 -0.2 C 2.15 g/m*3 -0.2 C 0 km/h
Sensor: Nr:Datum:Temp:Abs-Feuchte:Windchill:Wind:
Aussen-T/F 2501 07-03-2010 12:14:02 0 C 2.23 g/m*3 0 C 0 km/h
2502 07-03-2010 12:26:01 0.4 C 2.29 g/m*3 0.4 C 0 km/h
2503 07-03-2010 12:38:02 0.9 C 2.32 g/m*3 0.9 C 0 km/h
2504 07-03-2010 12:50:02 1.5 C 2.31 g/m*3 1.5 C 0 km/h
2505 07-03-2010 13:02:02 1.6 C 2.16 g/m*3 1.6 C 0 km/h
2506 07-03-2010 13:14:02 1.8 C 2.14 g/m*3 1.8 C 0 km/h
2507 07-03-2010 13:26:02 2.2 C 2.14 g/m*3 2.2 C 0 km/h
2508 07-03-2010 13:38:02 2.5 C 2.07 g/m*3 2.5 C 0 km/h
2509 07-03-2010 13:50:02 2.9 C 2.07 g/m*3 2.9 C 0 km/h
2510 07-03-2010 14:02:03 3 C 1.96 g/m*3 3 C 0 km/h
2511 07-03-2010 14:14:03 3.3 C 2.06 g/m*3 3.3 C 0 km/h
2512 07-03-2010 14:26:02 3.7 C 1.99 g/m*3 3.7 C 0 km/h
2513 07-03-2010 14:38:02 3.7 C 1.74 g/m*3 3.7 C 0 km/h
2514 07-03-2010 14:50:01 3.9 C 1.77 g/m*3 3.9 C 0 km/h
2515 07-03-2010 15:02:02 4.2 C 1.68 g/m*3 4.2 C 0 km/h
2516 07-03-2010 15:14:02 4.5 C 1.31 g/m*3 4.5 C 0 km/h
2517 07-03-2010 15:26:01 4.6 C 1.32 g/m*3 4.6 C 0 km/h
2518 07-03-2010 15:38:02 4.7 C 1.33 g/m*3 4.7 C 0 km/h
2519 07-03-2010 15:50:02 5 C 1.36 g/m*3 5 C 0 km/h
2520 07-03-2010 16:02:02 5.1 C 1.37 g/m*3 5.1 C 0 km/h
2521 07-03-2010 16:14:02 5.3 C 1.39 g/m*3 5.3 C 0 km/h
2522 07-03-2010 16:26:01 5.8 C 1.43 g/m*3 5.8 C 0 km/h
2523 07-03-2010 16:38:02 5.9 C 1.44 g/m*3 5.9 C 0 km/h
2524 07-03-2010 16:50:02 5.7 C 1.42 g/m*3 5.7 C 0 km/h
2525 07-03-2010 17:02:02 5.8 C 1.43 g/m*3 5.8 C 0 km/h
Sensor: Nr:Datum:Temp:Abs-Feuchte:Windchill:Wind:
Aussen-T/F 2526 07-03-2010 17:14:02 5.1 C 1.37 g/m*3 5.1 C 0 km/h
2527 07-03-2010 17:26:02 4.9 C 1.35 g/m*3 4.9 C 0 km/h
2528 07-03-2010 17:38:02 4.7 C 1.33 g/m*3 4.7 C 0 km/h
2529 07-03-2010 17:50:02 4.1 C 1.28 g/m*3 4.1 C 0 km/h
2530 07-03-2010 18:02:02 3.2 C 1.21 g/m*3 3.2 C 0 km/h
2531 07-03-2010 18:14:03 2.2 C 1.63 g/m*3 2.2 C 0 km/h
2532 07-03-2010 18:26:02 1.4 C 1.71 g/m*3 1.4 C 0 km/h
2533 07-03-2010 18:38:02 0.6 C 1.77 g/m*3 0.6 C 0 km/h
2534 07-03-2010 18:50:02 0.1 C 1.76 g/m*3 0.1 C 0 km/h
2535 07-03-2010 19:02:02 -0.2 C 1.77 g/m*3 -0.2 C 0 km/h
2536 07-03-2010 19:14:02 -0.4 C 1.74 g/m*3 -0.4 C 0 km/h
2537 07-03-2010 19:26:02 -0.6 C 1.81 g/m*3 -0.6 C 0 km/h
2538 07-03-2010 19:38:02 -0.7 C 1.85 g/m*3 -0.7 C 0 km/h
2539 07-03-2010 19:50:01 -1.2 C 1.87 g/m*3 -1.2 C 0 km/h
2540 07-03-2010 20:02:01 -1.4 C 1.89 g/m*3 -1.4 C 0 km/h
2541 07-03-2010 20:14:02 -1.5 C 1.83 g/m*3 -1.5 C 0 km/h
2542 07-03-2010 20:26:01 -1.7 C 1.89 g/m*3 -1.7 C 0 km/h
2543 07-03-2010 20:38:01 -1.9 C 1.95 g/m*3 -1.9 C 0 km/h
2544 07-03-2010 20:50:01 -2 C 2.02 g/m*3 -2 C 0 km/h
2545 07-03-2010 21:02:01 -2.3 C 2.02 g/m*3 -2.3 C 0 km/h
2546 07-03-2010 21:14:01 -2.4 C 2.01 g/m*3 -2.4 C 0 km/h
2547 07-03-2010 21:26:01 -2.5 C 1.95 g/m*3 -2.5 C 0 km/h
2548 07-03-2010 21:38:01 -2.5 C 1.83 g/m*3 -2.5 C 0 km/h
2549 07-03-2010 21:51:03 -2.5 C 1.87 g/m*3 -2.5 C 0 km/h
2550 07-03-2010 22:03:03 -2.6 C 1.82 g/m*3 -2.6 C 0 km/h
Sensor: Nr:Datum:Temp:Abs-Feuchte:Windchill:Wind:
Aussen-T/F 2551 07-03-2010 22:15:03 -2.8 C 1.79 g/m*3 -2.8 C 0 km/h
2552 07-03-2010 22:27:03 -2.8 C 1.83 g/m*3 -2.8 C 0 km/h
2553 07-03-2010 22:39:03 -3 C 1.85 g/m*3 -3 C 0 km/h
2554 07-03-2010 22:51:03 -3.2 C 1.9 g/m*3 -3.2 C 0 km/h
2555 07-03-2010 23:03:04 -3.3 C 1.96 g/m*3 -3.3 C 0 km/h
2556 07-03-2010 23:15:04 -3.4 C 1.95 g/m*3 -3.4 C 0 km/h
2557 07-03-2010 23:27:04 -3.4 C 1.91 g/m*3 -3.4 C 0 km/h
2558 07-03-2010 23:39:04 -3.4 C 1.83 g/m*3 -3.4 C 0 km/h
2559 07-03-2010 23:51:04 -3.7 C 1.76 g/m*3 -3.7 C 0 km/h
2560 08-03-2010 00:03:04 -3.9 C 1.81 g/m*3 -3.9 C 0 km/h
2561 08-03-2010 00:15:04 -4 C 1.83 g/m*3 -4 C 0 km/h
2562 08-03-2010 00:27:04 -4.2 C 1.77 g/m*3 -4.2 C 0 km/h
2563 08-03-2010 00:39:04 -4.3 C 1.79 g/m*3 -4.3 C 0 km/h
2564 08-03-2010 00:51:04 -4.5 C 1.8 g/m*3 -4.5 C 0 km/h
2565 08-03-2010 01:03:04 -4.5 C 1.76 g/m*3 -4.5 C 0 km/h
2566 08-03-2010 01:15:04 -4.6 C 1.75 g/m*3 -4.6 C 0 km/h
2567 08-03-2010 01:27:04 -4.6 C 1.75 g/m*3 -4.6 C 0 km/h
2568 08-03-2010 01:39:04 -4.7 C 1.7 g/m*3 -4.7 C 0 km/h
2569 08-03-2010 01:51:04 -4.8 C 1.73 g/m*3 -4.8 C 0 km/h
2570 08-03-2010 02:03:04 -5 C 1.7 g/m*3 -5 C 0 km/h
2571 08-03-2010 02:15:04 -4.9 C 1.68 g/m*3 -4.9 C 0 km/h
2572 08-03-2010 02:27:04 -5 C 1.6 g/m*3 -5 C 0 km/h
2573 08-03-2010 02:39:04 -4.7 C 1.53 g/m*3 -4.7 C 0 km/h
2574 08-03-2010 02:51:04 -5 C 1.63 g/m*3 -5 C 0 km/h
2575 08-03-2010 03:03:04 -5.3 C 1.7 g/m*3 -5.3 C 0 km/h
Sensor: Nr:Datum:Temp:Abs-Feuchte:Windchill:Wind:
Aussen-T/F 2576 08-03-2010 03:15:05 -5.8 C 1.67 g/m*3 -5.8 C 0 km/h
2577 08-03-2010 03:27:05 -5.9 C 1.72 g/m*3 -5.9 C 0 km/h
2578 08-03-2010 03:39:05 -5.8 C 1.74 g/m*3 -5.8 C 0 km/h
2579 08-03-2010 03:51:05 -6 C 1.71 g/m*3 -6 C 0 km/h
2580 08-03-2010 04:03:05 -6.1 C 1.73 g/m*3 -6.1 C 0 km/h
2581 08-03-2010 04:15:05 -6.1 C 1.73 g/m*3 -6.1 C 0 km/h
2582 08-03-2010 04:27:05 -6.4 C 1.72 g/m*3 -6.4 C 0 km/h
2583 08-03-2010 04:39:05 -6.4 C 1.75 g/m*3 -6.4 C 0 km/h
2584 08-03-2010 04:51:05 -6.6 C 1.73 g/m*3 -6.6 C 0 km/h
2585 08-03-2010 05:03:05 -6.6 C 1.73 g/m*3 -6.6 C 0 km/h
2586 08-03-2010 05:15:05 -6.8 C 1.73 g/m*3 -6.8 C 0 km/h
2587 08-03-2010 05:27:05 -6.9 C 1.75 g/m*3 -6.9 C 0 km/h
2588 08-03-2010 05:39:05 -7.1 C 1.72 g/m*3 -7.1 C 0 km/h
2589 08-03-2010 05:51:05 -7.2 C 1.74 g/m*3 -7.2 C 0 km/h
2590 08-03-2010 06:03:05 -7.3 C 1.76 g/m*3 -7.3 C 0 km/h
2591 08-03-2010 06:15:05 -7.3 C 1.76 g/m*3 -7.3 C 0 km/h
2592 08-03-2010 06:27:05 -7.3 C 1.76 g/m*3 -7.3 C 0 km/h
2593 08-03-2010 06:39:05 -7.2 C 1.83 g/m*3 -7.2 C 0 km/h
2594 08-03-2010 06:51:05 -7.4 C 1.83 g/m*3 -7.4 C 0 km/h
2595 08-03-2010 07:03:02 -7.4 C 1.83 g/m*3 -7.4 C 0 km/h
2596 08-03-2010 07:15:03 -7.5 C 1.82 g/m*3 -7.5 C 0 km/h
2597 08-03-2010 07:27:03 -7.3 C 1.9 g/m*3 -7.3 C 0 km/h
2598 08-03-2010 07:39:03 -7 C 1.97 g/m*3 -7 C 0 km/h
2599 08-03-2010 07:51:01 -6.5 C 2.05 g/m*3 -6.5 C 0 km/h
2600 08-03-2010 08:03:01 -6.1 C 2.11 g/m*3 -6.1 C 0 km/h
Sensor: Nr:Datum:Temp:Abs-Feuchte:Windchill:Wind:
Aussen-T/F 2601 08-03-2010 08:15:01 -5.8 C 2.09 g/m*3 -5.8 C 0 km/h
2602 08-03-2010 08:27:01 -5.3 C 2.1 g/m*3 -5.3 C 0 km/h
2603 08-03-2010 08:39:02 -5 C 2.08 g/m*3 -5 C 0 km/h
2604 08-03-2010 08:51:02 -4.5 C 2.12 g/m*3 -4.5 C 0 km/h
2605 08-03-2010 09:03:02 -4.2 C 2.02 g/m*3 -4.2 C 0 km/h
2606 08-03-2010 09:15:02 -3.7 C 2.06 g/m*3 -3.7 C 0 km/h
2607 08-03-2010 09:27:02 -3.1 C 2.15 g/m*3 -3.1 C 0 km/h
2608 08-03-2010 09:39:02 -2.5 C 2.12 g/m*3 -2.5 C 0 km/h
2609 08-03-2010 09:51:02 -2.1 C 2.01 g/m*3 -2.1 C 0 km/h
2610 08-03-2010 10:03:01 -1.7 C 2.02 g/m*3 -1.7 C 0 km/h
2611 08-03-2010 10:15:01 -1.3 C 1.99 g/m*3 -1.3 C 0 km/h
2612 08-03-2010 10:27:01 -0.6 C 1.95 g/m*3 -0.6 C 0 km/h
2613 08-03-2010 10:39:02 0 C 1.94 g/m*3 0 C 0 km/h
2614 08-03-2010 10:51:02 0.4 C 1.74 g/m*3 0.4 C 0 km/h
2615 08-03-2010 11:03:01 0.7 C 1.78 g/m*3 0.7 C 0 km/h
2616 08-03-2010 11:15:02 1.1 C 1.83 g/m*3 1.1 C 0 km/h
2617 08-03-2010 11:27:02 1.3 C 1.7 g/m*3 1.3 C 0 km/h
2618 08-03-2010 11:39:02 1.7 C 1.85 g/m*3 1.7 C 0 km/h
2619 08-03-2010 11:51:01 2.4 C 1.77 g/m*3 2.4 C 0 km/h
2620 08-03-2010 12:03:02 2.6 C 1.62 g/m*3 2.6 C 0 km/h
2621 08-03-2010 12:15:01 3.1 C 1.68 g/m*3 3.1 C 0 km/h
2622 08-03-2010 12:27:01 3.2 C 1.63 g/m*3 3.2 C 0 km/h
2623 08-03-2010 12:39:02 3.4 C 1.53 g/m*3 3.4 C 0 km/h
2624 08-03-2010 12:51:02 3.2 C 1.39 g/m*3 3.2 C 0 km/h
2625 08-03-2010 13:03:02 3.2 C 1.51 g/m*3 3.2 C 0 km/h
Sensor: Nr:Datum:Temp:Abs-Feuchte:Windchill:Wind:
Aussen-T/F 2626 08-03-2010 13:15:02 3.6 C 1.61 g/m*3 3.6 C 0 km/h
2627 08-03-2010 13:27:02 4.5 C 1.31 g/m*3 4.5 C 0 km/h
2628 08-03-2010 13:39:02 4.9 C 1.35 g/m*3 4.9 C 0 km/h
2629 08-03-2010 13:51:02 4.9 C 1.35 g/m*3 4.9 C 0 km/h
2630 08-03-2010 14:03:02 4.8 C 1.34 g/m*3 4.8 C 0 km/h
2631 08-03-2010 14:15:02 3.9 C 1.26 g/m*3 3.9 C 0 km/h
2632 08-03-2010 14:27:02 3.5 C 1.41 g/m*3 3.5 C 0 km/h
2633 08-03-2010 14:39:02 3.8 C 1.44 g/m*3 3.8 C 0 km/h
2634 08-03-2010 14:51:02 4.6 C 1.32 g/m*3 4.6 C 0 km/h
2635 08-03-2010 15:03:01 4.3 C 1.3 g/m*3 4.3 C 0 km/h
2636 08-03-2010 15:15:02 4.9 C 1.35 g/m*3 4.9 C 0 km/h
2637 08-03-2010 15:27:02 5.1 C 1.37 g/m*3 5.1 C 0 km/h
2638 08-03-2010 15:39:01 6.4 C 1.49 g/m*3 6.4 C 0 km/h
2639 08-03-2010 15:51:02 6.7 C 1.52 g/m*3 6.7 C 0 km/h
2640 08-03-2010 16:03:01 6.5 C 1.5 g/m*3 6.5 C 0 km/h
2641 08-03-2010 16:15:02 6.6 C 1.51 g/m*3 6.6 C 0 km/h
2642 08-03-2010 16:27:02 6.9 C 1.54 g/m*3 6.9 C 0 km/h
2643 08-03-2010 16:39:01 6.7 C 1.52 g/m*3 6.7 C 0 km/h
2644 08-03-2010 16:51:02 6.4 C 1.49 g/m*3 6.4 C 0 km/h
2645 08-03-2010 17:03:02 6.2 C 1.47 g/m*3 6.2 C 0 km/h
2646 08-03-2010 17:15:02 6.3 C 1.48 g/m*3 6.3 C 0 km/h
2647 08-03-2010 17:27:02 5.8 C 1.43 g/m*3 5.8 C 0 km/h
2648 08-03-2010 17:39:02 4.6 C 1.32 g/m*3 4.6 C 0 km/h
2649 08-03-2010 17:51:02 4.2 C 1.29 g/m*3 4.2 C 0 km/h
2650 08-03-2010 18:03:02 3.7 C 1.56 g/m*3 3.7 C 0 km/h
Sensor: Nr:Datum:Temp:Abs-Feuchte:Windchill:Wind:
Aussen-T/F 2651 08-03-2010 18:15:01 2.9 C 1.71 g/m*3 2.9 C 0 km/h
2652 08-03-2010 18:27:01 1.8 C 1.75 g/m*3 1.8 C 0 km/h
2653 08-03-2010 18:39:02 1.4 C 1.87 g/m*3 1.4 C 0 km/h
2654 08-03-2010 18:51:02 0.7 C 2.03 g/m*3 0.7 C 0 km/h
2655 08-03-2010 19:03:02 0.4 C 2.04 g/m*3 0.4 C 0 km/h
2656 08-03-2010 19:15:02 0.1 C 2.1 g/m*3 0.1 C 0 km/h
2657 08-03-2010 19:27:02 -0.2 C 2.15 g/m*3 -0.2 C 0 km/h
2658 08-03-2010 19:39:02 -0.3 C 2.04 g/m*3 -0.3 C 0 km/h
2659 08-03-2010 19:51:01 -0.3 C 1.99 g/m*3 -0.3 C 0 km/h
2660 08-03-2010 20:03:02 -0.6 C 2 g/m*3 -0.6 C 0 km/h
2661 08-03-2010 20:15:01 -0.7 C 2.08 g/m*3 -0.7 C 0 km/h
2662 08-03-2010 20:27:01 -1.1 C 2.11 g/m*3 -1.1 C 0 km/h
2663 08-03-2010 20:39:01 -1.2 C 2.1 g/m*3 -1.2 C 0 km/h
2664 08-03-2010 20:51:01 -1.4 C 2.15 g/m*3 -1.4 C 0 km/h
2665 08-03-2010 21:03:02 -1.4 C 2.15 g/m*3 -1.4 C 0 km/h
2666 08-03-2010 21:15:01 -1.5 C 2.18 g/m*3 -1.5 C 0 km/h
2667 08-03-2010 21:27:01 -1.3 C 2.26 g/m*3 -1.3 C 0 km/h
2668 08-03-2010 21:40:03 -1.3 C 2.26 g/m*3 -1.3 C 0 km/h
2669 08-03-2010 21:52:03 -1.2 C 2.32 g/m*3 -1.2 C 0 km/h
2670 08-03-2010 22:04:03 -1.2 C 2.36 g/m*3 -1.2 C 0 km/h
2671 08-03-2010 22:16:03 -1.2 C 2.32 g/m*3 -1.2 C 0 km/h
2672 08-03-2010 22:28:03 -1.1 C 2.24 g/m*3 -1.1 C 0 km/h
2673 08-03-2010 22:40:03 -0.9 C 2.09 g/m*3 -0.9 C 0 km/h
2674 08-03-2010 22:52:03 -1 C 2.08 g/m*3 -1 C 0 km/h
2675 08-03-2010 23:04:03 -1.4 C 2.07 g/m*3 -1.4 C 0 km/h
Sensor: Nr:Datum:Temp:Abs-Feuchte:Windchill:Wind:
Aussen-T/F 2676 08-03-2010 23:16:04 -1.8 C 2.05 g/m*3 -1.8 C 0 km/h
2677 08-03-2010 23:28:04 -1.9 C 2.04 g/m*3 -1.9 C 0 km/h
2678 08-03-2010 23:40:04 -1.9 C 2.08 g/m*3 -1.9 C 0 km/h
2679 08-03-2010 23:52:04 -2 C 2.11 g/m*3 -2 C 0 km/h
2680 09-03-2010 00:04:04 -2.1 C 2.13 g/m*3 -2.1 C 0 km/h
2681 09-03-2010 00:16:04 -2.2 C 2.12 g/m*3 -2.2 C 0 km/h
2682 09-03-2010 00:28:04 -2.4 C 2.09 g/m*3 -2.4 C 0 km/h
2683 09-03-2010 00:40:04 -2.4 C 2.09 g/m*3 -2.4 C 0 km/h
2684 09-03-2010 00:52:04 -2.6 C 2.14 g/m*3 -2.6 C 0 km/h
2685 09-03-2010 01:04:04 -2.8 C 2.15 g/m*3 -2.8 C 0 km/h
2686 09-03-2010 01:16:04 -3 C 2.2 g/m*3 -3 C 0 km/h
2687 09-03-2010 01:28:04 -3.1 C 2.22 g/m*3 -3.1 C 0 km/h
2688 09-03-2010 01:40:04 -3.2 C 2.21 g/m*3 -3.2 C 0 km/h
2689 09-03-2010 01:52:04 -3.3 C 2.19 g/m*3 -3.3 C 0 km/h
2690 09-03-2010 02:04:04 -3.4 C 2.18 g/m*3 -3.4 C 0 km/h
2691 09-03-2010 02:16:05 -3.4 C 2.21 g/m*3 -3.4 C 0 km/h
2692 09-03-2010 02:28:05 -3.3 C 2.23 g/m*3 -3.3 C 0 km/h
2693 09-03-2010 02:40:05 -3.3 C 2.23 g/m*3 -3.3 C 0 km/h
2694 09-03-2010 02:52:05 -3.5 C 2.24 g/m*3 -3.5 C 0 km/h
2695 09-03-2010 03:04:05 -3.7 C 2.24 g/m*3 -3.7 C 0 km/h
2696 09-03-2010 03:16:05 -3.8 C 2.23 g/m*3 -3.8 C 0 km/h
2697 09-03-2010 03:28:05 -3.9 C 2.25 g/m*3 -3.9 C 0 km/h
2698 09-03-2010 03:40:05 -4 C 2.27 g/m*3 -4 C 0 km/h
2699 09-03-2010 03:52:05 -4.1 C 2.29 g/m*3 -4.1 C 0 km/h
2700 09-03-2010 04:04:05 -4.2 C 2.27 g/m*3 -4.2 C 0 km/h
Sensor: Nr:Datum:Temp:Abs-Feuchte:Windchill:Wind:
Aussen-T/F 2701 09-03-2010 04:16:05 -4.3 C 2.29 g/m*3 -4.3 C 0 km/h
2702 09-03-2010 04:28:05 -4.5 C 2.22 g/m*3 -4.5 C 0 km/h
2703 09-03-2010 04:40:05 -4.5 C 2.19 g/m*3 -4.5 C 0 km/h
2704 09-03-2010 04:52:05 -4.5 C 2.19 g/m*3 -4.5 C 0 km/h
2705 09-03-2010 05:04:05 -4.6 C 2.17 g/m*3 -4.6 C 0 km/h
2706 09-03-2010 05:16:05 -4.7 C 2.16 g/m*3 -4.7 C 0 km/h
2707 09-03-2010 05:28:05 -4.8 C 2.14 g/m*3 -4.8 C 0 km/h
2708 09-03-2010 05:40:05 -4.9 C 2.16 g/m*3 -4.9 C 0 km/h
2709 09-03-2010 05:52:05 -4.9 C 2.16 g/m*3 -4.9 C 0 km/h
2710 09-03-2010 06:04:05 -4.8 C 2.14 g/m*3 -4.8 C 0 km/h
2711 09-03-2010 06:16:05 -4.8 C 2.14 g/m*3 -4.8 C 0 km/h
2712 09-03-2010 06:28:05 -4.9 C 2.13 g/m*3 -4.9 C 0 km/h
2713 09-03-2010 06:40:06 -5.2 C 2.08 g/m*3 -5.2 C 0 km/h
2714 09-03-2010 06:52:06 -5.3 C 2.07 g/m*3 -5.3 C 0 km/h
2715 09-03-2010 07:04:03 -5.6 C 2.05 g/m*3 -5.6 C 0 km/h
2716 09-03-2010 07:16:03 -5.6 C 2.09 g/m*3 -5.6 C 0 km/h
2717 09-03-2010 07:28:03 -5.4 C 2.15 g/m*3 -5.4 C 0 km/h
2718 09-03-2010 07:40:03 -5.3 C 2.17 g/m*3 -5.3 C 0 km/h
2719 09-03-2010 07:52:02 -5.3 C 2.17 g/m*3 -5.3 C 0 km/h
2720 09-03-2010 08:04:02 -5.2 C 2.18 g/m*3 -5.2 C 0 km/h
2721 09-03-2010 08:16:02 -5 C 2.18 g/m*3 -5 C 0 km/h
2722 09-03-2010 08:28:02 -4.9 C 2.16 g/m*3 -4.9 C 0 km/h
2723 09-03-2010 08:40:02 -4.8 C 2.14 g/m*3 -4.8 C 0 km/h
2724 09-03-2010 08:52:02 -4.7 C 2.16 g/m*3 -4.7 C 0 km/h
2725 09-03-2010 09:04:01 -4.5 C 2.19 g/m*3 -4.5 C 0 km/h
Sensor: Nr:Datum:Temp:Abs-Feuchte:Windchill:Wind:
Aussen-T/F 2726 09-03-2010 09:16:02 -4.2 C 2.16 g/m*3 -4.2 C 0 km/h
2727 09-03-2010 09:28:02 -3.9 C 2.17 g/m*3 -3.9 C 0 km/h
2728 09-03-2010 09:40:01 -3.4 C 2.18 g/m*3 -3.4 C 0 km/h
2729 09-03-2010 09:52:02 -2.7 C 2.13 g/m*3 -2.7 C 0 km/h
2730 09-03-2010 10:04:01 -2.4 C 2.09 g/m*3 -2.4 C 0 km/h
2731 09-03-2010 10:16:01 -1.9 C 2.08 g/m*3 -1.9 C 0 km/h
2732 09-03-2010 10:28:01 -1.2 C 2.05 g/m*3 -1.2 C 0 km/h
2733 09-03-2010 10:40:02 -0.7 C 1.94 g/m*3 -0.7 C 0 km/h
2734 09-03-2010 10:52:02 -0.4 C 1.84 g/m*3 -0.4 C 0 km/h
2735 09-03-2010 11:04:01 -0.1 C 1.73 g/m*3 -0.1 C 0 km/h
2736 09-03-2010 11:16:02 0.3 C 1.63 g/m*3 0.3 C 0 km/h
2737 09-03-2010 11:28:02 0.5 C 1.5 g/m*3 0.5 C 0 km/h
2738 09-03-2010 11:40:02 0.5 C 1.3 g/m*3 0.5 C 0 km/h
2739 09-03-2010 11:52:01 0.8 C 1.28 g/m*3 0.8 C 0 km/h
2740 09-03-2010 12:04:02 1 C 1.09 g/m*3 1 C 0 km/h
2741 09-03-2010 12:16:01 1.3 C 1.06 g/m*3 1.3 C 0 km/h
2742 09-03-2010 12:28:01 1.6 C 1.14 g/m*3 1.6 C 0 km/h
2743 09-03-2010 12:40:02 1.8 C 1.1 g/m*3 1.8 C 0 km/h
2744 09-03-2010 12:52:02 2.2 C 1.13 g/m*3 2.2 C 0 km/h
2745 09-03-2010 13:04:02 2.2 C 1.13 g/m*3 2.2 C 0 km/h
2746 09-03-2010 13:16:01 2.9 C 1.18 g/m*3 2.9 C 0 km/h
2747 09-03-2010 13:28:01 3.2 C 1.21 g/m*3 3.2 C 0 km/h
2748 09-03-2010 13:40:02 3.5 C 1.23 g/m*3 3.5 C 0 km/h
2749 09-03-2010 13:52:02 3.7 C 1.25 g/m*3 3.7 C 0 km/h
2750 09-03-2010 14:04:02 3.9 C 1.26 g/m*3 3.9 C 0 km/h
Sensor: Nr:Datum:Temp:Abs-Feuchte:Windchill:Wind:
Aussen-T/F 2751 09-03-2010 14:16:02 4.5 C 1.31 g/m*3 4.5 C 0 km/h
2752 09-03-2010 14:28:02 4.9 C 1.35 g/m*3 4.9 C 0 km/h
2753 09-03-2010 14:40:02 5.3 C 1.39 g/m*3 5.3 C 0 km/h
2754 09-03-2010 14:52:02 5.7 C 1.42 g/m*3 5.7 C 0 km/h
2755 09-03-2010 15:04:02 5.7 C 1.42 g/m*3 5.7 C 0 km/h
2756 09-03-2010 15:16:02 5.7 C 1.42 g/m*3 5.7 C 0 km/h
2757 09-03-2010 15:28:02 5.7 C 1.42 g/m*3 5.7 C 0 km/h
2758 09-03-2010 15:40:02 6.2 C 1.47 g/m*3 6.2 C 0 km/h
2759 09-03-2010 15:52:02 6 C 1.45 g/m*3 6 C 0 km/h
2760 09-03-2010 16:04:02 5.9 C 1.44 g/m*3 5.9 C 0 km/h
2761 09-03-2010 16:16:02 5.8 C 1.43 g/m*3 5.8 C 0 km/h
2762 09-03-2010 16:28:02 6.3 C 1.48 g/m*3 6.3 C 0 km/h
2763 09-03-2010 16:40:02 6.3 C 1.48 g/m*3 6.3 C 0 km/h
2764 09-03-2010 16:52:02 6.2 C 1.47 g/m*3 6.2 C 0 km/h
2765 09-03-2010 17:04:02 5.5 C 1.4 g/m*3 5.5 C 0 km/h
2766 09-03-2010 17:16:03 5.2 C 1.38 g/m*3 5.2 C 0 km/h
2767 09-03-2010 17:28:03 4.8 C 1.34 g/m*3 4.8 C 0 km/h
2768 09-03-2010 17:40:02 4.4 C 1.31 g/m*3 4.4 C 0 km/h
2769 09-03-2010 17:52:02 4 C 1.27 g/m*3 4 C 0 km/h
2770 09-03-2010 18:04:02 3.2 C 1.21 g/m*3 3.2 C 0 km/h
2771 09-03-2010 18:16:02 2.4 C 1.14 g/m*3 2.4 C 0 km/h
2772 09-03-2010 18:28:02 1.5 C 1.07 g/m*3 1.5 C 0 km/h
2773 09-03-2010 18:40:02 1.1 C 1.05 g/m*3 1.1 C 0 km/h
2774 09-03-2010 18:52:02 0.7 C 1.02 g/m*3 0.7 C 0 km/h
2775 09-03-2010 19:04:02 0.5 C 1 g/m*3 0.5 C 0 km/h
Sensor: Nr:Datum:Temp:Abs-Feuchte:Windchill:Wind:
Aussen-T/F 2776 09-03-2010 19:16:02 0.2 C 0.98 g/m*3 0.2 C 0 km/h
2777 09-03-2010 19:28:02 -0.1 C 0.96 g/m*3 -0.1 C 0 km/h
2778 09-03-2010 19:40:02 -0.3 C 0.95 g/m*3 -0.3 C 0 km/h
2779 09-03-2010 19:52:02 -0.6 C 0.93 g/m*3 -0.6 C 0 km/h
2780 09-03-2010 20:04:01 -0.6 C 0.93 g/m*3 -0.6 C 0 km/h
2781 09-03-2010 20:16:02 -0.8 C 0.92 g/m*3 -0.8 C 0 km/h
2782 09-03-2010 20:28:03 -1.2 C 0.89 g/m*3 -1.2 C 0 km/h
2783 09-03-2010 20:40:01 -1.4 C 0.88 g/m*3 -1.4 C 0 km/h
2784 09-03-2010 20:52:02 -1.5 C 0.92 g/m*3 -1.5 C 0 km/h
2785 09-03-2010 21:04:01 -1.7 C 0.9 g/m*3 -1.7 C 0 km/h
2786 09-03-2010 21:16:02 -1.7 C 0.86 g/m*3 -1.7 C 0 km/h
2787 09-03-2010 21:28:02 -1.9 C 0.85 g/m*3 -1.9 C 0 km/h
2788 09-03-2010 21:40:02 -1.8 C 0.85 g/m*3 -1.8 C 0 km/h
2789 09-03-2010 21:52:02 -1.9 C 0.85 g/m*3 -1.9 C 0 km/h
2790 09-03-2010 22:04:02 -1.8 C 0.85 g/m*3 -1.8 C 0 km/h
2791 09-03-2010 22:16:02 -1.7 C 0.86 g/m*3 -1.7 C 0 km/h
2792 09-03-2010 22:28:02 -1.7 C 0.86 g/m*3 -1.7 C 0 km/h
2793 09-03-2010 22:40:02 -1.8 C 0.85 g/m*3 -1.8 C 0 km/h
2794 09-03-2010 22:52:02 -1.8 C 0.9 g/m*3 -1.8 C 0 km/h
2795 09-03-2010 23:05:02 -2 C 1.1 g/m*3 -2 C 0 km/h
2796 09-03-2010 23:17:02 -2.3 C 1.24 g/m*3 -2.3 C 0 km/h
2797 09-03-2010 23:29:02 -2.4 C 1.27 g/m*3 -2.4 C 0 km/h
2798 09-03-2010 23:41:02 -2.5 C 1.34 g/m*3 -2.5 C 0 km/h
2799 09-03-2010 23:53:02 -2.6 C 1.41 g/m*3 -2.6 C 0 km/h
2800 10-03-2010 00:05:02 -2.7 C 1.48 g/m*3 -2.7 C 0 km/h
Sensor: Nr:Datum:Temp:Abs-Feuchte:Windchill:Wind:
Aussen-T/F 2801 10-03-2010 00:17:02 -2.8 C 1.55 g/m*3 -2.8 C 0 km/h
2802 10-03-2010 00:29:02 -2.7 C 1.56 g/m*3 -2.7 C 0 km/h
2803 10-03-2010 00:41:02 -2.6 C 1.58 g/m*3 -2.6 C 0 km/h
2804 10-03-2010 00:53:02 -2.7 C 1.6 g/m*3 -2.7 C 0 km/h
2805 10-03-2010 01:05:03 -3 C 1.65 g/m*3 -3 C 0 km/h
2806 10-03-2010 01:17:03 -3.1 C 1.68 g/m*3 -3.1 C 0 km/h
2807 10-03-2010 01:29:03 -3.2 C 1.7 g/m*3 -3.2 C 0 km/h
2808 10-03-2010 01:41:03 -3 C 1.73 g/m*3 -3 C 0 km/h
2809 10-03-2010 01:53:03 -3.4 C 1.72 g/m*3 -3.4 C 0 km/h
2810 10-03-2010 02:05:03 -3.4 C 1.76 g/m*3 -3.4 C 0 km/h
2811 10-03-2010 02:17:03 -3.5 C 1.74 g/m*3 -3.5 C 0 km/h
2812 10-03-2010 02:29:03 -3.6 C 1.77 g/m*3 -3.6 C 0 km/h
2813 10-03-2010 02:41:03 -3.8 C 1.78 g/m*3 -3.8 C 0 km/h
2814 10-03-2010 02:53:03 -3.8 C 1.78 g/m*3 -3.8 C 0 km/h
2815 10-03-2010 03:05:03 -3.8 C 1.78 g/m*3 -3.8 C 0 km/h
2816 10-03-2010 03:17:03 -3.8 C 1.82 g/m*3 -3.8 C 0 km/h
2817 10-03-2010 03:29:03 -3.9 C 1.81 g/m*3 -3.9 C 0 km/h
2818 10-03-2010 03:41:03 -3.9 C 1.77 g/m*3 -3.9 C 0 km/h
2819 10-03-2010 03:53:03 -3.9 C 1.77 g/m*3 -3.9 C 0 km/h
2820 10-03-2010 04:05:03 -3.6 C 1.81 g/m*3 -3.6 C 0 km/h
2821 10-03-2010 04:17:03 -3.5 C 1.78 g/m*3 -3.5 C 0 km/h
2822 10-03-2010 04:29:03 -3.5 C 1.74 g/m*3 -3.5 C 0 km/h
2823 10-03-2010 04:41:03 -3.5 C 1.74 g/m*3 -3.5 C 0 km/h
2824 10-03-2010 04:53:03 -3.5 C 1.71 g/m*3 -3.5 C 0 km/h
2825 10-03-2010 05:05:03 -3.6 C 1.69 g/m*3 -3.6 C 0 km/h
Sensor: Nr:Datum:Temp:Abs-Feuchte:Windchill:Wind:
Aussen-T/F 2826 10-03-2010 05:17:03 -3.5 C 1.71 g/m*3 -3.5 C 0 km/h
2827 10-03-2010 05:29:04 -3.5 C 1.71 g/m*3 -3.5 C 0 km/h
2828 10-03-2010 05:41:04 -3.5 C 1.71 g/m*3 -3.5 C 0 km/h
2829 10-03-2010 05:53:04 -3.4 C 1.68 g/m*3 -3.4 C 0 km/h
2830 10-03-2010 06:05:04 -3.6 C 1.66 g/m*3 -3.6 C 0 km/h
2831 10-03-2010 06:17:04 -3.6 C 1.69 g/m*3 -3.6 C 0 km/h
2832 10-03-2010 06:29:04 -3.9 C 1.69 g/m*3 -3.9 C 0 km/h
2833 10-03-2010 06:41:04 -3.8 C 1.67 g/m*3 -3.8 C 0 km/h
2834 10-03-2010 06:53:04 -3.7 C 1.68 g/m*3 -3.7 C 0 km/h
2835 10-03-2010 07:05:02 -3.7 C 1.68 g/m*3 -3.7 C 0 km/h
2836 10-03-2010 07:17:02 -3.6 C 1.69 g/m*3 -3.6 C 0 km/h
2837 10-03-2010 07:29:02 -3.6 C 1.69 g/m*3 -3.6 C 0 km/h
2838 10-03-2010 07:41:02 -3.4 C 1.72 g/m*3 -3.4 C 0 km/h
2839 10-03-2010 07:53:02 -3 C 1.69 g/m*3 -3 C 0 km/h
2840 10-03-2010 08:05:02 -2.7 C 1.69 g/m*3 -2.7 C 0 km/h
2841 10-03-2010 08:17:02 -2.5 C 1.67 g/m*3 -2.5 C 0 km/h
2842 10-03-2010 08:29:02 -2.1 C 1.67 g/m*3 -2.1 C 0 km/h
2843 10-03-2010 08:41:02 -1.8 C 1.62 g/m*3 -1.8 C 0 km/h
2844 10-03-2010 08:53:02 -1.3 C 1.51 g/m*3 -1.3 C 0 km/h
2845 10-03-2010 09:05:02 -1 C 1.4 g/m*3 -1 C 0 km/h
2846 10-03-2010 09:17:02 -0.8 C 1.38 g/m*3 -0.8 C 0 km/h
2847 10-03-2010 09:29:02 -0.4 C 1.23 g/m*3 -0.4 C 0 km/h
2848 10-03-2010 09:41:01 -0.1 C 1.2 g/m*3 -0.1 C 0 km/h
2849 10-03-2010 09:53:01 0.5 C 1 g/m*3 0.5 C 0 km/h
2850 10-03-2010 10:05:01 1.1 C 1.05 g/m*3 1.1 C 0 km/h
Sensor: Nr:Datum:Temp:Abs-Feuchte:Windchill:Wind:
Aussen-T/F 2851 10-03-2010 10:17:02 1.4 C 1.07 g/m*3 1.4 C 0 km/h
2852 10-03-2010 10:29:02 1.8 C 1.1 g/m*3 1.8 C 0 km/h
2853 10-03-2010 10:41:01 2.3 C 1.13 g/m*3 2.3 C 0 km/h
2854 10-03-2010 10:53:02 2.8 C 1.17 g/m*3 2.8 C 0 km/h
2855 10-03-2010 11:05:01 3.3 C 1.21 g/m*3 3.3 C 0 km/h
2856 10-03-2010 11:17:02 3.6 C 1.24 g/m*3 3.6 C 0 km/h
2857 10-03-2010 11:29:02 3.9 C 1.26 g/m*3 3.9 C 0 km/h
2858 10-03-2010 11:41:01 4.1 C 1.28 g/m*3 4.1 C 0 km/h
2859 10-03-2010 11:53:02 4.3 C 1.62 g/m*3 4.3 C 0 km/h
2860 10-03-2010 12:05:02 4.6 C 1.52 g/m*3 4.6 C 0 km/h
2861 10-03-2010 12:17:02 5.1 C 1.57 g/m*3 5.1 C 0 km/h
2862 10-03-2010 12:29:02 5.7 C 1.49 g/m*3 5.7 C 0 km/h
2863 10-03-2010 12:41:01 6.1 C 1.46 g/m*3 6.1 C 0 km/h
2864 10-03-2010 12:53:02 6.5 C 1.5 g/m*3 6.5 C 0 km/h
2865 10-03-2010 13:05:01 6.6 C 1.51 g/m*3 6.6 C 0 km/h
2866 10-03-2010 13:17:01 7 C 1.55 g/m*3 7 C 0 km/h
2867 10-03-2010 13:29:01 7.4 C 1.59 g/m*3 7.4 C 0 km/h
2868 10-03-2010 13:41:02 7.6 C 1.61 g/m*3 7.6 C 0 km/h
2869 10-03-2010 13:53:02 8 C 1.65 g/m*3 8 C 0 km/h
2870 10-03-2010 14:05:02 8.2 C 1.67 g/m*3 8.2 C 0 km/h
2871 10-03-2010 14:17:02 8.2 C 1.67 g/m*3 8.2 C 0 km/h
2872 10-03-2010 14:29:02 8.3 C 1.69 g/m*3 8.3 C 0 km/h
2873 10-03-2010 14:41:02 8.5 C 1.71 g/m*3 8.5 C 0 km/h
2874 10-03-2010 14:53:02 8.2 C 1.67 g/m*3 8.2 C 0 km/h
2875 10-03-2010 15:05:03 8.7 C 1.73 g/m*3 8.7 C 0 km/h
Sensor: Nr:Datum:Temp:Abs-Feuchte:Windchill:Wind:
Aussen-T/F 2876 10-03-2010 15:17:02 9.3 C 1.8 g/m*3 9.3 C 0 km/h
2877 10-03-2010 15:29:02 8.7 C 1.73 g/m*3 8.7 C 0 km/h
2878 10-03-2010 15:41:02 8.4 C 1.7 g/m*3 8.4 C 0 km/h
2879 10-03-2010 15:53:01 8.8 C 1.74 g/m*3 8.8 C 0 km/h
2880 10-03-2010 16:05:02 8.7 C 1.73 g/m*3 8.7 C 0 km/h
2881 10-03-2010 16:17:01 8.3 C 1.69 g/m*3 8.3 C 0 km/h
2882 10-03-2010 16:29:01 7.8 C 1.63 g/m*3 7.8 C 0 km/h
2883 10-03-2010 16:41:01 7.4 C 1.59 g/m*3 7.4 C 0 km/h
2884 10-03-2010 16:53:01 7.1 C 1.56 g/m*3 7.1 C 0 km/h
2885 10-03-2010 17:05:02 6.8 C 1.53 g/m*3 6.8 C 0 km/h
2886 10-03-2010 17:17:02 6.5 C 1.5 g/m*3 6.5 C 0 km/h
2887 10-03-2010 17:29:02 6.2 C 1.47 g/m*3 6.2 C 0 km/h
2888 10-03-2010 17:41:01 6.1 C 1.46 g/m*3 6.1 C 0 km/h
2889 10-03-2010 17:53:01 5.7 C 1.42 g/m*3 5.7 C 0 km/h
2890 10-03-2010 18:05:01 5.4 C 1.4 g/m*3 5.4 C 0 km/h
2891 10-03-2010 18:17:02 5 C 1.36 g/m*3 5 C 0 km/h
2892 10-03-2010 18:29:02 4.4 C 1.5 g/m*3 4.4 C 0 km/h
2893 10-03-2010 18:41:01 4 C 1.78 g/m*3 4 C 0 km/h
2894 10-03-2010 18:53:02 3.7 C 1.93 g/m*3 3.7 C 0 km/h
2895 10-03-2010 19:05:01 3.7 C 1.81 g/m*3 3.7 C 0 km/h
2896 10-03-2010 19:17:02 3.5 C 1.72 g/m*3 3.5 C 0 km/h
2897 10-03-2010 19:29:02 3.3 C 1.7 g/m*3 3.3 C 0 km/h
2898 10-03-2010 19:41:01 2.9 C 1.89 g/m*3 2.9 C 0 km/h
2899 10-03-2010 19:53:03 2.7 C 1.81 g/m*3 2.7 C 0 km/h
2900 10-03-2010 20:05:02 2.7 C 1.81 g/m*3 2.7 C 0 km/h
Sensor: Nr:Datum:Temp:Abs-Feuchte:Windchill:Wind:
Aussen-T/F 2901 10-03-2010 20:17:02 2.5 C 1.78 g/m*3 2.5 C 0 km/h
2902 10-03-2010 20:29:02 2.4 C 1.83 g/m*3 2.4 C 0 km/h
2903 10-03-2010 20:41:02 2.3 C 1.76 g/m*3 2.3 C 0 km/h
2904 10-03-2010 20:53:02 2.2 C 1.8 g/m*3 2.2 C 0 km/h
2905 10-03-2010 21:05:01 2.2 C 1.75 g/m*3 2.2 C 0 km/h
2906 10-03-2010 21:18:02 2.1 C 1.73 g/m*3 2.1 C 0 km/h
2907 10-03-2010 21:30:02 1.9 C 1.93 g/m*3 1.9 C 0 km/h
2908 10-03-2010 21:42:02 1.8 C 1.92 g/m*3 1.8 C 0 km/h
2909 10-03-2010 21:54:02 1.7 C 1.96 g/m*3 1.7 C 0 km/h
2910 10-03-2010 22:06:02 1.5 C 1.99 g/m*3 1.5 C 0 km/h
2911 10-03-2010 22:18:02 1.5 C 1.99 g/m*3 1.5 C 0 km/h
2912 10-03-2010 22:30:02 1.4 C 2.03 g/m*3 1.4 C 0 km/h
2913 10-03-2010 22:42:02 1.4 C 2.03 g/m*3 1.4 C 0 km/h
2914 10-03-2010 22:54:02 1.4 C 2.08 g/m*3 1.4 C 0 km/h
2915 10-03-2010 23:06:02 1.1 C 2.09 g/m*3 1.1 C 0 km/h
2916 10-03-2010 23:18:02 0.8 C 2.15 g/m*3 0.8 C 0 km/h
2917 10-03-2010 23:30:02 0.6 C 2.22 g/m*3 0.6 C 0 km/h
2918 10-03-2010 23:42:02 0.4 C 2.24 g/m*3 0.4 C 0 km/h
2919 10-03-2010 23:54:02 0.2 C 2.26 g/m*3 0.2 C 0 km/h
2920 11-03-2010 00:06:02 0 C 2.33 g/m*3 0 C 0 km/h
2921 11-03-2010 00:18:02 0 C 2.33 g/m*3 0 C 0 km/h
2922 11-03-2010 00:30:02 -0.2 C 2.29 g/m*3 -0.2 C 0 km/h
2923 11-03-2010 00:42:02 -0.2 C 2.29 g/m*3 -0.2 C 0 km/h
2924 11-03-2010 00:54:02 -0.2 C 2.29 g/m*3 -0.2 C 0 km/h
2925 11-03-2010 01:06:02 -0.3 C 2.28 g/m*3 -0.3 C 0 km/h
Sensor: Nr:Datum:Temp:Abs-Feuchte:Windchill:Wind:
Aussen-T/F 2926 11-03-2010 01:18:03 -0.5 C 2.25 g/m*3 -0.5 C 0 km/h
2927 11-03-2010 01:30:03 -0.9 C 2.28 g/m*3 -0.9 C 0 km/h
2928 11-03-2010 01:42:03 -0.9 C 2.37 g/m*3 -0.9 C 0 km/h
2929 11-03-2010 01:54:03 -1.1 C 2.29 g/m*3 -1.1 C 0 km/h
2930 11-03-2010 02:06:03 -1 C 2.31 g/m*3 -1 C 0 km/h
2931 11-03-2010 02:18:03 -1.1 C 2.29 g/m*3 -1.1 C 0 km/h
2932 11-03-2010 02:30:03 -1.3 C 2.3 g/m*3 -1.3 C 0 km/h
2933 11-03-2010 02:42:03 -1.3 C 2.3 g/m*3 -1.3 C 0 km/h
2934 11-03-2010 02:54:03 -1.4 C 2.33 g/m*3 -1.4 C 0 km/h
2935 11-03-2010 03:06:03 -1.5 C 2.31 g/m*3 -1.5 C 0 km/h
2936 11-03-2010 03:18:03 -1.5 C 2.36 g/m*3 -1.5 C 0 km/h
2937 11-03-2010 03:30:03 -1.7 C 2.32 g/m*3 -1.7 C 0 km/h
2938 11-03-2010 03:42:03 -1.8 C 2.31 g/m*3 -1.8 C 0 km/h
2939 11-03-2010 03:54:03 -1.9 C 2.29 g/m*3 -1.9 C 0 km/h
2940 11-03-2010 04:06:03 -2 C 2.32 g/m*3 -2 C 0 km/h
2941 11-03-2010 04:18:03 -2 C 2.32 g/m*3 -2 C 0 km/h
2942 11-03-2010 04:30:03 -2.1 C 2.3 g/m*3 -2.1 C 0 km/h
2943 11-03-2010 04:42:03 -2.2 C 2.29 g/m*3 -2.2 C 0 km/h
2944 11-03-2010 04:54:03 -2.3 C 2.31 g/m*3 -2.3 C 0 km/h
2945 11-03-2010 05:06:03 -2.6 C 2.26 g/m*3 -2.6 C 0 km/h
2946 11-03-2010 05:18:03 -3 C 2.2 g/m*3 -3 C 0 km/h
2947 11-03-2010 05:30:04 -3 C 2.32 g/m*3 -3 C 0 km/h
2948 11-03-2010 05:42:04 -3 C 2.4 g/m*3 -3 C 0 km/h
2949 11-03-2010 05:54:04 -2.8 C 2.39 g/m*3 -2.8 C 0 km/h
2950 11-03-2010 06:06:04 -2.7 C 2.37 g/m*3 -2.7 C 0 km/h
Sensor: Nr:Datum:Temp:Abs-Feuchte:Windchill:Wind:
Aussen-T/F 2951 11-03-2010 06:18:04 -2.8 C 2.35 g/m*3 -2.8 C 0 km/h
2952 11-03-2010 06:30:04 -2.8 C 2.39 g/m*3 -2.8 C 0 km/h
2953 11-03-2010 06:42:04 -2.8 C 2.39 g/m*3 -2.8 C 0 km/h
2954 11-03-2010 06:54:04 -2.8 C 2.43 g/m*3 -2.8 C 0 km/h
2955 11-03-2010 07:06:02 -2.9 C 2.45 g/m*3 -2.9 C 0 km/h
2956 11-03-2010 07:18:01 -3 C 2.44 g/m*3 -3 C 0 km/h
2957 11-03-2010 07:30:01 -3 C 2.47 g/m*3 -3 C 0 km/h
2958 11-03-2010 07:42:02 -2.9 C 2.49 g/m*3 -2.9 C 0 km/h
2959 11-03-2010 07:54:01 -2.7 C 2.53 g/m*3 -2.7 C 0 km/h
2960 11-03-2010 08:06:02 -2.4 C 2.58 g/m*3 -2.4 C 0 km/h
2961 11-03-2010 08:18:02 -2.1 C 2.55 g/m*3 -2.1 C 0 km/h
2962 11-03-2010 08:30:02 -1.8 C 2.52 g/m*3 -1.8 C 0 km/h
2963 11-03-2010 08:42:01 -1.3 C 2.52 g/m*3 -1.3 C 0 km/h
2964 11-03-2010 08:54:02 -0.9 C 2.55 g/m*3 -0.9 C 0 km/h
2965 11-03-2010 09:06:01 -0.7 C 2.54 g/m*3 -0.7 C 0 km/h
2966 11-03-2010 09:18:02 -0.4 C 2.45 g/m*3 -0.4 C 0 km/h
2967 11-03-2010 09:30:03 -0.3 C 2.42 g/m*3 -0.3 C 0 km/h
2968 11-03-2010 09:42:01 -0.2 C 2.39 g/m*3 -0.2 C 0 km/h
2969 11-03-2010 09:54:02 -0.2 C 2.29 g/m*3 -0.2 C 0 km/h
2970 11-03-2010 10:06:02 0.1 C 2.34 g/m*3 0.1 C 0 km/h
2971 11-03-2010 10:18:02 0.2 C 2.36 g/m*3 0.2 C 0 km/h
2972 11-03-2010 10:30:02 0.2 C 2.31 g/m*3 0.2 C 0 km/h
2973 11-03-2010 10:42:03 0.4 C 2.39 g/m*3 0.4 C 0 km/h
2974 11-03-2010 10:54:02 0.9 C 2.42 g/m*3 0.9 C 0 km/h
2975 11-03-2010 11:06:01 1.1 C 2.35 g/m*3 1.1 C 0 km/h
Sensor: Nr:Datum:Temp:Abs-Feuchte:Windchill:Wind:
Aussen-T/F 2976 11-03-2010 11:18:02 1.4 C 2.35 g/m*3 1.4 C 0 km/h
2977 11-03-2010 11:30:02 1.6 C 2.27 g/m*3 1.6 C 0 km/h
2978 11-03-2010 11:42:02 1.9 C 2.26 g/m*3 1.9 C 0 km/h
2979 11-03-2010 11:54:02 2 C 2.17 g/m*3 2 C 0 km/h
2980 11-03-2010 12:06:03 2.2 C 2.2 g/m*3 2.2 C 0 km/h
2981 11-03-2010 12:18:02 2.7 C 2.21 g/m*3 2.7 C 0 km/h
2982 11-03-2010 12:30:02 3.1 C 2.04 g/m*3 3.1 C 0 km/h
2983 11-03-2010 12:42:02 3.6 C 1.98 g/m*3 3.6 C 0 km/h
2984 11-03-2010 12:54:02 4 C 1.91 g/m*3 4 C 0 km/h
2985 11-03-2010 13:06:02 4.5 C 1.84 g/m*3 4.5 C 0 km/h
2986 11-03-2010 13:18:01 4.8 C 1.68 g/m*3 4.8 C 0 km/h
2987 11-03-2010 13:30:01 5.1 C 1.78 g/m*3 5.1 C 0 km/h
2988 11-03-2010 13:42:02 5.9 C 1.87 g/m*3 5.9 C 0 km/h
2989 11-03-2010 13:54:02 5.6 C 1.84 g/m*3 5.6 C 0 km/h
2990 11-03-2010 14:06:02 6.1 C 1.9 g/m*3 6.1 C 0 km/h
2991 11-03-2010 14:18:01 6.5 C 1.95 g/m*3 6.5 C 0 km/h
2992 11-03-2010 14:30:01 6.2 C 2.13 g/m*3 6.2 C 0 km/h
2993 11-03-2010 14:42:02 6.6 C 2.04 g/m*3 6.6 C 0 km/h
2994 11-03-2010 14:54:02 6.3 C 2.07 g/m*3 6.3 C 0 km/h
2995 11-03-2010 15:06:02 5.7 C 2.35 g/m*3 5.7 C 0 km/h
2996 11-03-2010 15:18:01 5.9 C 2.45 g/m*3 5.9 C 0 km/h
2997 11-03-2010 15:30:01 4.9 C 2.57 g/m*3 4.9 C 0 km/h
2998 11-03-2010 15:42:02 4.6 C 2.65 g/m*3 4.6 C 0 km/h
2999 11-03-2010 15:54:02 4.8 C 2.68 g/m*3 4.8 C 0 km/h
3000 11-03-2010 16:06:02 4.7 C 2.66 g/m*3 4.7 C 0 km/h
Sensor: Nr:Datum:Temp:Abs-Feuchte:Windchill:Wind:
Aussen-T/F 3001 11-03-2010 16:18:02 4.8 C 2.68 g/m*3 4.8 C 0 km/h
3002 11-03-2010 16:30:02 4.3 C 2.66 g/m*3 4.3 C 0 km/h
3003 11-03-2010 16:42:02 4.2 C 2.71 g/m*3 4.2 C 0 km/h
3004 11-03-2010 16:54:02 4 C 2.67 g/m*3 4 C 0 km/h
3005 11-03-2010 17:06:02 3.9 C 2.78 g/m*3 3.9 C 0 km/h
3006 11-03-2010 17:18:02 3.6 C 2.79 g/m*3 3.6 C 0 km/h
3007 11-03-2010 17:30:02 3.1 C 2.75 g/m*3 3.1 C 0 km/h
3008 11-03-2010 17:42:04 2.8 C 2.82 g/m*3 2.8 C 0 km/h
3009 11-03-2010 17:54:02 2.2 C 2.76 g/m*3 2.2 C 0 km/h
3010 11-03-2010 18:06:01 2 C 2.78 g/m*3 2 C 0 km/h
3011 11-03-2010 18:18:02 1.6 C 2.87 g/m*3 1.6 C 0 km/h
3012 11-03-2010 18:30:02 1.2 C 2.84 g/m*3 1.2 C 0 km/h
3013 11-03-2010 18:42:02 0.9 C 2.89 g/m*3 0.9 C 0 km/h
3014 11-03-2010 18:54:02 0.7 C 2.9 g/m*3 0.7 C 0 km/h
3015 11-03-2010 19:06:02 0.4 C 2.89 g/m*3 0.4 C 0 km/h
3016 11-03-2010 19:18:02 0.3 C 2.92 g/m*3 0.3 C 0 km/h
3017 11-03-2010 19:30:02 0.3 C 2.97 g/m*3 0.3 C 0 km/h
3018 11-03-2010 19:42:02 0.1 C 2.93 g/m*3 0.1 C 0 km/h
3019 11-03-2010 19:54:02 0 C 2.91 g/m*3 0 C 0 km/h
3020 11-03-2010 20:06:02 -0.1 C 2.89 g/m*3 -0.1 C 0 km/h
3021 11-03-2010 20:18:02 -0.2 C 2.91 g/m*3 -0.2 C 0 km/h
3022 11-03-2010 20:30:02 -0.4 C 2.92 g/m*3 -0.4 C 0 km/h
3023 11-03-2010 20:42:02 -0.4 C 2.97 g/m*3 -0.4 C 0 km/h
3024 11-03-2010 20:54:01 -0.6 C 2.97 g/m*3 -0.6 C 0 km/h
3025 11-03-2010 21:07:04 -0.8 C 2.93 g/m*3 -0.8 C 0 km/h
Sensor: Nr:Datum:Temp:Abs-Feuchte:Windchill:Wind:
Aussen-T/F 3026 11-03-2010 21:19:04 -0.8 C 2.98 g/m*3 -0.8 C 0 km/h
3027 11-03-2010 21:31:04 -0.9 C 2.96 g/m*3 -0.9 C 0 km/h
3028 11-03-2010 21:43:05 -1.1 C 2.96 g/m*3 -1.1 C 0 km/h
3029 11-03-2010 21:55:05 -1.1 C 2.96 g/m*3 -1.1 C 0 km/h
3030 11-03-2010 22:07:05 -1.2 C 3.03 g/m*3 -1.2 C 0 km/h
3031 11-03-2010 22:19:05 -1.3 C 3.01 g/m*3 -1.3 C 0 km/h
3032 11-03-2010 22:31:05 -1.2 C 3.08 g/m*3 -1.2 C 0 km/h
3033 11-03-2010 22:43:05 -1.4 C 3.03 g/m*3 -1.4 C 0 km/h
3034 11-03-2010 22:55:05 -1.5 C 3.06 g/m*3 -1.5 C 0 km/h
3035 11-03-2010 23:07:05 -1.7 C 3.01 g/m*3 -1.7 C 0 km/h
3036 11-03-2010 23:19:05 -1.9 C 2.97 g/m*3 -1.9 C 0 km/h
3037 11-03-2010 23:31:05 -2 C 2.99 g/m*3 -2 C 0 km/h
3038 11-03-2010 23:43:05 -2.2 C 2.95 g/m*3 -2.2 C 0 km/h
3039 11-03-2010 23:55:05 -2.5 C 2.89 g/m*3 -2.5 C 0 km/h
3040 12-03-2010 00:07:05 -2.6 C 2.87 g/m*3 -2.6 C 0 km/h
3041 12-03-2010 00:19:05 -2.6 C 2.87 g/m*3 -2.6 C 0 km/h
3042 12-03-2010 00:31:05 -2.7 C 2.89 g/m*3 -2.7 C 0 km/h
3043 12-03-2010 00:43:05 -2.7 C 2.89 g/m*3 -2.7 C 0 km/h
3044 12-03-2010 00:55:05 -2.3 C 2.97 g/m*3 -2.3 C 0 km/h
3045 12-03-2010 01:07:05 -1.9 C 3.06 g/m*3 -1.9 C 0 km/h
3046 12-03-2010 01:19:05 -1.6 C 3.08 g/m*3 -1.6 C 0 km/h
3047 12-03-2010 01:31:05 -1.5 C 3.06 g/m*3 -1.5 C 0 km/h
3048 12-03-2010 01:43:05 -1.3 C 3.1 g/m*3 -1.3 C 0 km/h
3049 12-03-2010 01:55:06 -1.4 C 3.03 g/m*3 -1.4 C 0 km/h
3050 12-03-2010 02:07:06 -1.4 C 3.03 g/m*3 -1.4 C 0 km/h
Sensor: Nr:Datum:Temp:Abs-Feuchte:Windchill:Wind:
Aussen-T/F 3051 12-03-2010 02:19:06 -1.3 C 3.1 g/m*3 -1.3 C 0 km/h
3052 12-03-2010 02:31:06 -1.3 C 3.1 g/m*3 -1.3 C 0 km/h
3053 12-03-2010 02:43:06 -1.3 C 3.1 g/m*3 -1.3 C 0 km/h
3054 12-03-2010 02:55:06 -1.3 C 3.1 g/m*3 -1.3 C 0 km/h
3055 12-03-2010 03:07:06 -1.2 C 3.12 g/m*3 -1.2 C 0 km/h
3056 12-03-2010 03:19:06 -1.3 C 3.1 g/m*3 -1.3 C 0 km/h
3057 12-03-2010 03:31:06 -1.3 C 3.1 g/m*3 -1.3 C 0 km/h
3058 12-03-2010 03:43:06 -1.3 C 3.14 g/m*3 -1.3 C 0 km/h
3059 12-03-2010 03:55:06 -1.2 C 3.17 g/m*3 -1.2 C 0 km/h
3060 12-03-2010 04:07:06 -1.3 C 3.14 g/m*3 -1.3 C 0 km/h
3061 12-03-2010 04:19:06 -1.3 C 3.14 g/m*3 -1.3 C 0 km/h
3062 12-03-2010 04:31:06 -1.3 C 3.14 g/m*3 -1.3 C 0 km/h
3063 12-03-2010 04:43:06 -1.3 C 3.14 g/m*3 -1.3 C 0 km/h
3064 12-03-2010 04:55:06 -1.3 C 3.14 g/m*3 -1.3 C 0 km/h
3065 12-03-2010 05:07:06 -1.2 C 3.17 g/m*3 -1.2 C 0 km/h
3066 12-03-2010 05:19:06 -1.2 C 3.21 g/m*3 -1.2 C 0 km/h
3067 12-03-2010 05:31:06 -1.2 C 3.21 g/m*3 -1.2 C 0 km/h
3068 12-03-2010 05:43:06 -1.1 C 3.23 g/m*3 -1.1 C 0 km/h
3069 12-03-2010 05:55:06 -1.1 C 3.23 g/m*3 -1.1 C 0 km/h
3070 12-03-2010 06:07:07 -1.1 C 3.28 g/m*3 -1.1 C 0 km/h
3071 12-03-2010 06:19:07 -1.1 C 3.28 g/m*3 -1.1 C 0 km/h
3072 12-03-2010 06:31:07 -0.9 C 3.32 g/m*3 -0.9 C 0 km/h
3073 12-03-2010 06:43:07 -0.9 C 3.32 g/m*3 -0.9 C 0 km/h
3074 12-03-2010 06:55:07 -0.9 C 3.37 g/m*3 -0.9 C 0 km/h
3075 12-03-2010 07:07:03 -0.9 C 3.41 g/m*3 -0.9 C 0 km/h
Sensor: Nr:Datum:Temp:Abs-Feuchte:Windchill:Wind:
Aussen-T/F 3076 12-03-2010 07:19:04 -0.9 C 3.46 g/m*3 -0.9 C 0 km/h
3077 12-03-2010 07:31:03 -0.9 C 3.51 g/m*3 -0.9 C 0 km/h
3078 12-03-2010 07:43:03 -0.9 C 3.55 g/m*3 -0.9 C 0 km/h
3079 12-03-2010 07:55:01 -0.9 C 3.6 g/m*3 -0.9 C 0 km/h
3080 12-03-2010 08:07:02 -0.7 C 3.69 g/m*3 -0.7 C 0 km/h
3081 12-03-2010 08:19:02 -0.7 C 3.69 g/m*3 -0.7 C 0 km/h
3082 12-03-2010 08:31:01 -0.5 C 3.74 g/m*3 -0.5 C 0 km/h
3083 12-03-2010 08:43:01 -0.4 C 3.77 g/m*3 -0.4 C 0 km/h
3084 12-03-2010 08:55:03 -0.4 C 3.82 g/m*3 -0.4 C 0 km/h
3085 12-03-2010 09:07:02 -0.3 C 3.89 g/m*3 -0.3 C 0 km/h
3086 12-03-2010 09:19:02 -0.2 C 3.92 g/m*3 -0.2 C 0 km/h
3087 12-03-2010 09:31:03 0 C 4.02 g/m*3 0 C 0 km/h
3088 12-03-2010 09:43:03 0.1 C 4.05 g/m*3 0.1 C 0 km/h
3089 12-03-2010 09:55:02 0.3 C 4.06 g/m*3 0.3 C 0 km/h
3090 12-03-2010 10:07:01 0.4 C 4.08 g/m*3 0.4 C 0 km/h
3091 12-03-2010 10:19:02 0.7 C 4.12 g/m*3 0.7 C 0 km/h
3092 12-03-2010 10:31:02 0.9 C 4.12 g/m*3 0.9 C 0 km/h
3093 12-03-2010 10:43:02 1.3 C 4.13 g/m*3 1.3 C 0 km/h
3094 12-03-2010 10:55:02 1.5 C 4.14 g/m*3 1.5 C 0 km/h
3095 12-03-2010 11:07:03 1.8 C 4.11 g/m*3 1.8 C 0 km/h
3096 12-03-2010 11:19:02 2.1 C 4.08 g/m*3 2.1 C 0 km/h
3097 12-03-2010 11:31:02 2.2 C 4.06 g/m*3 2.2 C 0 km/h
3098 12-03-2010 11:43:03 2.6 C 4.17 g/m*3 2.6 C 0 km/h
3099 12-03-2010 11:55:01 2.7 C 4.2 g/m*3 2.7 C 0 km/h
3100 12-03-2010 12:07:02 2.8 C 4.16 g/m*3 2.8 C 0 km/h
Sensor: Nr:Datum:Temp:Abs-Feuchte:Windchill:Wind:
Aussen-T/F 3101 12-03-2010 12:19:01 3.1 C 4.19 g/m*3 3.1 C 0 km/h
3102 12-03-2010 12:31:01 3.4 C 4.28 g/m*3 3.4 C 0 km/h
3103 12-03-2010 12:43:01 3.8 C 4.27 g/m*3 3.8 C 0 km/h
3104 12-03-2010 12:55:01 3.9 C 4.29 g/m*3 3.9 C 0 km/h
3105 12-03-2010 13:07:02 4.4 C 4.31 g/m*3 4.4 C 0 km/h
3106 12-03-2010 13:19:01 4.4 C 4.24 g/m*3 4.4 C 0 km/h
3107 12-03-2010 13:31:02 4.6 C 4.3 g/m*3 4.6 C 0 km/h
3108 12-03-2010 13:43:02 5 C 4.14 g/m*3 5 C 0 km/h
3109 12-03-2010 13:55:01 5.2 C 4.27 g/m*3 5.2 C 0 km/h
3110 12-03-2010 14:07:02 4.8 C 4.16 g/m*3 4.8 C 0 km/h
3111 12-03-2010 14:19:02 5 C 4.08 g/m*3 5 C 0 km/h
3112 12-03-2010 14:31:01 5.1 C 4.1 g/m*3 5.1 C 0 km/h
3113 12-03-2010 14:43:01 5.4 C 4.12 g/m*3 5.4 C 0 km/h
3114 12-03-2010 14:55:01 6.1 C 4.09 g/m*3 6.1 C 0 km/h
3115 12-03-2010 15:07:02 7.1 C 4.29 g/m*3 7.1 C 0 km/h
3116 12-03-2010 15:19:02 6.9 C 3.85 g/m*3 6.9 C 0 km/h
3117 12-03-2010 15:31:01 7.4 C 4.06 g/m*3 7.4 C 0 km/h
3118 12-03-2010 15:43:01 7.3 C 3.95 g/m*3 7.3 C 0 km/h
3119 12-03-2010 15:55:01 6.1 C 3.8 g/m*3 6.1 C 0 km/h
3120 12-03-2010 16:07:01 5.3 C 4.09 g/m*3 5.3 C 0 km/h
3121 12-03-2010 16:19:02 4.9 C 4.25 g/m*3 4.9 C 0 km/h
3122 12-03-2010 16:31:01 5.1 C 4.38 g/m*3 5.1 C 0 km/h
3123 12-03-2010 16:43:01 5.2 C 4.41 g/m*3 5.2 C 0 km/h
3124 12-03-2010 16:55:02 5.1 C 4.31 g/m*3 5.1 C 0 km/h
3125 12-03-2010 17:07:01 4.9 C 4.32 g/m*3 4.9 C 0 km/h
Sensor: Nr:Datum:Temp:Abs-Feuchte:Windchill:Wind:
Aussen-T/F 3126 12-03-2010 17:19:01 4.9 C 4.32 g/m*3 4.9 C 0 km/h
3127 12-03-2010 17:31:01 4.8 C 4.29 g/m*3 4.8 C 0 km/h
3128 12-03-2010 17:43:01 4.4 C 4.24 g/m*3 4.4 C 0 km/h
3129 12-03-2010 17:55:02 4.1 C 4.29 g/m*3 4.1 C 0 km/h
3130 12-03-2010 18:07:02 3.9 C 4.36 g/m*3 3.9 C 0 km/h
3131 12-03-2010 18:19:02 3.7 C 4.36 g/m*3 3.7 C 0 km/h
3132 12-03-2010 18:31:01 3.5 C 4.37 g/m*3 3.5 C 0 km/h
3133 12-03-2010 18:43:01 3.2 C 4.28 g/m*3 3.2 C 0 km/h
3134 12-03-2010 18:55:02 3 C 4.28 g/m*3 3 C 0 km/h
3135 12-03-2010 19:07:01 2.8 C 4.34 g/m*3 2.8 C 0 km/h
3136 12-03-2010 19:19:02 2.8 C 4.34 g/m*3 2.8 C 0 km/h
3137 12-03-2010 19:31:01 2.8 C 4.4 g/m*3 2.8 C 0 km/h
3138 12-03-2010 19:43:01 2.9 C 4.43 g/m*3 2.9 C 0 km/h
3139 12-03-2010 19:55:02 3.1 C 4.43 g/m*3 3.1 C 0 km/h
3140 12-03-2010 20:07:02 3.1 C 4.43 g/m*3 3.1 C 0 km/h
3141 12-03-2010 20:19:02 3.1 C 4.43 g/m*3 3.1 C 0 km/h
3142 12-03-2010 20:31:03 3.2 C 4.46 g/m*3 3.2 C 0 km/h
3143 12-03-2010 20:43:03 3.1 C 4.37 g/m*3 3.1 C 0 km/h
3144 12-03-2010 20:55:02 2.9 C 4.43 g/m*3 2.9 C 0 km/h
3145 12-03-2010 21:07:01 2.8 C 4.4 g/m*3 2.8 C 0 km/h
3146 12-03-2010 21:19:02 2.8 C 4.46 g/m*3 2.8 C 0 km/h
3147 12-03-2010 21:31:02 2.7 C 4.43 g/m*3 2.7 C 0 km/h
3148 12-03-2010 21:43:02 2.7 C 4.43 g/m*3 2.7 C 0 km/h
3149 12-03-2010 21:55:03 2.6 C 4.4 g/m*3 2.6 C 0 km/h
3150 12-03-2010 22:07:03 2.6 C 4.4 g/m*3 2.6 C 0 km/h
Sensor: Nr:Datum:Temp:Abs-Feuchte:Windchill:Wind:
Aussen-T/F 3151 12-03-2010 22:20:03 2.6 C 4.46 g/m*3 2.6 C 0 km/h
3152 12-03-2010 22:32:03 2.4 C 4.4 g/m*3 2.4 C 0 km/h
3153 12-03-2010 22:44:03 2.4 C 4.45 g/m*3 2.4 C 0 km/h
3154 12-03-2010 22:56:03 2.4 C 4.45 g/m*3 2.4 C 0 km/h
3155 12-03-2010 23:08:03 2.4 C 4.45 g/m*3 2.4 C 0 km/h
3156 12-03-2010 23:20:03 2.4 C 4.45 g/m*3 2.4 C 0 km/h
3157 12-03-2010 23:32:03 2.3 C 4.42 g/m*3 2.3 C 0 km/h
3158 12-03-2010 23:44:03 2.2 C 4.45 g/m*3 2.2 C 0 km/h
3159 12-03-2010 23:56:03 2.3 C 4.48 g/m*3 2.3 C 0 km/h
3160 13-03-2010 00:08:03 2.3 C 4.48 g/m*3 2.3 C 0 km/h
3161 13-03-2010 00:20:03 2.2 C 4.45 g/m*3 2.2 C 0 km/h
3162 13-03-2010 00:32:03 2.3 C 4.48 g/m*3 2.3 C 0 km/h
3163 13-03-2010 00:44:03 2.3 C 4.48 g/m*3 2.3 C 0 km/h
3164 13-03-2010 00:56:03 2.3 C 4.48 g/m*3 2.3 C 0 km/h
3165 13-03-2010 01:08:03 2.2 C 4.45 g/m*3 2.2 C 0 km/h
3166 13-03-2010 01:20:03 2.2 C 4.39 g/m*3 2.2 C 0 km/h
3167 13-03-2010 01:32:03 2.3 C 4.42 g/m*3 2.3 C 0 km/h
3168 13-03-2010 01:44:03 2.2 C 4.39 g/m*3 2.2 C 0 km/h
3169 13-03-2010 01:56:03 2.2 C 4.39 g/m*3 2.2 C 0 km/h
3170 13-03-2010 02:08:03 2.2 C 4.39 g/m*3 2.2 C 0 km/h
3171 13-03-2010 02:20:03 2.1 C 4.31 g/m*3 2.1 C 0 km/h
3172 13-03-2010 02:32:03 2.2 C 4.34 g/m*3 2.2 C 0 km/h
3173 13-03-2010 02:44:04 2.1 C 4.25 g/m*3 2.1 C 0 km/h
3174 13-03-2010 02:56:04 2.2 C 4.28 g/m*3 2.2 C 0 km/h
3175 13-03-2010 03:08:04 2.2 C 4.22 g/m*3 2.2 C 0 km/h
Sensor: Nr:Datum:Temp:Abs-Feuchte:Windchill:Wind:
Aussen-T/F 3176 13-03-2010 03:20:04 2.2 C 4.22 g/m*3 2.2 C 0 km/h
3177 13-03-2010 03:32:04 2.2 C 4.22 g/m*3 2.2 C 0 km/h
3178 13-03-2010 03:44:04 2 C 4.17 g/m*3 2 C 0 km/h
3179 13-03-2010 03:56:04 1.8 C 4.22 g/m*3 1.8 C 0 km/h
3180 13-03-2010 04:08:04 1.9 C 4.19 g/m*3 1.9 C 0 km/h
3181 13-03-2010 04:20:04 2 C 4.17 g/m*3 2 C 0 km/h
3182 13-03-2010 04:32:04 2 C 4.17 g/m*3 2 C 0 km/h
3183 13-03-2010 04:44:04 2 C 4.17 g/m*3 2 C 0 km/h
3184 13-03-2010 04:56:04 2 C 4.17 g/m*3 2 C 0 km/h
3185 13-03-2010 05:08:04 2 C 4.17 g/m*3 2 C 0 km/h
3186 13-03-2010 05:20:04 1.8 C 4.17 g/m*3 1.8 C 0 km/h
3187 13-03-2010 05:32:04 1.9 C 4.19 g/m*3 1.9 C 0 km/h
3188 13-03-2010 05:44:04 2 C 4.11 g/m*3 2 C 0 km/h
3189 13-03-2010 05:56:04 2 C 4.11 g/m*3 2 C 0 km/h
3190 13-03-2010 06:08:04 2 C 4.11 g/m*3 2 C 0 km/h
3191 13-03-2010 06:20:04 2.1 C 4.08 g/m*3 2.1 C 0 km/h
3192 13-03-2010 06:32:04 2.2 C 4.11 g/m*3 2.2 C 0 km/h
3193 13-03-2010 06:44:04 2.1 C 4.08 g/m*3 2.1 C 0 km/h
3194 13-03-2010 06:56:02 2.3 C 4.2 g/m*3 2.3 C 0 km/h
3195 13-03-2010 07:08:02 2.3 C 4.25 g/m*3 2.3 C 0 km/h
3196 13-03-2010 07:20:02 2.3 C 4.31 g/m*3 2.3 C 0 km/h
3197 13-03-2010 07:32:02 2.3 C 4.31 g/m*3 2.3 C 0 km/h
3198 13-03-2010 07:44:02 2.4 C 4.45 g/m*3 2.4 C 0 km/h
3199 13-03-2010 07:56:02 2.6 C 4.63 g/m*3 2.6 C 0 km/h
3200 13-03-2010 08:08:02 2.7 C 4.66 g/m*3 2.7 C 0 km/h
Sensor: Nr:Datum:Temp:Abs-Feuchte:Windchill:Wind:
Aussen-T/F 3201 13-03-2010 08:20:02 2.8 C 4.69 g/m*3 2.8 C 0 km/h
3202 13-03-2010 08:32:02 2.9 C 4.72 g/m*3 2.9 C 0 km/h
3203 13-03-2010 08:44:02 3.1 C 4.73 g/m*3 3.1 C 0 km/h
3204 13-03-2010 08:56:02 3.3 C 4.73 g/m*3 3.3 C 0 km/h
3205 13-03-2010 09:08:01 3.4 C 4.7 g/m*3 3.4 C 0 km/h
3206 13-03-2010 09:20:02 3.4 C 4.64 g/m*3 3.4 C 0 km/h
3207 13-03-2010 09:32:01 3.6 C 4.7 g/m*3 3.6 C 0 km/h
3208 13-03-2010 09:44:01 3.6 C 4.7 g/m*3 3.6 C 0 km/h
3209 13-03-2010 09:56:02 3.7 C 4.74 g/m*3 3.7 C 0 km/h
3210 13-03-2010 10:08:01 4 C 4.7 g/m*3 4 C 0 km/h
3211 13-03-2010 10:20:02 4.4 C 4.7 g/m*3 4.4 C 0 km/h
3212 13-03-2010 10:32:02 4.8 C 4.69 g/m*3 4.8 C 0 km/h
3213 13-03-2010 10:44:02 4.8 C 4.49 g/m*3 4.8 C 0 km/h
3214 13-03-2010 10:56:02 5 C 4.42 g/m*3 5 C 0 km/h
3215 13-03-2010 11:08:02 4.8 C 4.22 g/m*3 4.8 C 0 km/h
3216 13-03-2010 11:20:02 4.7 C 4.26 g/m*3 4.7 C 0 km/h
3217 13-03-2010 11:32:02 5.2 C 4.34 g/m*3 5.2 C 0 km/h
3218 13-03-2010 11:44:02 5.3 C 4.23 g/m*3 5.3 C 0 km/h
3219 13-03-2010 11:56:02 6 C 4.06 g/m*3 6 C 0 km/h
3220 13-03-2010 12:08:02 6.5 C 4.05 g/m*3 6.5 C 0 km/h
3221 13-03-2010 12:20:01 6.2 C 3.75 g/m*3 6.2 C 0 km/h
3222 13-03-2010 12:32:02 5.8 C 3.72 g/m*3 5.8 C 0 km/h
3223 13-03-2010 12:44:02 6.3 C 3.78 g/m*3 6.3 C 0 km/h
3224 13-03-2010 12:56:02 6.7 C 3.72 g/m*3 6.7 C 0 km/h
3225 13-03-2010 13:08:02 6.3 C 3.7 g/m*3 6.3 C 0 km/h
Sensor: Nr:Datum:Temp:Abs-Feuchte:Windchill:Wind:
Aussen-T/F 3226 13-03-2010 13:20:02 6 C 3.7 g/m*3 6 C 0 km/h
3227 13-03-2010 13:32:02 5.8 C 3.94 g/m*3 5.8 C 0 km/h
3228 13-03-2010 13:44:02 5.8 C 4.01 g/m*3 5.8 C 0 km/h
3229 13-03-2010 13:56:02 6.1 C 4.16 g/m*3 6.1 C 0 km/h
3230 13-03-2010 14:08:02 6.3 C 4.07 g/m*3 6.3 C 0 km/h
3231 13-03-2010 14:20:02 6.3 C 4.07 g/m*3 6.3 C 0 km/h
3232 13-03-2010 14:32:02 6.1 C 4.02 g/m*3 6.1 C 0 km/h
3233 13-03-2010 14:44:02 6.2 C 3.97 g/m*3 6.2 C 0 km/h
3234 13-03-2010 14:56:02 6.3 C 4 g/m*3 6.3 C 0 km/h
3235 13-03-2010 15:08:02 6.5 C 4.05 g/m*3 6.5 C 0 km/h
3236 13-03-2010 15:20:02 6.5 C 3.9 g/m*3 6.5 C 0 km/h
3237 13-03-2010 15:32:02 6.5 C 3.9 g/m*3 6.5 C 0 km/h
3238 13-03-2010 15:44:02 6.7 C 4.03 g/m*3 6.7 C 0 km/h
3239 13-03-2010 15:56:02 6.6 C 3.93 g/m*3 6.6 C 0 km/h
3240 13-03-2010 16:08:02 6.6 C 3.93 g/m*3 6.6 C 0 km/h
3241 13-03-2010 16:20:03 6.5 C 3.9 g/m*3 6.5 C 0 km/h
3242 13-03-2010 16:32:02 6.5 C 3.9 g/m*3 6.5 C 0 km/h
3243 13-03-2010 16:44:02 6.4 C 3.87 g/m*3 6.4 C 0 km/h